<?xml version="1.0" encoding="UTF-8" standalone="no" ?>
<gpx xmlns="http://www.topografix.com/GPX/1/1" xmlns:xsi="http://www.w3.org/2001/XMLSchema-instance" xsi:schemaLocation="http://www.topografix.com/GPX/1/1 http://www.topografix.com/GPX/1/1/gpx.xsd" version="1.1" creator="VisuGPX - https://www.visugpx.com">
  <metadata>
    <name>Combe Marto</name>
    <desc><![CDATA[Depuis le Reposoir]]></desc>
  </metadata>
  <trk>
    <name><![CDATA[Combe Marto_1]]></name>
    <trkseg>
      <trkpt lat="46.00171" lon="6.54053">
        <ele>1043.599975</ele>
        <time>2012-03-11T07:43:04Z</time>
      </trkpt>
      <trkpt lat="46.00168" lon="6.54064">
        <ele>1044.400024</ele>
        <time>2012-03-11T07:49:17Z</time>
      </trkpt>
      <trkpt lat="46.00168" lon="6.54066">
        <ele>1044.300048</ele>
        <time>2012-03-11T07:49:18Z</time>
      </trkpt>
      <trkpt lat="46.00161" lon="6.54083">
        <ele>1042.8</ele>
        <time>2012-03-11T07:49:33Z</time>
      </trkpt>
      <trkpt lat="46.00152" lon="6.54085">
        <ele>1042.4</ele>
        <time>2012-03-11T07:49:41Z</time>
      </trkpt>
      <trkpt lat="46.00144" lon="6.54087">
        <ele>1041.5</ele>
        <time>2012-03-11T07:49:48Z</time>
      </trkpt>
      <trkpt lat="46.00136" lon="6.54088">
        <ele>1041</ele>
        <time>2012-03-11T07:49:56Z</time>
      </trkpt>
      <trkpt lat="46.00127" lon="6.54089">
        <ele>1041.3</ele>
        <time>2012-03-11T07:50:04Z</time>
      </trkpt>
      <trkpt lat="46.00119" lon="6.54089">
        <ele>1041.5</ele>
        <time>2012-03-11T07:50:12Z</time>
      </trkpt>
      <trkpt lat="46.00111" lon="6.54088">
        <ele>1041.6</ele>
        <time>2012-03-11T07:50:20Z</time>
      </trkpt>
      <trkpt lat="46.0011" lon="6.54088">
        <ele>1041.6</ele>
        <time>2012-03-11T07:50:21Z</time>
      </trkpt>
      <trkpt lat="46.00094" lon="6.54097">
        <ele>1041.9</ele>
        <time>2012-03-11T07:50:39Z</time>
      </trkpt>
      <trkpt lat="46.00086" lon="6.54098">
        <ele>1041.5</ele>
        <time>2012-03-11T07:51:33Z</time>
      </trkpt>
      <trkpt lat="46.00085" lon="6.54098">
        <ele>1041.5</ele>
        <time>2012-03-11T07:51:34Z</time>
      </trkpt>
      <trkpt lat="46.00069" lon="6.54099">
        <ele>1047.6</ele>
        <time>2012-03-11T07:52:27Z</time>
      </trkpt>
      <trkpt lat="46.00061" lon="6.54104">
        <ele>1048.5</ele>
        <time>2012-03-11T07:52:36Z</time>
      </trkpt>
      <trkpt lat="46.0006" lon="6.54104">
        <ele>1048.5</ele>
        <time>2012-03-11T07:52:37Z</time>
      </trkpt>
      <trkpt lat="46.00044" lon="6.54112">
        <ele>1048.4</ele>
        <time>2012-03-11T07:52:57Z</time>
      </trkpt>
      <trkpt lat="46.00036" lon="6.54117">
        <ele>1049.5</ele>
        <time>2012-03-11T07:53:07Z</time>
      </trkpt>
      <trkpt lat="46.00028" lon="6.54121">
        <ele>1050</ele>
        <time>2012-03-11T07:53:16Z</time>
      </trkpt>
      <trkpt lat="46.0002" lon="6.54126">
        <ele>1051.4</ele>
        <time>2012-03-11T07:53:26Z</time>
      </trkpt>
      <trkpt lat="46.00012" lon="6.54128">
        <ele>1053.8</ele>
        <time>2012-03-11T07:53:36Z</time>
      </trkpt>
      <trkpt lat="46.00003" lon="6.54129">
        <ele>1054.1</ele>
        <time>2012-03-11T07:53:44Z</time>
      </trkpt>
      <trkpt lat="46.00002" lon="6.54129">
        <ele>1054</ele>
        <time>2012-03-11T07:53:45Z</time>
      </trkpt>
      <trkpt lat="45.99987" lon="6.54132">
        <ele>1052.3</ele>
        <time>2012-03-11T07:53:59Z</time>
      </trkpt>
      <trkpt lat="45.99979" lon="6.54135">
        <ele>1052.5</ele>
        <time>2012-03-11T07:54:08Z</time>
      </trkpt>
      <trkpt lat="45.99971" lon="6.54139">
        <ele>1053.8</ele>
        <time>2012-03-11T07:54:16Z</time>
      </trkpt>
      <trkpt lat="45.99963" lon="6.5414">
        <ele>1054.1</ele>
        <time>2012-03-11T07:54:25Z</time>
      </trkpt>
      <trkpt lat="45.99955" lon="6.54144">
        <ele>1055.8</ele>
        <time>2012-03-11T07:54:34Z</time>
      </trkpt>
      <trkpt lat="45.99946" lon="6.54149">
        <ele>1057.5</ele>
        <time>2012-03-11T07:54:44Z</time>
      </trkpt>
      <trkpt lat="45.99938" lon="6.54153">
        <ele>1064</ele>
        <time>2012-03-11T07:54:57Z</time>
      </trkpt>
      <trkpt lat="45.99938" lon="6.54154">
        <ele>1064.5</ele>
        <time>2012-03-11T07:54:58Z</time>
      </trkpt>
      <trkpt lat="45.99923" lon="6.54164">
        <ele>1082.9</ele>
        <time>2012-03-11T07:55:29Z</time>
      </trkpt>
      <trkpt lat="45.99914" lon="6.54164">
        <ele>1083.5</ele>
        <time>2012-03-11T07:55:41Z</time>
      </trkpt>
      <trkpt lat="45.99905" lon="6.54162">
        <ele>1083</ele>
        <time>2012-03-11T07:55:51Z</time>
      </trkpt>
      <trkpt lat="45.99898" lon="6.54156">
        <ele>1084.4</ele>
        <time>2012-03-11T07:56:00Z</time>
      </trkpt>
      <trkpt lat="45.99897" lon="6.54156">
        <ele>1084.8</ele>
        <time>2012-03-11T07:56:01Z</time>
      </trkpt>
      <trkpt lat="45.99882" lon="6.54148">
        <ele>1088.6</ele>
        <time>2012-03-11T07:56:17Z</time>
      </trkpt>
      <trkpt lat="45.99875" lon="6.54146">
        <ele>1086.6</ele>
        <time>2012-03-11T07:56:26Z</time>
      </trkpt>
      <trkpt lat="45.99866" lon="6.54142">
        <ele>1084.5</ele>
        <time>2012-03-11T07:56:34Z</time>
      </trkpt>
      <trkpt lat="45.99859" lon="6.54136">
        <ele>1081.9</ele>
        <time>2012-03-11T07:56:43Z</time>
      </trkpt>
      <trkpt lat="45.99852" lon="6.5413">
        <ele>1079</ele>
        <time>2012-03-11T07:56:53Z</time>
      </trkpt>
      <trkpt lat="45.99845" lon="6.54125">
        <ele>1077.9</ele>
        <time>2012-03-11T07:57:02Z</time>
      </trkpt>
      <trkpt lat="45.99843" lon="6.54124">
        <ele>1077.8</ele>
        <time>2012-03-11T07:57:03Z</time>
      </trkpt>
      <trkpt lat="45.99827" lon="6.54126">
        <ele>1080</ele>
        <time>2012-03-11T07:57:26Z</time>
      </trkpt>
      <trkpt lat="45.99818" lon="6.54126">
        <ele>1080.9</ele>
        <time>2012-03-11T07:57:35Z</time>
      </trkpt>
      <trkpt lat="45.9981" lon="6.54126">
        <ele>1081.4</ele>
        <time>2012-03-11T07:57:45Z</time>
      </trkpt>
      <trkpt lat="45.99801" lon="6.54127">
        <ele>1079.8</ele>
        <time>2012-03-11T07:57:54Z</time>
      </trkpt>
      <trkpt lat="45.99793" lon="6.54126">
        <ele>1076.8</ele>
        <time>2012-03-11T07:58:03Z</time>
      </trkpt>
      <trkpt lat="45.99792" lon="6.54126">
        <ele>1076.3</ele>
        <time>2012-03-11T07:58:04Z</time>
      </trkpt>
      <trkpt lat="45.99776" lon="6.54124">
        <ele>1072</ele>
        <time>2012-03-11T07:58:18Z</time>
      </trkpt>
      <trkpt lat="45.99768" lon="6.54123">
        <ele>1070.8</ele>
        <time>2012-03-11T07:58:26Z</time>
      </trkpt>
      <trkpt lat="45.99759" lon="6.54122">
        <ele>1070.9</ele>
        <time>2012-03-11T07:58:34Z</time>
      </trkpt>
      <trkpt lat="45.99751" lon="6.54124">
        <ele>1072.4</ele>
        <time>2012-03-11T07:58:43Z</time>
      </trkpt>
      <trkpt lat="45.99742" lon="6.54126">
        <ele>1073.4</ele>
        <time>2012-03-11T07:58:52Z</time>
      </trkpt>
      <trkpt lat="45.99733" lon="6.54128">
        <ele>1076.4</ele>
        <time>2012-03-11T07:59:01Z</time>
      </trkpt>
      <trkpt lat="45.99726" lon="6.54131">
        <ele>1080.3</ele>
        <time>2012-03-11T07:59:11Z</time>
      </trkpt>
      <trkpt lat="45.99725" lon="6.54131">
        <ele>1080.5</ele>
        <time>2012-03-11T07:59:12Z</time>
      </trkpt>
      <trkpt lat="45.9971" lon="6.54136">
        <ele>1090</ele>
        <time>2012-03-11T07:59:39Z</time>
      </trkpt>
      <trkpt lat="45.99701" lon="6.54133">
        <ele>1098</ele>
        <time>2012-03-11T07:59:55Z</time>
      </trkpt>
      <trkpt lat="45.99693" lon="6.54133">
        <ele>1108.6</ele>
        <time>2012-03-11T08:00:11Z</time>
      </trkpt>
      <trkpt lat="45.99684" lon="6.54131">
        <ele>1118</ele>
        <time>2012-03-11T08:00:25Z</time>
      </trkpt>
      <trkpt lat="45.99683" lon="6.5413">
        <ele>1119</ele>
        <time>2012-03-11T08:00:26Z</time>
      </trkpt>
      <trkpt lat="45.99668" lon="6.54121">
        <ele>1122.4</ele>
        <time>2012-03-11T08:00:48Z</time>
      </trkpt>
      <trkpt lat="45.99661" lon="6.54116">
        <ele>1118.6</ele>
        <time>2012-03-11T08:00:56Z</time>
      </trkpt>
      <trkpt lat="45.99652" lon="6.54115">
        <ele>1116.3</ele>
        <time>2012-03-11T08:01:06Z</time>
      </trkpt>
      <trkpt lat="45.99643" lon="6.54112">
        <ele>1116.4</ele>
        <time>2012-03-11T08:01:19Z</time>
      </trkpt>
      <trkpt lat="45.99636" lon="6.54109">
        <ele>1114.5</ele>
        <time>2012-03-11T08:01:29Z</time>
      </trkpt>
      <trkpt lat="45.99635" lon="6.54109">
        <ele>1114.1</ele>
        <time>2012-03-11T08:01:30Z</time>
      </trkpt>
      <trkpt lat="45.9962" lon="6.54099">
        <ele>1111.4</ele>
        <time>2012-03-11T08:01:51Z</time>
      </trkpt>
      <trkpt lat="45.99613" lon="6.54093">
        <ele>1110.3</ele>
        <time>2012-03-11T08:02:01Z</time>
      </trkpt>
      <trkpt lat="45.99605" lon="6.54089">
        <ele>1107.8</ele>
        <time>2012-03-11T08:02:10Z</time>
      </trkpt>
      <trkpt lat="45.99597" lon="6.54085">
        <ele>1105.8</ele>
        <time>2012-03-11T08:02:19Z</time>
      </trkpt>
      <trkpt lat="45.99588" lon="6.54082">
        <ele>1103.1</ele>
        <time>2012-03-11T08:02:28Z</time>
      </trkpt>
      <trkpt lat="45.9958" lon="6.5408">
        <ele>1101</ele>
        <time>2012-03-11T08:02:36Z</time>
      </trkpt>
      <trkpt lat="45.99579" lon="6.54081">
        <ele>1100.6</ele>
        <time>2012-03-11T08:02:37Z</time>
      </trkpt>
      <trkpt lat="45.99563" lon="6.54079">
        <ele>1097.9</ele>
        <time>2012-03-11T08:02:54Z</time>
      </trkpt>
      <trkpt lat="45.99555" lon="6.54079">
        <ele>1097</ele>
        <time>2012-03-11T08:03:02Z</time>
      </trkpt>
      <trkpt lat="45.99547" lon="6.5408">
        <ele>1096</ele>
        <time>2012-03-11T08:03:10Z</time>
      </trkpt>
      <trkpt lat="45.99538" lon="6.54078">
        <ele>1096</ele>
        <time>2012-03-11T08:03:18Z</time>
      </trkpt>
      <trkpt lat="45.9953" lon="6.54077">
        <ele>1097.3</ele>
        <time>2012-03-11T08:03:25Z</time>
      </trkpt>
      <trkpt lat="45.99521" lon="6.54079">
        <ele>1099</ele>
        <time>2012-03-11T08:03:34Z</time>
      </trkpt>
      <trkpt lat="45.99513" lon="6.54079">
        <ele>1105.6</ele>
        <time>2012-03-11T08:03:47Z</time>
      </trkpt>
      <trkpt lat="45.99512" lon="6.54079">
        <ele>1106.6</ele>
        <time>2012-03-11T08:03:48Z</time>
      </trkpt>
      <trkpt lat="45.99496" lon="6.54078">
        <ele>1129.9</ele>
        <time>2012-03-11T08:04:12Z</time>
      </trkpt>
      <trkpt lat="45.99487" lon="6.54078">
        <ele>1146</ele>
        <time>2012-03-11T08:04:33Z</time>
      </trkpt>
      <trkpt lat="45.99478" lon="6.54077">
        <ele>1150.8</ele>
        <time>2012-03-11T08:04:56Z</time>
      </trkpt>
      <trkpt lat="45.99478" lon="6.54076">
        <ele>1150.9</ele>
        <time>2012-03-11T08:04:57Z</time>
      </trkpt>
      <trkpt lat="45.99467" lon="6.54059">
        <ele>1156.8</ele>
        <time>2012-03-11T08:05:35Z</time>
      </trkpt>
      <trkpt lat="45.9946" lon="6.5405">
        <ele>1157</ele>
        <time>2012-03-11T08:05:54Z</time>
      </trkpt>
      <trkpt lat="45.99462" lon="6.54039">
        <ele>1155.8</ele>
        <time>2012-03-11T08:06:08Z</time>
      </trkpt>
      <trkpt lat="45.99462" lon="6.54038">
        <ele>1155.5</ele>
        <time>2012-03-11T08:06:09Z</time>
      </trkpt>
      <trkpt lat="45.99452" lon="6.54019">
        <ele>1148.8</ele>
        <time>2012-03-11T08:06:35Z</time>
      </trkpt>
      <trkpt lat="45.99445" lon="6.54013">
        <ele>1146</ele>
        <time>2012-03-11T08:06:46Z</time>
      </trkpt>
      <trkpt lat="45.99437" lon="6.54008">
        <ele>1141.9</ele>
        <time>2012-03-11T08:07:01Z</time>
      </trkpt>
      <trkpt lat="45.99429" lon="6.54002">
        <ele>1152.8</ele>
        <time>2012-03-11T08:07:36Z</time>
      </trkpt>
      <trkpt lat="45.99429" lon="6.54002">
        <ele>1153</ele>
        <time>2012-03-11T08:07:37Z</time>
      </trkpt>
      <trkpt lat="45.99412" lon="6.53998">
        <ele>1158.1</ele>
        <time>2012-03-11T08:08:08Z</time>
      </trkpt>
      <trkpt lat="45.99404" lon="6.53998">
        <ele>1154</ele>
        <time>2012-03-11T08:08:17Z</time>
      </trkpt>
      <trkpt lat="45.99396" lon="6.53998">
        <ele>1150</ele>
        <time>2012-03-11T08:08:25Z</time>
      </trkpt>
      <trkpt lat="45.99387" lon="6.53997">
        <ele>1146.1</ele>
        <time>2012-03-11T08:08:33Z</time>
      </trkpt>
      <trkpt lat="45.99379" lon="6.53996">
        <ele>1142.4</ele>
        <time>2012-03-11T08:08:42Z</time>
      </trkpt>
      <trkpt lat="45.99378" lon="6.53996">
        <ele>1141.9</ele>
        <time>2012-03-11T08:08:43Z</time>
      </trkpt>
      <trkpt lat="45.99362" lon="6.53996">
        <ele>1135.8</ele>
        <time>2012-03-11T08:09:00Z</time>
      </trkpt>
      <trkpt lat="45.99354" lon="6.53997">
        <ele>1133</ele>
        <time>2012-03-11T08:09:11Z</time>
      </trkpt>
      <trkpt lat="45.99345" lon="6.54">
        <ele>1131</ele>
        <time>2012-03-11T08:09:22Z</time>
      </trkpt>
      <trkpt lat="45.99337" lon="6.54005">
        <ele>1131.5</ele>
        <time>2012-03-11T08:09:39Z</time>
      </trkpt>
      <trkpt lat="45.99328" lon="6.54008">
        <ele>1143.5</ele>
        <time>2012-03-11T08:10:32Z</time>
      </trkpt>
      <trkpt lat="45.99328" lon="6.54009">
        <ele>1143.1</ele>
        <time>2012-03-11T08:10:33Z</time>
      </trkpt>
      <trkpt lat="45.99313" lon="6.54009">
        <ele>1149.4</ele>
        <time>2012-03-11T08:12:01Z</time>
      </trkpt>
      <trkpt lat="45.99312" lon="6.5401">
        <ele>1149</ele>
        <time>2012-03-11T08:12:02Z</time>
      </trkpt>
      <trkpt lat="45.99297" lon="6.54013">
        <ele>1131.9</ele>
        <time>2012-03-11T08:12:34Z</time>
      </trkpt>
      <trkpt lat="45.9929" lon="6.5402">
        <ele>1128.9</ele>
        <time>2012-03-11T08:12:44Z</time>
      </trkpt>
      <trkpt lat="45.99285" lon="6.54029">
        <ele>1132.4</ele>
        <time>2012-03-11T08:12:57Z</time>
      </trkpt>
      <trkpt lat="45.99277" lon="6.54035">
        <ele>1138.3</ele>
        <time>2012-03-11T08:13:14Z</time>
      </trkpt>
      <trkpt lat="45.99276" lon="6.54036">
        <ele>1138.8</ele>
        <time>2012-03-11T08:13:15Z</time>
      </trkpt>
      <trkpt lat="45.99263" lon="6.54048">
        <ele>1135.4</ele>
        <time>2012-03-11T08:13:34Z</time>
      </trkpt>
      <trkpt lat="45.99255" lon="6.54053">
        <ele>1132.5</ele>
        <time>2012-03-11T08:13:44Z</time>
      </trkpt>
      <trkpt lat="45.99248" lon="6.5406">
        <ele>1135.8</ele>
        <time>2012-03-11T08:13:56Z</time>
      </trkpt>
      <trkpt lat="45.99241" lon="6.54067">
        <ele>1136.9</ele>
        <time>2012-03-11T08:14:07Z</time>
      </trkpt>
      <trkpt lat="45.99234" lon="6.54075">
        <ele>1139.1</ele>
        <time>2012-03-11T08:14:20Z</time>
      </trkpt>
      <trkpt lat="45.99234" lon="6.54076">
        <ele>1139.5</ele>
        <time>2012-03-11T08:14:21Z</time>
      </trkpt>
      <trkpt lat="45.99221" lon="6.54091">
        <ele>1145.9</ele>
        <time>2012-03-11T08:14:48Z</time>
      </trkpt>
      <trkpt lat="45.99215" lon="6.541">
        <ele>1148.5</ele>
        <time>2012-03-11T08:14:59Z</time>
      </trkpt>
      <trkpt lat="45.99208" lon="6.54108">
        <ele>1150.4</ele>
        <time>2012-03-11T08:15:11Z</time>
      </trkpt>
      <trkpt lat="45.992" lon="6.54111">
        <ele>1152.3</ele>
        <time>2012-03-11T08:15:27Z</time>
      </trkpt>
      <trkpt lat="45.99199" lon="6.54112">
        <ele>1152.3</ele>
        <time>2012-03-11T08:15:28Z</time>
      </trkpt>
      <trkpt lat="45.99185" lon="6.54122">
        <ele>1155.6</ele>
        <time>2012-03-11T08:15:49Z</time>
      </trkpt>
      <trkpt lat="45.9918" lon="6.54131">
        <ele>1157.3</ele>
        <time>2012-03-11T08:15:59Z</time>
      </trkpt>
      <trkpt lat="45.99173" lon="6.54139">
        <ele>1161</ele>
        <time>2012-03-11T08:16:11Z</time>
      </trkpt>
      <trkpt lat="45.99165" lon="6.54146">
        <ele>1162.6</ele>
        <time>2012-03-11T08:16:24Z</time>
      </trkpt>
      <trkpt lat="45.99159" lon="6.54154">
        <ele>1164.3</ele>
        <time>2012-03-11T08:16:37Z</time>
      </trkpt>
      <trkpt lat="45.99158" lon="6.54155">
        <ele>1164.3</ele>
        <time>2012-03-11T08:16:38Z</time>
      </trkpt>
      <trkpt lat="45.99149" lon="6.54174">
        <ele>1202.8</ele>
        <time>2012-03-11T08:17:34Z</time>
      </trkpt>
      <trkpt lat="45.99142" lon="6.54183">
        <ele>1203</ele>
        <time>2012-03-11T08:17:46Z</time>
      </trkpt>
      <trkpt lat="45.99142" lon="6.54184">
        <ele>1203</ele>
        <time>2012-03-11T08:17:47Z</time>
      </trkpt>
      <trkpt lat="45.99131" lon="6.54202">
        <ele>1200.5</ele>
        <time>2012-03-11T08:18:07Z</time>
      </trkpt>
      <trkpt lat="45.99126" lon="6.54213">
        <ele>1209.3</ele>
        <time>2012-03-11T08:18:25Z</time>
      </trkpt>
      <trkpt lat="45.99119" lon="6.5422">
        <ele>1222.8</ele>
        <time>2012-03-11T08:18:47Z</time>
      </trkpt>
      <trkpt lat="45.99119" lon="6.54221">
        <ele>1222.8</ele>
        <time>2012-03-11T08:18:48Z</time>
      </trkpt>
      <trkpt lat="45.98764" lon="6.54399">
        <ele>1324</ele>
        <time>2012-03-11T08:31:34Z</time>
      </trkpt>
      <trkpt lat="45.98755" lon="6.54398">
        <ele>1322.5</ele>
        <time>2012-03-11T08:31:44Z</time>
      </trkpt>
      <trkpt lat="45.98746" lon="6.54397">
        <ele>1316.8</ele>
        <time>2012-03-11T08:31:57Z</time>
      </trkpt>
      <trkpt lat="45.98738" lon="6.54392">
        <ele>1318.4</ele>
        <time>2012-03-11T08:32:08Z</time>
      </trkpt>
      <trkpt lat="45.9873" lon="6.54389">
        <ele>1318</ele>
        <time>2012-03-11T08:32:17Z</time>
      </trkpt>
      <trkpt lat="45.98724" lon="6.54383">
        <ele>1323.5</ele>
        <time>2012-03-11T08:32:23Z</time>
      </trkpt>
      <trkpt lat="45.98716" lon="6.5438">
        <ele>1332</ele>
        <time>2012-03-11T08:32:29Z</time>
      </trkpt>
      <trkpt lat="45.98709" lon="6.54374">
        <ele>1340</ele>
        <time>2012-03-11T08:32:36Z</time>
      </trkpt>
      <trkpt lat="45.98708" lon="6.54374">
        <ele>1340.5</ele>
        <time>2012-03-11T08:32:37Z</time>
      </trkpt>
      <trkpt lat="45.98692" lon="6.5438">
        <ele>1326.1</ele>
        <time>2012-03-11T08:33:06Z</time>
      </trkpt>
      <trkpt lat="45.98683" lon="6.54378">
        <ele>1323.6</ele>
        <time>2012-03-11T08:33:18Z</time>
      </trkpt>
      <trkpt lat="45.98676" lon="6.54373">
        <ele>1327.4</ele>
        <time>2012-03-11T08:33:26Z</time>
      </trkpt>
      <trkpt lat="45.98669" lon="6.54367">
        <ele>1333.5</ele>
        <time>2012-03-11T08:33:33Z</time>
      </trkpt>
      <trkpt lat="45.98661" lon="6.54361">
        <ele>1341.3</ele>
        <time>2012-03-11T08:33:40Z</time>
      </trkpt>
      <trkpt lat="45.9866" lon="6.54361">
        <ele>1342.4</ele>
        <time>2012-03-11T08:33:41Z</time>
      </trkpt>
      <trkpt lat="45.98645" lon="6.54363">
        <ele>1345</ele>
        <time>2012-03-11T08:34:02Z</time>
      </trkpt>
      <trkpt lat="45.98638" lon="6.54371">
        <ele>1338.3</ele>
        <time>2012-03-11T08:34:14Z</time>
      </trkpt>
      <trkpt lat="45.9863" lon="6.54373">
        <ele>1341</ele>
        <time>2012-03-11T08:34:25Z</time>
      </trkpt>
      <trkpt lat="45.98621" lon="6.54374">
        <ele>1338.5</ele>
        <time>2012-03-11T08:34:37Z</time>
      </trkpt>
      <trkpt lat="45.98617" lon="6.54386">
        <ele>1317.3</ele>
        <time>2012-03-11T08:35:01Z</time>
      </trkpt>
      <trkpt lat="45.98617" lon="6.54386">
        <ele>1317</ele>
        <time>2012-03-11T08:35:02Z</time>
      </trkpt>
      <trkpt lat="45.98601" lon="6.54386">
        <ele>1319</ele>
        <time>2012-03-11T08:35:25Z</time>
      </trkpt>
      <trkpt lat="45.98594" lon="6.5438">
        <ele>1326</ele>
        <time>2012-03-11T08:35:33Z</time>
      </trkpt>
      <trkpt lat="45.98588" lon="6.54372">
        <ele>1332</ele>
        <time>2012-03-11T08:35:39Z</time>
      </trkpt>
      <trkpt lat="45.9858" lon="6.54367">
        <ele>1336.3</ele>
        <time>2012-03-11T08:35:47Z</time>
      </trkpt>
      <trkpt lat="45.98573" lon="6.54361">
        <ele>1339.1</ele>
        <time>2012-03-11T08:35:56Z</time>
      </trkpt>
      <trkpt lat="45.98565" lon="6.54355">
        <ele>1342.1</ele>
        <time>2012-03-11T08:36:05Z</time>
      </trkpt>
      <trkpt lat="45.98564" lon="6.54355">
        <ele>1342.4</ele>
        <time>2012-03-11T08:36:06Z</time>
      </trkpt>
      <trkpt lat="45.98549" lon="6.54348">
        <ele>1343.9</ele>
        <time>2012-03-11T08:36:24Z</time>
      </trkpt>
      <trkpt lat="45.98541" lon="6.54344">
        <ele>1349.5</ele>
        <time>2012-03-11T08:36:32Z</time>
      </trkpt>
      <trkpt lat="45.98532" lon="6.54339">
        <ele>1355.3</ele>
        <time>2012-03-11T08:36:40Z</time>
      </trkpt>
      <trkpt lat="45.98524" lon="6.54338">
        <ele>1354.5</ele>
        <time>2012-03-11T08:36:51Z</time>
      </trkpt>
      <trkpt lat="45.98515" lon="6.54338">
        <ele>1345.5</ele>
        <time>2012-03-11T08:37:06Z</time>
      </trkpt>
      <trkpt lat="45.98515" lon="6.54337">
        <ele>1345</ele>
        <time>2012-03-11T08:37:07Z</time>
      </trkpt>
      <trkpt lat="45.98501" lon="6.54323">
        <ele>1345.3</ele>
        <time>2012-03-11T08:37:28Z</time>
      </trkpt>
      <trkpt lat="45.98497" lon="6.54311">
        <ele>1347.5</ele>
        <time>2012-03-11T08:37:39Z</time>
      </trkpt>
      <trkpt lat="45.98497" lon="6.54299">
        <ele>1349.5</ele>
        <time>2012-03-11T08:37:51Z</time>
      </trkpt>
      <trkpt lat="45.98494" lon="6.54289">
        <ele>1340</ele>
        <time>2012-03-11T08:40:12Z</time>
      </trkpt>
      <trkpt lat="45.98492" lon="6.54287">
        <ele>1340.4</ele>
        <time>2012-03-11T08:40:13Z</time>
      </trkpt>
      <trkpt lat="45.9805" lon="6.54095">
        <ele>1357</ele>
        <time>2012-03-11T08:56:21Z</time>
      </trkpt>
      <trkpt lat="45.98049" lon="6.54094">
        <ele>1357.3</ele>
        <time>2012-03-11T08:56:23Z</time>
      </trkpt>
      <trkpt lat="45.97943" lon="6.54024">
        <ele>1377.3</ele>
        <time>2012-03-11T09:03:12Z</time>
      </trkpt>
      <trkpt lat="45.97937" lon="6.54032">
        <ele>1372.8</ele>
        <time>2012-03-11T09:03:30Z</time>
      </trkpt>
      <trkpt lat="45.9793" lon="6.5404">
        <ele>1362.4</ele>
        <time>2012-03-11T09:03:46Z</time>
      </trkpt>
      <trkpt lat="45.97922" lon="6.54043">
        <ele>1360.6</ele>
        <time>2012-03-11T09:04:00Z</time>
      </trkpt>
      <trkpt lat="45.97914" lon="6.54039">
        <ele>1368.9</ele>
        <time>2012-03-11T09:04:11Z</time>
      </trkpt>
      <trkpt lat="45.97908" lon="6.5403">
        <ele>1376.1</ele>
        <time>2012-03-11T09:04:25Z</time>
      </trkpt>
      <trkpt lat="45.97908" lon="6.54029">
        <ele>1376.3</ele>
        <time>2012-03-11T09:04:26Z</time>
      </trkpt>
      <trkpt lat="45.97894" lon="6.54016">
        <ele>1385.1</ele>
        <time>2012-03-11T09:04:49Z</time>
      </trkpt>
      <trkpt lat="45.97887" lon="6.54008">
        <ele>1391.1</ele>
        <time>2012-03-11T09:05:00Z</time>
      </trkpt>
      <trkpt lat="45.9788" lon="6.54002">
        <ele>1390.8</ele>
        <time>2012-03-11T09:05:14Z</time>
      </trkpt>
      <trkpt lat="45.97872" lon="6.53997">
        <ele>1387.6</ele>
        <time>2012-03-11T09:05:27Z</time>
      </trkpt>
      <trkpt lat="45.97871" lon="6.53997">
        <ele>1387.3</ele>
        <time>2012-03-11T09:05:28Z</time>
      </trkpt>
      <trkpt lat="45.97856" lon="6.53986">
        <ele>1386.4</ele>
        <time>2012-03-11T09:05:52Z</time>
      </trkpt>
      <trkpt lat="45.97848" lon="6.53981">
        <ele>1385.1</ele>
        <time>2012-03-11T09:06:05Z</time>
      </trkpt>
      <trkpt lat="45.97841" lon="6.53975">
        <ele>1388.5</ele>
        <time>2012-03-11T09:06:15Z</time>
      </trkpt>
      <trkpt lat="45.97833" lon="6.5397">
        <ele>1391.8</ele>
        <time>2012-03-11T09:06:25Z</time>
      </trkpt>
      <trkpt lat="45.97825" lon="6.53964">
        <ele>1396.6</ele>
        <time>2012-03-11T09:06:35Z</time>
      </trkpt>
      <trkpt lat="45.97824" lon="6.53963">
        <ele>1397.1</ele>
        <time>2012-03-11T09:06:36Z</time>
      </trkpt>
      <trkpt lat="45.97811" lon="6.53949">
        <ele>1408.4</ele>
        <time>2012-03-11T09:06:56Z</time>
      </trkpt>
      <trkpt lat="45.97804" lon="6.53943">
        <ele>1404.1</ele>
        <time>2012-03-11T09:07:09Z</time>
      </trkpt>
      <trkpt lat="45.97798" lon="6.53935">
        <ele>1401.8</ele>
        <time>2012-03-11T09:07:21Z</time>
      </trkpt>
      <trkpt lat="45.97791" lon="6.53926">
        <ele>1402.1</ele>
        <time>2012-03-11T09:07:32Z</time>
      </trkpt>
      <trkpt lat="45.97786" lon="6.53916">
        <ele>1400.5</ele>
        <time>2012-03-11T09:07:43Z</time>
      </trkpt>
      <trkpt lat="45.97785" lon="6.53916">
        <ele>1400.4</ele>
        <time>2012-03-11T09:07:44Z</time>
      </trkpt>
      <trkpt lat="45.97771" lon="6.53902">
        <ele>1403.4</ele>
        <time>2012-03-11T09:08:08Z</time>
      </trkpt>
      <trkpt lat="45.97764" lon="6.53894">
        <ele>1399.1</ele>
        <time>2012-03-11T09:08:21Z</time>
      </trkpt>
      <trkpt lat="45.97758" lon="6.53885">
        <ele>1395</ele>
        <time>2012-03-11T09:08:33Z</time>
      </trkpt>
      <trkpt lat="45.97752" lon="6.53877">
        <ele>1401.6</ele>
        <time>2012-03-11T09:08:43Z</time>
      </trkpt>
      <trkpt lat="45.97745" lon="6.53868">
        <ele>1404.3</ele>
        <time>2012-03-11T09:08:54Z</time>
      </trkpt>
      <trkpt lat="45.97744" lon="6.53867">
        <ele>1405</ele>
        <time>2012-03-11T09:08:55Z</time>
      </trkpt>
      <trkpt lat="45.9773" lon="6.53856">
        <ele>1402.6</ele>
        <time>2012-03-11T09:09:15Z</time>
      </trkpt>
      <trkpt lat="45.97723" lon="6.53849">
        <ele>1398.1</ele>
        <time>2012-03-11T09:09:26Z</time>
      </trkpt>
      <trkpt lat="45.97716" lon="6.53843">
        <ele>1399.9</ele>
        <time>2012-03-11T09:09:35Z</time>
      </trkpt>
      <trkpt lat="45.97709" lon="6.53836">
        <ele>1405.9</ele>
        <time>2012-03-11T09:09:42Z</time>
      </trkpt>
      <trkpt lat="45.97702" lon="6.53829">
        <ele>1406.5</ele>
        <time>2012-03-11T09:09:52Z</time>
      </trkpt>
      <trkpt lat="45.97694" lon="6.53823">
        <ele>1400.5</ele>
        <time>2012-03-11T09:10:03Z</time>
      </trkpt>
      <trkpt lat="45.97694" lon="6.53823">
        <ele>1400</ele>
        <time>2012-03-11T09:10:04Z</time>
      </trkpt>
      <trkpt lat="45.97679" lon="6.53813">
        <ele>1401</ele>
        <time>2012-03-11T09:10:24Z</time>
      </trkpt>
      <trkpt lat="45.97672" lon="6.53805">
        <ele>1404.8</ele>
        <time>2012-03-11T09:10:35Z</time>
      </trkpt>
      <trkpt lat="45.97666" lon="6.53797">
        <ele>1411.5</ele>
        <time>2012-03-11T09:10:45Z</time>
      </trkpt>
      <trkpt lat="45.97658" lon="6.5379">
        <ele>1418</ele>
        <time>2012-03-11T09:10:55Z</time>
      </trkpt>
      <trkpt lat="45.9765" lon="6.53785">
        <ele>1422</ele>
        <time>2012-03-11T09:11:04Z</time>
      </trkpt>
      <trkpt lat="45.97649" lon="6.53784">
        <ele>1422.5</ele>
        <time>2012-03-11T09:11:05Z</time>
      </trkpt>
      <trkpt lat="45.97634" lon="6.53774">
        <ele>1419.4</ele>
        <time>2012-03-11T09:11:34Z</time>
      </trkpt>
      <trkpt lat="45.97627" lon="6.53769">
        <ele>1417.6</ele>
        <time>2012-03-11T09:11:45Z</time>
      </trkpt>
      <trkpt lat="45.97619" lon="6.53763">
        <ele>1416.5</ele>
        <time>2012-03-11T09:11:57Z</time>
      </trkpt>
      <trkpt lat="45.97612" lon="6.53758">
        <ele>1416.5</ele>
        <time>2012-03-11T09:12:09Z</time>
      </trkpt>
      <trkpt lat="45.97611" lon="6.53757">
        <ele>1416.4</ele>
        <time>2012-03-11T09:12:10Z</time>
      </trkpt>
      <trkpt lat="45.97596" lon="6.53747">
        <ele>1415</ele>
        <time>2012-03-11T09:12:32Z</time>
      </trkpt>
      <trkpt lat="45.97588" lon="6.53742">
        <ele>1413.8</ele>
        <time>2012-03-11T09:12:45Z</time>
      </trkpt>
      <trkpt lat="45.9758" lon="6.53738">
        <ele>1417.5</ele>
        <time>2012-03-11T09:12:57Z</time>
      </trkpt>
      <trkpt lat="45.97571" lon="6.53735">
        <ele>1420</ele>
        <time>2012-03-11T09:13:08Z</time>
      </trkpt>
      <trkpt lat="45.97563" lon="6.53734">
        <ele>1420.4</ele>
        <time>2012-03-11T09:13:19Z</time>
      </trkpt>
      <trkpt lat="45.97562" lon="6.53734">
        <ele>1420.9</ele>
        <time>2012-03-11T09:13:20Z</time>
      </trkpt>
      <trkpt lat="45.97547" lon="6.53726">
        <ele>1436.3</ele>
        <time>2012-03-11T09:13:37Z</time>
      </trkpt>
      <trkpt lat="45.9754" lon="6.53721">
        <ele>1439.3</ele>
        <time>2012-03-11T09:13:45Z</time>
      </trkpt>
      <trkpt lat="45.97534" lon="6.53712">
        <ele>1435.1</ele>
        <time>2012-03-11T09:13:55Z</time>
      </trkpt>
      <trkpt lat="45.97526" lon="6.53705">
        <ele>1429.6</ele>
        <time>2012-03-11T09:14:06Z</time>
      </trkpt>
      <trkpt lat="45.9752" lon="6.53697">
        <ele>1427.9</ele>
        <time>2012-03-11T09:14:18Z</time>
      </trkpt>
      <trkpt lat="45.97513" lon="6.53688">
        <ele>1426</ele>
        <time>2012-03-11T09:14:34Z</time>
      </trkpt>
      <trkpt lat="45.97513" lon="6.53688">
        <ele>1426.5</ele>
        <time>2012-03-11T09:14:35Z</time>
      </trkpt>
      <trkpt lat="45.97499" lon="6.53674">
        <ele>1427.9</ele>
        <time>2012-03-11T09:15:08Z</time>
      </trkpt>
      <trkpt lat="45.97493" lon="6.53666">
        <ele>1424.5</ele>
        <time>2012-03-11T09:15:23Z</time>
      </trkpt>
      <trkpt lat="45.97485" lon="6.5366">
        <ele>1435.5</ele>
        <time>2012-03-11T09:15:39Z</time>
      </trkpt>
      <trkpt lat="45.97484" lon="6.5366">
        <ele>1436.8</ele>
        <time>2012-03-11T09:15:40Z</time>
      </trkpt>
      <trkpt lat="45.97472" lon="6.53647">
        <ele>1444</ele>
        <time>2012-03-11T09:16:03Z</time>
      </trkpt>
      <trkpt lat="45.97463" lon="6.53648">
        <ele>1440.1</ele>
        <time>2012-03-11T09:16:10Z</time>
      </trkpt>
      <trkpt lat="45.97455" lon="6.53647">
        <ele>1439</ele>
        <time>2012-03-11T09:16:17Z</time>
      </trkpt>
      <trkpt lat="45.97447" lon="6.53645">
        <ele>1438</ele>
        <time>2012-03-11T09:16:24Z</time>
      </trkpt>
      <trkpt lat="45.97439" lon="6.53642">
        <ele>1435.8</ele>
        <time>2012-03-11T09:16:32Z</time>
      </trkpt>
      <trkpt lat="45.97431" lon="6.53641">
        <ele>1435.4</ele>
        <time>2012-03-11T09:16:38Z</time>
      </trkpt>
      <trkpt lat="45.97422" lon="6.53644">
        <ele>1435.5</ele>
        <time>2012-03-11T09:16:45Z</time>
      </trkpt>
      <trkpt lat="45.97421" lon="6.53644">
        <ele>1435.5</ele>
        <time>2012-03-11T09:16:46Z</time>
      </trkpt>
      <trkpt lat="45.97407" lon="6.53656">
        <ele>1429.5</ele>
        <time>2012-03-11T09:17:05Z</time>
      </trkpt>
      <trkpt lat="45.97399" lon="6.53662">
        <ele>1427</ele>
        <time>2012-03-11T09:17:16Z</time>
      </trkpt>
      <trkpt lat="45.97391" lon="6.53666">
        <ele>1426</ele>
        <time>2012-03-11T09:17:28Z</time>
      </trkpt>
      <trkpt lat="45.97382" lon="6.53668">
        <ele>1424.5</ele>
        <time>2012-03-11T09:17:40Z</time>
      </trkpt>
      <trkpt lat="45.97374" lon="6.53665">
        <ele>1419.9</ele>
        <time>2012-03-11T09:17:53Z</time>
      </trkpt>
      <trkpt lat="45.97373" lon="6.53665">
        <ele>1419.9</ele>
        <time>2012-03-11T09:17:54Z</time>
      </trkpt>
      <trkpt lat="45.97356" lon="6.53667">
        <ele>1429.9</ele>
        <time>2012-03-11T09:18:20Z</time>
      </trkpt>
      <trkpt lat="45.97348" lon="6.53668">
        <ele>1438</ele>
        <time>2012-03-11T09:18:32Z</time>
      </trkpt>
      <trkpt lat="45.97339" lon="6.5367">
        <ele>1438.5</ele>
        <time>2012-03-11T09:18:44Z</time>
      </trkpt>
      <trkpt lat="45.97331" lon="6.53672">
        <ele>1436.4</ele>
        <time>2012-03-11T09:18:58Z</time>
      </trkpt>
      <trkpt lat="45.9733" lon="6.53672">
        <ele>1435.9</ele>
        <time>2012-03-11T09:18:59Z</time>
      </trkpt>
      <trkpt lat="45.97314" lon="6.53679">
        <ele>1436</ele>
        <time>2012-03-11T09:19:31Z</time>
      </trkpt>
      <trkpt lat="45.97307" lon="6.53686">
        <ele>1440.6</ele>
        <time>2012-03-11T09:19:43Z</time>
      </trkpt>
      <trkpt lat="45.97298" lon="6.53689">
        <ele>1442.5</ele>
        <time>2012-03-11T09:19:57Z</time>
      </trkpt>
      <trkpt lat="45.9729" lon="6.53691">
        <ele>1444.6</ele>
        <time>2012-03-11T09:20:12Z</time>
      </trkpt>
      <trkpt lat="45.97289" lon="6.53691">
        <ele>1445.6</ele>
        <time>2012-03-11T09:20:13Z</time>
      </trkpt>
      <trkpt lat="45.97273" lon="6.53686">
        <ele>1462</ele>
        <time>2012-03-11T09:20:41Z</time>
      </trkpt>
      <trkpt lat="45.97265" lon="6.53685">
        <ele>1465.1</ele>
        <time>2012-03-11T09:20:53Z</time>
      </trkpt>
      <trkpt lat="45.97256" lon="6.53682">
        <ele>1468.5</ele>
        <time>2012-03-11T09:21:07Z</time>
      </trkpt>
      <trkpt lat="45.97248" lon="6.53679">
        <ele>1472.4</ele>
        <time>2012-03-11T09:21:26Z</time>
      </trkpt>
      <trkpt lat="45.97247" lon="6.53679">
        <ele>1472.6</ele>
        <time>2012-03-11T09:21:27Z</time>
      </trkpt>
      <trkpt lat="45.97232" lon="6.5369">
        <ele>1480.6</ele>
        <time>2012-03-11T09:21:50Z</time>
      </trkpt>
      <trkpt lat="45.97223" lon="6.53694">
        <ele>1487.1</ele>
        <time>2012-03-11T09:22:01Z</time>
      </trkpt>
      <trkpt lat="45.97216" lon="6.53701">
        <ele>1495</ele>
        <time>2012-03-11T09:22:12Z</time>
      </trkpt>
      <trkpt lat="45.97208" lon="6.53706">
        <ele>1508.9</ele>
        <time>2012-03-11T09:22:24Z</time>
      </trkpt>
      <trkpt lat="45.97199" lon="6.53706">
        <ele>1507</ele>
        <time>2012-03-11T09:22:47Z</time>
      </trkpt>
      <trkpt lat="45.97199" lon="6.53706">
        <ele>1506</ele>
        <time>2012-03-11T09:22:48Z</time>
      </trkpt>
      <trkpt lat="45.97185" lon="6.53718">
        <ele>1495.1</ele>
        <time>2012-03-11T09:23:26Z</time>
      </trkpt>
      <trkpt lat="45.97179" lon="6.53727">
        <ele>1494.9</ele>
        <time>2012-03-11T09:23:39Z</time>
      </trkpt>
      <trkpt lat="45.97174" lon="6.53737">
        <ele>1498</ele>
        <time>2012-03-11T09:23:50Z</time>
      </trkpt>
      <trkpt lat="45.97174" lon="6.53738">
        <ele>1498.3</ele>
        <time>2012-03-11T09:23:51Z</time>
      </trkpt>
      <trkpt lat="45.97174" lon="6.53762">
        <ele>1504</ele>
        <time>2012-03-11T09:24:22Z</time>
      </trkpt>
      <trkpt lat="45.97173" lon="6.53774">
        <ele>1504.4</ele>
        <time>2012-03-11T09:24:39Z</time>
      </trkpt>
      <trkpt lat="45.97172" lon="6.53787">
        <ele>1510</ele>
        <time>2012-03-11T09:25:17Z</time>
      </trkpt>
      <trkpt lat="45.97172" lon="6.53788">
        <ele>1510.5</ele>
        <time>2012-03-11T09:25:18Z</time>
      </trkpt>
      <trkpt lat="45.97177" lon="6.53811">
        <ele>1508.5</ele>
        <time>2012-03-11T09:25:49Z</time>
      </trkpt>
      <trkpt lat="45.97184" lon="6.5382">
        <ele>1510.9</ele>
        <time>2012-03-11T09:26:02Z</time>
      </trkpt>
      <trkpt lat="45.97189" lon="6.53829">
        <ele>1512.9</ele>
        <time>2012-03-11T09:26:16Z</time>
      </trkpt>
      <trkpt lat="45.97194" lon="6.5384">
        <ele>1512.5</ele>
        <time>2012-03-11T09:26:31Z</time>
      </trkpt>
      <trkpt lat="45.97194" lon="6.53841">
        <ele>1512.6</ele>
        <time>2012-03-11T09:26:32Z</time>
      </trkpt>
      <trkpt lat="45.97199" lon="6.53863">
        <ele>1515.5</ele>
        <time>2012-03-11T09:26:57Z</time>
      </trkpt>
      <trkpt lat="45.97198" lon="6.53875">
        <ele>1514.9</ele>
        <time>2012-03-11T09:27:10Z</time>
      </trkpt>
      <trkpt lat="45.97198" lon="6.53888">
        <ele>1516.1</ele>
        <time>2012-03-11T09:27:24Z</time>
      </trkpt>
      <trkpt lat="45.97201" lon="6.53899">
        <ele>1518.5</ele>
        <time>2012-03-11T09:27:38Z</time>
      </trkpt>
      <trkpt lat="45.97201" lon="6.539">
        <ele>1518.5</ele>
        <time>2012-03-11T09:27:39Z</time>
      </trkpt>
      <trkpt lat="45.97209" lon="6.53922">
        <ele>1528.9</ele>
        <time>2012-03-11T09:28:10Z</time>
      </trkpt>
      <trkpt lat="45.97212" lon="6.53933">
        <ele>1532.5</ele>
        <time>2012-03-11T09:28:24Z</time>
      </trkpt>
      <trkpt lat="45.97217" lon="6.53942">
        <ele>1533.5</ele>
        <time>2012-03-11T09:28:38Z</time>
      </trkpt>
      <trkpt lat="45.97224" lon="6.5395">
        <ele>1535.3</ele>
        <time>2012-03-11T09:28:50Z</time>
      </trkpt>
      <trkpt lat="45.97225" lon="6.53951">
        <ele>1535.8</ele>
        <time>2012-03-11T09:28:51Z</time>
      </trkpt>
      <trkpt lat="45.97236" lon="6.53967">
        <ele>1540.3</ele>
        <time>2012-03-11T09:29:12Z</time>
      </trkpt>
      <trkpt lat="45.97238" lon="6.5398">
        <ele>1536.4</ele>
        <time>2012-03-11T09:29:29Z</time>
      </trkpt>
      <trkpt lat="45.97241" lon="6.53992">
        <ele>1535.9</ele>
        <time>2012-03-11T09:29:42Z</time>
      </trkpt>
      <trkpt lat="45.97245" lon="6.54003">
        <ele>1538.3</ele>
        <time>2012-03-11T09:29:55Z</time>
      </trkpt>
      <trkpt lat="45.97245" lon="6.54004">
        <ele>1538.6</ele>
        <time>2012-03-11T09:29:56Z</time>
      </trkpt>
      <trkpt lat="45.97253" lon="6.54025">
        <ele>1539.3</ele>
        <time>2012-03-11T09:30:27Z</time>
      </trkpt>
      <trkpt lat="45.9726" lon="6.54031">
        <ele>1537.8</ele>
        <time>2012-03-11T09:30:39Z</time>
      </trkpt>
      <trkpt lat="45.97267" lon="6.5404">
        <ele>1536.3</ele>
        <time>2012-03-11T09:30:52Z</time>
      </trkpt>
      <trkpt lat="45.97272" lon="6.54051">
        <ele>1542.4</ele>
        <time>2012-03-11T09:31:07Z</time>
      </trkpt>
      <trkpt lat="45.97272" lon="6.54051">
        <ele>1543.1</ele>
        <time>2012-03-11T09:31:08Z</time>
      </trkpt>
      <trkpt lat="45.97284" lon="6.54068">
        <ele>1551.5</ele>
        <time>2012-03-11T09:31:29Z</time>
      </trkpt>
      <trkpt lat="45.97291" lon="6.54075">
        <ele>1550.6</ele>
        <time>2012-03-11T09:31:40Z</time>
      </trkpt>
      <trkpt lat="45.97298" lon="6.54083">
        <ele>1548.5</ele>
        <time>2012-03-11T09:31:54Z</time>
      </trkpt>
      <trkpt lat="45.97304" lon="6.54091">
        <ele>1549.8</ele>
        <time>2012-03-11T09:32:05Z</time>
      </trkpt>
      <trkpt lat="45.97311" lon="6.54098">
        <ele>1549.9</ele>
        <time>2012-03-11T09:32:14Z</time>
      </trkpt>
      <trkpt lat="45.97312" lon="6.54099">
        <ele>1550.3</ele>
        <time>2012-03-11T09:32:15Z</time>
      </trkpt>
      <trkpt lat="45.97322" lon="6.54116">
        <ele>1552.5</ele>
        <time>2012-03-11T09:32:34Z</time>
      </trkpt>
      <trkpt lat="45.97329" lon="6.54124">
        <ele>1554.6</ele>
        <time>2012-03-11T09:32:44Z</time>
      </trkpt>
      <trkpt lat="45.97335" lon="6.54133">
        <ele>1557.4</ele>
        <time>2012-03-11T09:32:54Z</time>
      </trkpt>
      <trkpt lat="45.97341" lon="6.54141">
        <ele>1559.3</ele>
        <time>2012-03-11T09:33:04Z</time>
      </trkpt>
      <trkpt lat="45.97348" lon="6.54149">
        <ele>1564</ele>
        <time>2012-03-11T09:33:17Z</time>
      </trkpt>
      <trkpt lat="45.97349" lon="6.54149">
        <ele>1564</ele>
        <time>2012-03-11T09:33:18Z</time>
      </trkpt>
      <trkpt lat="45.97363" lon="6.54161">
        <ele>1567.1</ele>
        <time>2012-03-11T09:33:43Z</time>
      </trkpt>
      <trkpt lat="45.97372" lon="6.54162">
        <ele>1569.9</ele>
        <time>2012-03-11T09:33:56Z</time>
      </trkpt>
      <trkpt lat="45.9738" lon="6.54168">
        <ele>1574.6</ele>
        <time>2012-03-11T09:34:11Z</time>
      </trkpt>
      <trkpt lat="45.97387" lon="6.54174">
        <ele>1573</ele>
        <time>2012-03-11T09:34:26Z</time>
      </trkpt>
      <trkpt lat="45.97388" lon="6.54175">
        <ele>1573</ele>
        <time>2012-03-11T09:34:27Z</time>
      </trkpt>
      <trkpt lat="45.97396" lon="6.54171">
        <ele>1588.5</ele>
        <time>2012-03-11T09:35:52Z</time>
      </trkpt>
      <trkpt lat="45.97387" lon="6.54167">
        <ele>1612.1</ele>
        <time>2012-03-11T09:37:39Z</time>
      </trkpt>
      <trkpt lat="45.97393" lon="6.54179">
        <ele>1583.4</ele>
        <time>2012-03-11T09:39:13Z</time>
      </trkpt>
      <trkpt lat="45.97401" lon="6.54183">
        <ele>1555</ele>
        <time>2012-03-11T09:41:40Z</time>
      </trkpt>
      <trkpt lat="45.974" lon="6.54205">
        <ele>1574</ele>
        <time>2012-03-11T09:42:05Z</time>
      </trkpt>
      <trkpt lat="45.97398" lon="6.54217">
        <ele>1580</ele>
        <time>2012-03-11T09:42:18Z</time>
      </trkpt>
      <trkpt lat="45.97401" lon="6.54229">
        <ele>1583.6</ele>
        <time>2012-03-11T09:42:35Z</time>
      </trkpt>
      <trkpt lat="45.97405" lon="6.5424">
        <ele>1582.9</ele>
        <time>2012-03-11T09:42:49Z</time>
      </trkpt>
      <trkpt lat="45.97406" lon="6.5424">
        <ele>1582.6</ele>
        <time>2012-03-11T09:42:50Z</time>
      </trkpt>
      <trkpt lat="45.97402" lon="6.54261">
        <ele>1584</ele>
        <time>2012-03-11T09:43:50Z</time>
      </trkpt>
      <trkpt lat="45.97401" lon="6.54261">
        <ele>1583.6</ele>
        <time>2012-03-11T09:43:51Z</time>
      </trkpt>
      <trkpt lat="45.97385" lon="6.54264">
        <ele>1589.8</ele>
        <time>2012-03-11T09:44:26Z</time>
      </trkpt>
      <trkpt lat="45.97379" lon="6.54273">
        <ele>1593.3</ele>
        <time>2012-03-11T09:44:40Z</time>
      </trkpt>
      <trkpt lat="45.97376" lon="6.54285">
        <ele>1601.9</ele>
        <time>2012-03-11T09:45:06Z</time>
      </trkpt>
      <trkpt lat="45.97376" lon="6.54285">
        <ele>1601.8</ele>
        <time>2012-03-11T09:45:07Z</time>
      </trkpt>
      <trkpt lat="45.97375" lon="6.5431">
        <ele>1599</ele>
        <time>2012-03-11T09:45:43Z</time>
      </trkpt>
      <trkpt lat="45.97368" lon="6.54317">
        <ele>1617.9</ele>
        <time>2012-03-11T09:46:05Z</time>
      </trkpt>
      <trkpt lat="45.97366" lon="6.54329">
        <ele>1624.4</ele>
        <time>2012-03-11T09:46:31Z</time>
      </trkpt>
      <trkpt lat="45.97366" lon="6.5433">
        <ele>1624</ele>
        <time>2012-03-11T09:46:32Z</time>
      </trkpt>
      <trkpt lat="45.97366" lon="6.54354">
        <ele>1628.5</ele>
        <time>2012-03-11T09:47:30Z</time>
      </trkpt>
      <trkpt lat="45.97366" lon="6.54366">
        <ele>1624.8</ele>
        <time>2012-03-11T09:47:44Z</time>
      </trkpt>
      <trkpt lat="45.97366" lon="6.54367">
        <ele>1624.5</ele>
        <time>2012-03-11T09:47:45Z</time>
      </trkpt>
      <trkpt lat="45.97379" lon="6.54382">
        <ele>1626.3</ele>
        <time>2012-03-11T09:48:14Z</time>
      </trkpt>
      <trkpt lat="45.97385" lon="6.54391">
        <ele>1627.5</ele>
        <time>2012-03-11T09:48:30Z</time>
      </trkpt>
      <trkpt lat="45.97391" lon="6.54399">
        <ele>1626.5</ele>
        <time>2012-03-11T09:48:50Z</time>
      </trkpt>
      <trkpt lat="45.97391" lon="6.54399">
        <ele>1626.1</ele>
        <time>2012-03-11T09:48:51Z</time>
      </trkpt>
      <trkpt lat="45.97387" lon="6.54422">
        <ele>1642</ele>
        <time>2012-03-11T09:49:46Z</time>
      </trkpt>
      <trkpt lat="45.97381" lon="6.54431">
        <ele>1645</ele>
        <time>2012-03-11T09:50:04Z</time>
      </trkpt>
      <trkpt lat="45.97381" lon="6.54432">
        <ele>1645.1</ele>
        <time>2012-03-11T09:50:05Z</time>
      </trkpt>
      <trkpt lat="45.97364" lon="6.54435">
        <ele>1643.1</ele>
        <time>2012-03-11T09:50:48Z</time>
      </trkpt>
      <trkpt lat="45.97359" lon="6.54444">
        <ele>1644.5</ele>
        <time>2012-03-11T09:51:02Z</time>
      </trkpt>
      <trkpt lat="45.97354" lon="6.54455">
        <ele>1647</ele>
        <time>2012-03-11T09:51:15Z</time>
      </trkpt>
      <trkpt lat="45.97353" lon="6.54456">
        <ele>1647.3</ele>
        <time>2012-03-11T09:51:16Z</time>
      </trkpt>
      <trkpt lat="45.97351" lon="6.54479">
        <ele>1653.3</ele>
        <time>2012-03-11T09:51:47Z</time>
      </trkpt>
      <trkpt lat="45.97353" lon="6.54492">
        <ele>1651.5</ele>
        <time>2012-03-11T09:52:08Z</time>
      </trkpt>
      <trkpt lat="45.97358" lon="6.54502">
        <ele>1656.5</ele>
        <time>2012-03-11T09:52:29Z</time>
      </trkpt>
      <trkpt lat="45.97358" lon="6.54503">
        <ele>1656.8</ele>
        <time>2012-03-11T09:52:30Z</time>
      </trkpt>
      <trkpt lat="45.97363" lon="6.54525">
        <ele>1668.5</ele>
        <time>2012-03-11T09:53:15Z</time>
      </trkpt>
      <trkpt lat="45.97363" lon="6.54538">
        <ele>1671.5</ele>
        <time>2012-03-11T09:53:34Z</time>
      </trkpt>
      <trkpt lat="45.97364" lon="6.54539">
        <ele>1671.5</ele>
        <time>2012-03-11T09:53:35Z</time>
      </trkpt>
      <trkpt lat="45.97362" lon="6.54563">
        <ele>1681.9</ele>
        <time>2012-03-11T09:54:20Z</time>
      </trkpt>
      <trkpt lat="45.97363" lon="6.54576">
        <ele>1686</ele>
        <time>2012-03-11T09:54:41Z</time>
      </trkpt>
      <trkpt lat="45.97363" lon="6.54576">
        <ele>1686.1</ele>
        <time>2012-03-11T09:54:42Z</time>
      </trkpt>
      <trkpt lat="45.97358" lon="6.54599">
        <ele>1684</ele>
        <time>2012-03-11T09:55:14Z</time>
      </trkpt>
      <trkpt lat="45.97357" lon="6.54612">
        <ele>1682.8</ele>
        <time>2012-03-11T09:55:29Z</time>
      </trkpt>
      <trkpt lat="45.97359" lon="6.54624">
        <ele>1684.5</ele>
        <time>2012-03-11T09:55:45Z</time>
      </trkpt>
      <trkpt lat="45.97359" lon="6.54625">
        <ele>1684.8</ele>
        <time>2012-03-11T09:55:46Z</time>
      </trkpt>
      <trkpt lat="45.97361" lon="6.54649">
        <ele>1688.1</ele>
        <time>2012-03-11T09:56:23Z</time>
      </trkpt>
      <trkpt lat="45.97361" lon="6.54662">
        <ele>1692.4</ele>
        <time>2012-03-11T09:56:44Z</time>
      </trkpt>
      <trkpt lat="45.97358" lon="6.54674">
        <ele>1698.9</ele>
        <time>2012-03-11T09:57:26Z</time>
      </trkpt>
      <trkpt lat="45.97358" lon="6.54675">
        <ele>1698.9</ele>
        <time>2012-03-11T09:57:27Z</time>
      </trkpt>
      <trkpt lat="45.97344" lon="6.54688">
        <ele>1711</ele>
        <time>2012-03-11T09:58:44Z</time>
      </trkpt>
      <trkpt lat="45.97344" lon="6.54688">
        <ele>1711.4</ele>
        <time>2012-03-11T09:58:45Z</time>
      </trkpt>
      <trkpt lat="45.97335" lon="6.54693">
        <ele>1726.3</ele>
        <time>2012-03-11T10:00:08Z</time>
      </trkpt>
      <trkpt lat="45.97319" lon="6.54684">
        <ele>1733.5</ele>
        <time>2012-03-11T10:00:54Z</time>
      </trkpt>
      <trkpt lat="45.97313" lon="6.54694">
        <ele>1733.1</ele>
        <time>2012-03-11T10:01:15Z</time>
      </trkpt>
      <trkpt lat="45.97313" lon="6.54694">
        <ele>1733</ele>
        <time>2012-03-11T10:01:16Z</time>
      </trkpt>
      <trkpt lat="45.97304" lon="6.54712">
        <ele>1732.1</ele>
        <time>2012-03-11T10:01:59Z</time>
      </trkpt>
      <trkpt lat="45.97303" lon="6.54725">
        <ele>1733.3</ele>
        <time>2012-03-11T10:02:18Z</time>
      </trkpt>
      <trkpt lat="45.97303" lon="6.54725">
        <ele>1733.5</ele>
        <time>2012-03-11T10:02:19Z</time>
      </trkpt>
      <trkpt lat="45.97295" lon="6.54741">
        <ele>1744.1</ele>
        <time>2012-03-11T10:03:22Z</time>
      </trkpt>
      <trkpt lat="45.97295" lon="6.54741">
        <ele>1743.4</ele>
        <time>2012-03-11T10:03:23Z</time>
      </trkpt>
      <trkpt lat="45.9728" lon="6.54751">
        <ele>1749</ele>
        <time>2012-03-11T10:04:03Z</time>
      </trkpt>
      <trkpt lat="45.97271" lon="6.54749">
        <ele>1751.3</ele>
        <time>2012-03-11T10:04:25Z</time>
      </trkpt>
      <trkpt lat="45.97271" lon="6.54749">
        <ele>1751.5</ele>
        <time>2012-03-11T10:04:26Z</time>
      </trkpt>
      <trkpt lat="45.97256" lon="6.54736">
        <ele>1759.8</ele>
        <time>2012-03-11T10:05:24Z</time>
      </trkpt>
      <trkpt lat="45.97251" lon="6.54746">
        <ele>1774.1</ele>
        <time>2012-03-11T10:06:15Z</time>
      </trkpt>
      <trkpt lat="45.97251" lon="6.54746">
        <ele>1774.4</ele>
        <time>2012-03-11T10:06:16Z</time>
      </trkpt>
      <trkpt lat="45.97239" lon="6.54762">
        <ele>1782.1</ele>
        <time>2012-03-11T10:07:36Z</time>
      </trkpt>
      <trkpt lat="45.97239" lon="6.54762">
        <ele>1781.9</ele>
        <time>2012-03-11T10:07:37Z</time>
      </trkpt>
      <trkpt lat="45.97227" lon="6.54777">
        <ele>1781.4</ele>
        <time>2012-03-11T10:08:15Z</time>
      </trkpt>
      <trkpt lat="45.97223" lon="6.54789">
        <ele>1789.3</ele>
        <time>2012-03-11T10:08:41Z</time>
      </trkpt>
      <trkpt lat="45.97223" lon="6.54789">
        <ele>1789.4</ele>
        <time>2012-03-11T10:08:42Z</time>
      </trkpt>
      <trkpt lat="45.97222" lon="6.54814">
        <ele>1797.1</ele>
        <time>2012-03-11T10:09:21Z</time>
      </trkpt>
      <trkpt lat="45.97223" lon="6.54826">
        <ele>1796</ele>
        <time>2012-03-11T10:09:44Z</time>
      </trkpt>
      <trkpt lat="45.97223" lon="6.54827">
        <ele>1796</ele>
        <time>2012-03-11T10:09:45Z</time>
      </trkpt>
      <trkpt lat="45.97229" lon="6.5485">
        <ele>1794.5</ele>
        <time>2012-03-11T10:10:24Z</time>
      </trkpt>
      <trkpt lat="45.97233" lon="6.54861">
        <ele>1798</ele>
        <time>2012-03-11T10:10:47Z</time>
      </trkpt>
      <trkpt lat="45.97234" lon="6.54862">
        <ele>1798.3</ele>
        <time>2012-03-11T10:10:48Z</time>
      </trkpt>
      <trkpt lat="45.97239" lon="6.54884">
        <ele>1808.8</ele>
        <time>2012-03-11T10:11:34Z</time>
      </trkpt>
      <trkpt lat="45.97239" lon="6.54897">
        <ele>1814.1</ele>
        <time>2012-03-11T10:11:54Z</time>
      </trkpt>
      <trkpt lat="45.97239" lon="6.54897">
        <ele>1814.5</ele>
        <time>2012-03-11T10:11:55Z</time>
      </trkpt>
      <trkpt lat="45.97239" lon="6.54922">
        <ele>1818.9</ele>
        <time>2012-03-11T10:12:31Z</time>
      </trkpt>
      <trkpt lat="45.9724" lon="6.54934">
        <ele>1821.8</ele>
        <time>2012-03-11T10:12:48Z</time>
      </trkpt>
      <trkpt lat="45.97242" lon="6.54947">
        <ele>1823</ele>
        <time>2012-03-11T10:13:08Z</time>
      </trkpt>
      <trkpt lat="45.97242" lon="6.54947">
        <ele>1823</ele>
        <time>2012-03-11T10:13:09Z</time>
      </trkpt>
      <trkpt lat="45.97241" lon="6.54971">
        <ele>1822.5</ele>
        <time>2012-03-11T10:13:43Z</time>
      </trkpt>
      <trkpt lat="45.97238" lon="6.54983">
        <ele>1825.5</ele>
        <time>2012-03-11T10:14:01Z</time>
      </trkpt>
      <trkpt lat="45.97237" lon="6.54995">
        <ele>1836</ele>
        <time>2012-03-11T10:14:28Z</time>
      </trkpt>
      <trkpt lat="45.97237" lon="6.54996">
        <ele>1836.4</ele>
        <time>2012-03-11T10:14:29Z</time>
      </trkpt>
      <trkpt lat="45.97235" lon="6.55008">
        <ele>1837</ele>
        <time>2012-03-11T10:15:44Z</time>
      </trkpt>
      <trkpt lat="45.9723" lon="6.5503">
        <ele>1833</ele>
        <time>2012-03-11T10:16:14Z</time>
      </trkpt>
      <trkpt lat="45.97231" lon="6.55042">
        <ele>1832.9</ele>
        <time>2012-03-11T10:16:28Z</time>
      </trkpt>
      <trkpt lat="45.97231" lon="6.55055">
        <ele>1833.5</ele>
        <time>2012-03-11T10:16:43Z</time>
      </trkpt>
      <trkpt lat="45.97234" lon="6.55067">
        <ele>1836.9</ele>
        <time>2012-03-11T10:16:59Z</time>
      </trkpt>
      <trkpt lat="45.97234" lon="6.55068">
        <ele>1837</ele>
        <time>2012-03-11T10:17:00Z</time>
      </trkpt>
      <trkpt lat="45.97239" lon="6.55091">
        <ele>1845.8</ele>
        <time>2012-03-11T10:17:32Z</time>
      </trkpt>
      <trkpt lat="45.97237" lon="6.55103">
        <ele>1842.5</ele>
        <time>2012-03-11T10:18:53Z</time>
      </trkpt>
      <trkpt lat="45.97237" lon="6.55104">
        <ele>1842.5</ele>
        <time>2012-03-11T10:18:54Z</time>
      </trkpt>
      <trkpt lat="45.97248" lon="6.55123">
        <ele>1852.9</ele>
        <time>2012-03-11T10:19:29Z</time>
      </trkpt>
      <trkpt lat="45.97253" lon="6.55133">
        <ele>1859.5</ele>
        <time>2012-03-11T10:19:42Z</time>
      </trkpt>
      <trkpt lat="45.97255" lon="6.55145">
        <ele>1858.9</ele>
        <time>2012-03-11T10:19:52Z</time>
      </trkpt>
      <trkpt lat="45.97259" lon="6.55156">
        <ele>1859.3</ele>
        <time>2012-03-11T10:20:06Z</time>
      </trkpt>
      <trkpt lat="45.97259" lon="6.55157">
        <ele>1859.1</ele>
        <time>2012-03-11T10:20:07Z</time>
      </trkpt>
      <trkpt lat="45.97265" lon="6.55178">
        <ele>1870.5</ele>
        <time>2012-03-11T10:20:45Z</time>
      </trkpt>
      <trkpt lat="45.97267" lon="6.55189">
        <ele>1878.4</ele>
        <time>2012-03-11T10:21:10Z</time>
      </trkpt>
      <trkpt lat="45.97271" lon="6.55196">
        <ele>1877.4</ele>
        <time>2012-03-11T10:21:19Z</time>
      </trkpt>
      <trkpt lat="45.97274" lon="6.55209">
        <ele>1877.4</ele>
        <time>2012-03-11T10:21:35Z</time>
      </trkpt>
      <trkpt lat="45.97271" lon="6.55241">
        <ele>1848</ele>
        <time>2012-03-11T10:22:07Z</time>
      </trkpt>
      <trkpt lat="45.9727" lon="6.55242">
        <ele>1850.1</ele>
        <time>2012-03-11T10:22:11Z</time>
      </trkpt>
      <trkpt lat="45.97277" lon="6.55231">
        <ele>1877.1</ele>
        <time>2012-03-11T10:22:51Z</time>
      </trkpt>
      <trkpt lat="45.97281" lon="6.55242">
        <ele>1892.4</ele>
        <time>2012-03-11T10:23:45Z</time>
      </trkpt>
      <trkpt lat="45.97284" lon="6.55254">
        <ele>1878.5</ele>
        <time>2012-03-11T10:24:12Z</time>
      </trkpt>
      <trkpt lat="45.97284" lon="6.55254">
        <ele>1878.5</ele>
        <time>2012-03-11T10:24:13Z</time>
      </trkpt>
      <trkpt lat="45.97279" lon="6.55274">
        <ele>1866.5</ele>
        <time>2012-03-11T10:25:48Z</time>
      </trkpt>
      <trkpt lat="45.97278" lon="6.55275">
        <ele>1866.1</ele>
        <time>2012-03-11T10:25:49Z</time>
      </trkpt>
      <trkpt lat="45.97275" lon="6.55299">
        <ele>1877.9</ele>
        <time>2012-03-11T10:26:54Z</time>
      </trkpt>
      <trkpt lat="45.97275" lon="6.55299">
        <ele>1878.3</ele>
        <time>2012-03-11T10:26:55Z</time>
      </trkpt>
      <trkpt lat="45.97271" lon="6.55315">
        <ele>1895.4</ele>
        <time>2012-03-11T10:28:32Z</time>
      </trkpt>
      <trkpt lat="45.9727" lon="6.55316">
        <ele>1896</ele>
        <time>2012-03-11T10:28:33Z</time>
      </trkpt>
      <trkpt lat="45.97263" lon="6.55323">
        <ele>1903.1</ele>
        <time>2012-03-11T10:30:25Z</time>
      </trkpt>
      <trkpt lat="45.9725" lon="6.5531">
        <ele>1904.5</ele>
        <time>2012-03-11T10:31:12Z</time>
      </trkpt>
      <trkpt lat="45.97241" lon="6.5531">
        <ele>1906</ele>
        <time>2012-03-11T10:31:39Z</time>
      </trkpt>
      <trkpt lat="45.97241" lon="6.5531">
        <ele>1905.9</ele>
        <time>2012-03-11T10:31:40Z</time>
      </trkpt>
      <trkpt lat="45.97236" lon="6.55331">
        <ele>1929.5</ele>
        <time>2012-03-11T10:32:57Z</time>
      </trkpt>
      <trkpt lat="45.97235" lon="6.55331">
        <ele>1930</ele>
        <time>2012-03-11T10:32:58Z</time>
      </trkpt>
      <trkpt lat="45.97222" lon="6.55345">
        <ele>1933.6</ele>
        <time>2012-03-11T10:33:34Z</time>
      </trkpt>
      <trkpt lat="45.97214" lon="6.55351">
        <ele>1932.8</ele>
        <time>2012-03-11T10:33:50Z</time>
      </trkpt>
      <trkpt lat="45.97206" lon="6.55355">
        <ele>1930.1</ele>
        <time>2012-03-11T10:34:04Z</time>
      </trkpt>
      <trkpt lat="45.97205" lon="6.55355">
        <ele>1930.1</ele>
        <time>2012-03-11T10:34:05Z</time>
      </trkpt>
      <trkpt lat="45.9719" lon="6.55366">
        <ele>1934.8</ele>
        <time>2012-03-11T10:34:37Z</time>
      </trkpt>
      <trkpt lat="45.97184" lon="6.55376">
        <ele>1946.9</ele>
        <time>2012-03-11T10:35:46Z</time>
      </trkpt>
      <trkpt lat="45.97184" lon="6.55377">
        <ele>1946.1</ele>
        <time>2012-03-11T10:35:47Z</time>
      </trkpt>
      <trkpt lat="45.97192" lon="6.5537">
        <ele>1968.5</ele>
        <time>2012-03-11T10:38:17Z</time>
      </trkpt>
      <trkpt lat="45.97184" lon="6.55377">
        <ele>1960</ele>
        <time>2012-03-11T10:40:03Z</time>
      </trkpt>
      <trkpt lat="45.97169" lon="6.55389">
        <ele>1948.4</ele>
        <time>2012-03-11T10:40:26Z</time>
      </trkpt>
      <trkpt lat="45.97161" lon="6.55393">
        <ele>1940.9</ele>
        <time>2012-03-11T10:40:53Z</time>
      </trkpt>
      <trkpt lat="45.97169" lon="6.5539">
        <ele>1938.6</ele>
        <time>2012-03-11T10:41:13Z</time>
      </trkpt>
      <trkpt lat="45.9717" lon="6.5539">
        <ele>1938</ele>
        <time>2012-03-11T10:41:14Z</time>
      </trkpt>
      <trkpt lat="45.97186" lon="6.55381">
        <ele>1931.1</ele>
        <time>2012-03-11T10:41:59Z</time>
      </trkpt>
      <trkpt lat="45.97189" lon="6.55369">
        <ele>1938.4</ele>
        <time>2012-03-11T10:42:39Z</time>
      </trkpt>
      <trkpt lat="45.97189" lon="6.55369">
        <ele>1938.6</ele>
        <time>2012-03-11T10:42:40Z</time>
      </trkpt>
      <trkpt lat="45.97176" lon="6.55385">
        <ele>1944.6</ele>
        <time>2012-03-11T10:43:28Z</time>
      </trkpt>
      <trkpt lat="45.97169" lon="6.55393">
        <ele>1942.5</ele>
        <time>2012-03-11T10:43:37Z</time>
      </trkpt>
      <trkpt lat="45.97163" lon="6.55402">
        <ele>1940</ele>
        <time>2012-03-11T10:43:46Z</time>
      </trkpt>
      <trkpt lat="45.97162" lon="6.55403">
        <ele>1940</ele>
        <time>2012-03-11T10:43:47Z</time>
      </trkpt>
      <trkpt lat="45.9715" lon="6.55419">
        <ele>1946.3</ele>
        <time>2012-03-11T10:44:15Z</time>
      </trkpt>
      <trkpt lat="45.97144" lon="6.55427">
        <ele>1947.8</ele>
        <time>2012-03-11T10:44:29Z</time>
      </trkpt>
      <trkpt lat="45.9714" lon="6.55438">
        <ele>1942.8</ele>
        <time>2012-03-11T10:44:54Z</time>
      </trkpt>
      <trkpt lat="45.9714" lon="6.55439">
        <ele>1942.6</ele>
        <time>2012-03-11T10:44:55Z</time>
      </trkpt>
      <trkpt lat="45.97127" lon="6.55454">
        <ele>1950.4</ele>
        <time>2012-03-11T10:45:29Z</time>
      </trkpt>
      <trkpt lat="45.97119" lon="6.55459">
        <ele>1954.5</ele>
        <time>2012-03-11T10:45:47Z</time>
      </trkpt>
      <trkpt lat="45.97111" lon="6.55464">
        <ele>1953.9</ele>
        <time>2012-03-11T10:46:02Z</time>
      </trkpt>
      <trkpt lat="45.97111" lon="6.55464">
        <ele>1953.8</ele>
        <time>2012-03-11T10:46:03Z</time>
      </trkpt>
      <trkpt lat="45.97096" lon="6.55476">
        <ele>1950.5</ele>
        <time>2012-03-11T10:46:33Z</time>
      </trkpt>
      <trkpt lat="45.97088" lon="6.55482">
        <ele>1955</ele>
        <time>2012-03-11T10:46:50Z</time>
      </trkpt>
      <trkpt lat="45.97081" lon="6.55488">
        <ele>1957</ele>
        <time>2012-03-11T10:47:04Z</time>
      </trkpt>
      <trkpt lat="45.9708" lon="6.55488">
        <ele>1957.1</ele>
        <time>2012-03-11T10:47:05Z</time>
      </trkpt>
      <trkpt lat="45.97067" lon="6.55503">
        <ele>1959.1</ele>
        <time>2012-03-11T10:47:41Z</time>
      </trkpt>
      <trkpt lat="45.97059" lon="6.55506">
        <ele>1957.5</ele>
        <time>2012-03-11T10:47:57Z</time>
      </trkpt>
      <trkpt lat="45.9705" lon="6.55508">
        <ele>1952.5</ele>
        <time>2012-03-11T10:48:07Z</time>
      </trkpt>
      <trkpt lat="45.97049" lon="6.55509">
        <ele>1952</ele>
        <time>2012-03-11T10:48:08Z</time>
      </trkpt>
      <trkpt lat="45.97034" lon="6.55517">
        <ele>1964.5</ele>
        <time>2012-03-11T10:48:42Z</time>
      </trkpt>
      <trkpt lat="45.97028" lon="6.55524">
        <ele>1973</ele>
        <time>2012-03-11T10:49:08Z</time>
      </trkpt>
      <trkpt lat="45.97027" lon="6.55525">
        <ele>1972.6</ele>
        <time>2012-03-11T10:49:09Z</time>
      </trkpt>
      <trkpt lat="45.97015" lon="6.5554">
        <ele>1990.5</ele>
        <time>2012-03-11T10:50:08Z</time>
      </trkpt>
      <trkpt lat="45.97007" lon="6.55542">
        <ele>1988.1</ele>
        <time>2012-03-11T10:50:19Z</time>
      </trkpt>
      <trkpt lat="45.97006" lon="6.55542">
        <ele>1988.3</ele>
        <time>2012-03-11T10:50:20Z</time>
      </trkpt>
      <trkpt lat="45.9699" lon="6.55547">
        <ele>1988.3</ele>
        <time>2012-03-11T10:50:57Z</time>
      </trkpt>
      <trkpt lat="45.96993" lon="6.55559">
        <ele>1988.9</ele>
        <time>2012-03-11T10:51:25Z</time>
      </trkpt>
      <trkpt lat="45.96994" lon="6.5556">
        <ele>1989.1</ele>
        <time>2012-03-11T10:51:26Z</time>
      </trkpt>
      <trkpt lat="45.97007" lon="6.55571">
        <ele>1994.4</ele>
        <time>2012-03-11T10:51:52Z</time>
      </trkpt>
      <trkpt lat="45.97015" lon="6.55574">
        <ele>1997</ele>
        <time>2012-03-11T10:52:05Z</time>
      </trkpt>
      <trkpt lat="45.97024" lon="6.55577">
        <ele>1999</ele>
        <time>2012-03-11T10:52:19Z</time>
      </trkpt>
      <trkpt lat="45.97032" lon="6.55579">
        <ele>2001.5</ele>
        <time>2012-03-11T10:52:32Z</time>
      </trkpt>
      <trkpt lat="45.97033" lon="6.55579">
        <ele>2001.5</ele>
        <time>2012-03-11T10:52:33Z</time>
      </trkpt>
      <trkpt lat="45.97049" lon="6.55586">
        <ele>2007.1</ele>
        <time>2012-03-11T10:53:11Z</time>
      </trkpt>
      <trkpt lat="45.97054" lon="6.55597">
        <ele>2023.5</ele>
        <time>2012-03-11T10:53:46Z</time>
      </trkpt>
      <trkpt lat="45.97054" lon="6.55597">
        <ele>2024.3</ele>
        <time>2012-03-11T10:53:47Z</time>
      </trkpt>
      <trkpt lat="45.97042" lon="6.55616">
        <ele>2039.9</ele>
        <time>2012-03-11T10:54:46Z</time>
      </trkpt>
      <trkpt lat="45.97035" lon="6.55623">
        <ele>2042.4</ele>
        <time>2012-03-11T10:55:09Z</time>
      </trkpt>
      <trkpt lat="45.97035" lon="6.55624">
        <ele>2042.1</ele>
        <time>2012-03-11T10:55:10Z</time>
      </trkpt>
      <trkpt lat="45.97019" lon="6.55635">
        <ele>2037.8</ele>
        <time>2012-03-11T10:55:43Z</time>
      </trkpt>
      <trkpt lat="45.97011" lon="6.55635">
        <ele>2029.5</ele>
        <time>2012-03-11T10:55:56Z</time>
      </trkpt>
      <trkpt lat="45.97006" lon="6.55644">
        <ele>2047.8</ele>
        <time>2012-03-11T10:56:44Z</time>
      </trkpt>
      <trkpt lat="45.97005" lon="6.55644">
        <ele>2046.5</ele>
        <time>2012-03-11T10:56:45Z</time>
      </trkpt>
      <trkpt lat="45.9699" lon="6.55645">
        <ele>2035.1</ele>
        <time>2012-03-11T10:57:02Z</time>
      </trkpt>
      <trkpt lat="45.96982" lon="6.55641">
        <ele>2033</ele>
        <time>2012-03-11T10:57:20Z</time>
      </trkpt>
      <trkpt lat="45.96973" lon="6.55641">
        <ele>2024.5</ele>
        <time>2012-03-11T10:57:28Z</time>
      </trkpt>
      <trkpt lat="45.96978" lon="6.55651">
        <ele>2029.6</ele>
        <time>2012-03-11T10:57:56Z</time>
      </trkpt>
      <trkpt lat="45.96978" lon="6.55652">
        <ele>2029.5</ele>
        <time>2012-03-11T10:57:57Z</time>
      </trkpt>
      <trkpt lat="45.96992" lon="6.55666">
        <ele>2028</ele>
        <time>2012-03-11T10:58:25Z</time>
      </trkpt>
      <trkpt lat="45.96999" lon="6.55672">
        <ele>2032.5</ele>
        <time>2012-03-11T10:58:43Z</time>
      </trkpt>
      <trkpt lat="45.96991" lon="6.55671">
        <ele>2040.5</ele>
        <time>2012-03-11T10:59:11Z</time>
      </trkpt>
      <trkpt lat="45.9699" lon="6.5567">
        <ele>2040.4</ele>
        <time>2012-03-11T10:59:12Z</time>
      </trkpt>
      <trkpt lat="45.96974" lon="6.55663">
        <ele>2044.4</ele>
        <time>2012-03-11T11:00:01Z</time>
      </trkpt>
      <trkpt lat="45.96966" lon="6.55662">
        <ele>2032.3</ele>
        <time>2012-03-11T11:00:36Z</time>
      </trkpt>
      <trkpt lat="45.96964" lon="6.55662">
        <ele>2030.5</ele>
        <time>2012-03-11T11:00:37Z</time>
      </trkpt>
      <trkpt lat="45.96972" lon="6.55685">
        <ele>2049.5</ele>
        <time>2012-03-11T11:01:46Z</time>
      </trkpt>
      <trkpt lat="45.96972" lon="6.55686">
        <ele>2049.8</ele>
        <time>2012-03-11T11:01:47Z</time>
      </trkpt>
      <trkpt lat="45.96985" lon="6.557">
        <ele>2056.8</ele>
        <time>2012-03-11T11:02:06Z</time>
      </trkpt>
      <trkpt lat="45.96991" lon="6.55708">
        <ele>2048.3</ele>
        <time>2012-03-11T11:02:37Z</time>
      </trkpt>
      <trkpt lat="45.97" lon="6.55711">
        <ele>2055.6</ele>
        <time>2012-03-11T11:02:46Z</time>
      </trkpt>
      <trkpt lat="45.97008" lon="6.55713">
        <ele>2064</ele>
        <time>2012-03-11T11:02:57Z</time>
      </trkpt>
      <trkpt lat="45.97009" lon="6.55713">
        <ele>2065.1</ele>
        <time>2012-03-11T11:02:58Z</time>
      </trkpt>
      <trkpt lat="45.97026" lon="6.55715">
        <ele>2086.1</ele>
        <time>2012-03-11T11:03:54Z</time>
      </trkpt>
      <trkpt lat="45.97032" lon="6.55709">
        <ele>2104.6</ele>
        <time>2012-03-11T11:04:00Z</time>
      </trkpt>
      <trkpt lat="45.97034" lon="6.55708">
        <ele>2108.3</ele>
        <time>2012-03-11T11:04:01Z</time>
      </trkpt>
      <trkpt lat="45.97033" lon="6.55704">
        <ele>2111</ele>
        <time>2012-03-11T11:04:27Z</time>
      </trkpt>
      <trkpt lat="45.97025" lon="6.55704">
        <ele>2099.5</ele>
        <time>2012-03-11T11:04:31Z</time>
      </trkpt>
      <trkpt lat="45.97017" lon="6.55705">
        <ele>2083.1</ele>
        <time>2012-03-11T11:04:38Z</time>
      </trkpt>
      <trkpt lat="45.97008" lon="6.55707">
        <ele>2065.3</ele>
        <time>2012-03-11T11:04:47Z</time>
      </trkpt>
      <trkpt lat="45.97015" lon="6.55715">
        <ele>2059.6</ele>
        <time>2012-03-11T11:05:20Z</time>
      </trkpt>
      <trkpt lat="45.97015" lon="6.55715">
        <ele>2060.8</ele>
        <time>2012-03-11T11:05:21Z</time>
      </trkpt>
      <trkpt lat="45.97011" lon="6.55705">
        <ele>2080.6</ele>
        <time>2012-03-11T11:06:25Z</time>
      </trkpt>
      <trkpt lat="45.97012" lon="6.55705">
        <ele>2081.3</ele>
        <time>2012-03-11T11:06:26Z</time>
      </trkpt>
      <trkpt lat="45.97027" lon="6.55712">
        <ele>2079.8</ele>
        <time>2012-03-11T11:06:45Z</time>
      </trkpt>
      <trkpt lat="45.97022" lon="6.55701">
        <ele>2076.1</ele>
        <time>2012-03-11T11:07:15Z</time>
      </trkpt>
      <trkpt lat="45.97014" lon="6.55697">
        <ele>2070.5</ele>
        <time>2012-03-11T11:07:38Z</time>
      </trkpt>
      <trkpt lat="45.97014" lon="6.55697">
        <ele>2070</ele>
        <time>2012-03-11T11:07:39Z</time>
      </trkpt>
      <trkpt lat="45.97022" lon="6.55708">
        <ele>2061.5</ele>
        <time>2012-03-11T11:08:42Z</time>
      </trkpt>
      <trkpt lat="45.97023" lon="6.55707">
        <ele>2062</ele>
        <time>2012-03-11T11:08:43Z</time>
      </trkpt>
      <trkpt lat="45.97025" lon="6.55716">
        <ele>2068.1</ele>
        <time>2012-03-11T11:09:11Z</time>
      </trkpt>
      <trkpt lat="45.9702" lon="6.55706">
        <ele>2083.6</ele>
        <time>2012-03-11T11:09:26Z</time>
      </trkpt>
      <trkpt lat="45.97012" lon="6.55704">
        <ele>2076.1</ele>
        <time>2012-03-11T11:09:30Z</time>
      </trkpt>
      <trkpt lat="45.97003" lon="6.55703">
        <ele>2065.8</ele>
        <time>2012-03-11T11:09:37Z</time>
      </trkpt>
      <trkpt lat="45.96996" lon="6.55701">
        <ele>2062.6</ele>
        <time>2012-03-11T11:09:42Z</time>
      </trkpt>
      <trkpt lat="45.96988" lon="6.55698">
        <ele>2062</ele>
        <time>2012-03-11T11:09:47Z</time>
      </trkpt>
      <trkpt lat="45.96987" lon="6.55698">
        <ele>2061.6</ele>
        <time>2012-03-11T11:09:48Z</time>
      </trkpt>
      <trkpt lat="45.97003" lon="6.55704">
        <ele>2059</ele>
        <time>2012-03-11T11:10:26Z</time>
      </trkpt>
      <trkpt lat="45.97012" lon="6.55706">
        <ele>2066.6</ele>
        <time>2012-03-11T11:10:33Z</time>
      </trkpt>
      <trkpt lat="45.97019" lon="6.55713">
        <ele>2074.3</ele>
        <time>2012-03-11T11:10:41Z</time>
      </trkpt>
      <trkpt lat="45.97026" lon="6.5572">
        <ele>2078.3</ele>
        <time>2012-03-11T11:10:51Z</time>
      </trkpt>
      <trkpt lat="45.97027" lon="6.5572">
        <ele>2078.8</ele>
        <time>2012-03-11T11:10:52Z</time>
      </trkpt>
      <trkpt lat="45.97017" lon="6.55714">
        <ele>2089.5</ele>
        <time>2012-03-11T11:11:57Z</time>
      </trkpt>
      <trkpt lat="45.97004" lon="6.55717">
        <ele>2083.8</ele>
        <time>2012-03-11T11:13:28Z</time>
      </trkpt>
      <trkpt lat="45.97003" lon="6.55717">
        <ele>2084.3</ele>
        <time>2012-03-11T11:13:29Z</time>
      </trkpt>
      <trkpt lat="45.96987" lon="6.55721">
        <ele>2077.3</ele>
        <time>2012-03-11T11:15:40Z</time>
      </trkpt>
      <trkpt lat="45.96986" lon="6.5572">
        <ele>2077.6</ele>
        <time>2012-03-11T11:15:41Z</time>
      </trkpt>
      <trkpt lat="45.96994" lon="6.5573">
        <ele>2121.1</ele>
        <time>2012-03-11T11:16:58Z</time>
      </trkpt>
      <trkpt lat="45.96999" lon="6.55752">
        <ele>2101.8</ele>
        <time>2012-03-11T11:17:43Z</time>
      </trkpt>
      <trkpt lat="45.97007" lon="6.55758">
        <ele>2102.1</ele>
        <time>2012-03-11T11:17:56Z</time>
      </trkpt>
      <trkpt lat="45.97015" lon="6.55763">
        <ele>2109.1</ele>
        <time>2012-03-11T11:18:10Z</time>
      </trkpt>
      <trkpt lat="45.97015" lon="6.55763">
        <ele>2108.6</ele>
        <time>2012-03-11T11:18:11Z</time>
      </trkpt>
      <trkpt lat="45.96998" lon="6.55766">
        <ele>2085.8</ele>
        <time>2012-03-11T11:19:13Z</time>
      </trkpt>
      <trkpt lat="45.96998" lon="6.55766">
        <ele>2086.1</ele>
        <time>2012-03-11T11:19:14Z</time>
      </trkpt>
      <trkpt lat="45.97006" lon="6.55772">
        <ele>2095.8</ele>
        <time>2012-03-11T11:20:25Z</time>
      </trkpt>
      <trkpt lat="45.97013" lon="6.55793">
        <ele>2097.3</ele>
        <time>2012-03-11T11:21:23Z</time>
      </trkpt>
      <trkpt lat="45.97022" lon="6.55798">
        <ele>2118</ele>
        <time>2012-03-11T11:21:54Z</time>
      </trkpt>
      <trkpt lat="45.97022" lon="6.55798">
        <ele>2118.3</ele>
        <time>2012-03-11T11:21:55Z</time>
      </trkpt>
      <trkpt lat="45.97011" lon="6.55816">
        <ele>2123.3</ele>
        <time>2012-03-11T11:23:16Z</time>
      </trkpt>
      <trkpt lat="45.97011" lon="6.55817">
        <ele>2123.3</ele>
        <time>2012-03-11T11:23:17Z</time>
      </trkpt>
      <trkpt lat="45.97008" lon="6.5584">
        <ele>2124.8</ele>
        <time>2012-03-11T11:24:02Z</time>
      </trkpt>
      <trkpt lat="45.97007" lon="6.55852">
        <ele>2136.1</ele>
        <time>2012-03-11T11:25:12Z</time>
      </trkpt>
      <trkpt lat="45.97006" lon="6.55853">
        <ele>2136.6</ele>
        <time>2012-03-11T11:25:13Z</time>
      </trkpt>
      <trkpt lat="45.97001" lon="6.55876">
        <ele>2139.6</ele>
        <time>2012-03-11T11:25:56Z</time>
      </trkpt>
      <trkpt lat="45.97" lon="6.55889">
        <ele>2138</ele>
        <time>2012-03-11T11:26:18Z</time>
      </trkpt>
      <trkpt lat="45.97" lon="6.55889">
        <ele>2138.1</ele>
        <time>2012-03-11T11:26:19Z</time>
      </trkpt>
      <trkpt lat="45.97003" lon="6.55912">
        <ele>2147.8</ele>
        <time>2012-03-11T11:27:04Z</time>
      </trkpt>
      <trkpt lat="45.97006" lon="6.55924">
        <ele>2152</ele>
        <time>2012-03-11T11:27:30Z</time>
      </trkpt>
      <trkpt lat="45.97006" lon="6.55925">
        <ele>2152.1</ele>
        <time>2012-03-11T11:27:31Z</time>
      </trkpt>
      <trkpt lat="45.96995" lon="6.55944">
        <ele>2160.6</ele>
        <time>2012-03-11T11:29:03Z</time>
      </trkpt>
      <trkpt lat="45.96995" lon="6.55945">
        <ele>2160.6</ele>
        <time>2012-03-11T11:29:04Z</time>
      </trkpt>
      <trkpt lat="45.96989" lon="6.5596">
        <ele>2157.8</ele>
        <time>2012-03-11T11:30:10Z</time>
      </trkpt>
      <trkpt lat="45.96988" lon="6.5596">
        <ele>2158.3</ele>
        <time>2012-03-11T11:30:11Z</time>
      </trkpt>
      <trkpt lat="45.96972" lon="6.5596">
        <ele>2166.8</ele>
        <time>2012-03-11T11:30:39Z</time>
      </trkpt>
      <trkpt lat="45.96963" lon="6.55962">
        <ele>2169.6</ele>
        <time>2012-03-11T11:30:57Z</time>
      </trkpt>
      <trkpt lat="45.96955" lon="6.55961">
        <ele>2167.3</ele>
        <time>2012-03-11T11:31:08Z</time>
      </trkpt>
      <trkpt lat="45.96947" lon="6.55964">
        <ele>2170.6</ele>
        <time>2012-03-11T11:31:23Z</time>
      </trkpt>
      <trkpt lat="45.96946" lon="6.55964">
        <ele>2170.6</ele>
        <time>2012-03-11T11:31:24Z</time>
      </trkpt>
      <trkpt lat="45.96931" lon="6.55973">
        <ele>2173.8</ele>
        <time>2012-03-11T11:31:56Z</time>
      </trkpt>
      <trkpt lat="45.96924" lon="6.55979">
        <ele>2178.6</ele>
        <time>2012-03-11T11:32:20Z</time>
      </trkpt>
      <trkpt lat="45.96915" lon="6.55981">
        <ele>2192.3</ele>
        <time>2012-03-11T11:32:45Z</time>
      </trkpt>
      <trkpt lat="45.96915" lon="6.55981">
        <ele>2192.5</ele>
        <time>2012-03-11T11:32:46Z</time>
      </trkpt>
      <trkpt lat="45.96907" lon="6.56">
        <ele>2186.8</ele>
        <time>2012-03-11T11:33:27Z</time>
      </trkpt>
      <trkpt lat="45.96911" lon="6.56011">
        <ele>2184.1</ele>
        <time>2012-03-11T11:33:42Z</time>
      </trkpt>
      <trkpt lat="45.96914" lon="6.56023">
        <ele>2187.1</ele>
        <time>2012-03-11T11:34:00Z</time>
      </trkpt>
      <trkpt lat="45.96914" lon="6.56024">
        <ele>2187.1</ele>
        <time>2012-03-11T11:34:01Z</time>
      </trkpt>
      <trkpt lat="45.96914" lon="6.56047">
        <ele>2195.8</ele>
        <time>2012-03-11T11:34:35Z</time>
      </trkpt>
      <trkpt lat="45.96918" lon="6.56058">
        <ele>2194.8</ele>
        <time>2012-03-11T11:34:48Z</time>
      </trkpt>
      <trkpt lat="45.96922" lon="6.56069">
        <ele>2194.3</ele>
        <time>2012-03-11T11:35:02Z</time>
      </trkpt>
      <trkpt lat="45.96923" lon="6.5607">
        <ele>2194.5</ele>
        <time>2012-03-11T11:35:03Z</time>
      </trkpt>
      <trkpt lat="45.96925" lon="6.56094">
        <ele>2204.1</ele>
        <time>2012-03-11T11:35:44Z</time>
      </trkpt>
      <trkpt lat="45.96927" lon="6.56107">
        <ele>2203.8</ele>
        <time>2012-03-11T11:36:04Z</time>
      </trkpt>
      <trkpt lat="45.96927" lon="6.56108">
        <ele>2204</ele>
        <time>2012-03-11T11:36:05Z</time>
      </trkpt>
      <trkpt lat="45.96932" lon="6.56132">
        <ele>2214.6</ele>
        <time>2012-03-11T11:36:43Z</time>
      </trkpt>
      <trkpt lat="45.96928" lon="6.56143">
        <ele>2207</ele>
        <time>2012-03-11T11:37:41Z</time>
      </trkpt>
      <trkpt lat="45.96928" lon="6.56144">
        <ele>2206.1</ele>
        <time>2012-03-11T11:37:42Z</time>
      </trkpt>
      <trkpt lat="45.96933" lon="6.56167">
        <ele>2224.6</ele>
        <time>2012-03-11T11:38:21Z</time>
      </trkpt>
      <trkpt lat="45.96937" lon="6.56178">
        <ele>2232.3</ele>
        <time>2012-03-11T11:38:43Z</time>
      </trkpt>
      <trkpt lat="45.96937" lon="6.56179">
        <ele>2232.5</ele>
        <time>2012-03-11T11:38:44Z</time>
      </trkpt>
      <trkpt lat="45.96937" lon="6.56201">
        <ele>2240.1</ele>
        <time>2012-03-11T11:39:36Z</time>
      </trkpt>
      <trkpt lat="45.96934" lon="6.56213">
        <ele>2243.3</ele>
        <time>2012-03-11T11:40:09Z</time>
      </trkpt>
      <trkpt lat="45.96934" lon="6.56214">
        <ele>2243.1</ele>
        <time>2012-03-11T11:40:10Z</time>
      </trkpt>
      <trkpt lat="45.96921" lon="6.56228">
        <ele>2250.1</ele>
        <time>2012-03-11T11:40:54Z</time>
      </trkpt>
      <trkpt lat="45.96918" lon="6.56241">
        <ele>2257.6</ele>
        <time>2012-03-11T11:41:26Z</time>
      </trkpt>
      <trkpt lat="45.96918" lon="6.56241">
        <ele>2257.8</ele>
        <time>2012-03-11T11:41:27Z</time>
      </trkpt>
      <trkpt lat="45.96925" lon="6.56263">
        <ele>2266.6</ele>
        <time>2012-03-11T11:42:12Z</time>
      </trkpt>
      <trkpt lat="45.96927" lon="6.56275">
        <ele>2262</ele>
        <time>2012-03-11T11:42:32Z</time>
      </trkpt>
      <trkpt lat="45.96927" lon="6.56275">
        <ele>2261.6</ele>
        <time>2012-03-11T11:42:33Z</time>
      </trkpt>
      <trkpt lat="45.96928" lon="6.56297">
        <ele>2269.6</ele>
        <time>2012-03-11T11:43:38Z</time>
      </trkpt>
      <trkpt lat="45.96928" lon="6.56297">
        <ele>2270</ele>
        <time>2012-03-11T11:43:39Z</time>
      </trkpt>
      <trkpt lat="45.96942" lon="6.56312">
        <ele>2276.8</ele>
        <time>2012-03-11T11:45:26Z</time>
      </trkpt>
      <trkpt lat="45.96942" lon="6.56312">
        <ele>2277</ele>
        <time>2012-03-11T11:45:27Z</time>
      </trkpt>
      <trkpt lat="45.96943" lon="6.56325">
        <ele>2291.5</ele>
        <time>2012-03-11T12:03:26Z</time>
      </trkpt>
      <trkpt lat="45.96947" lon="6.56312">
        <ele>2277.1</ele>
        <time>2012-03-11T12:06:24Z</time>
      </trkpt>
      <trkpt lat="45.96939" lon="6.56304">
        <ele>2273.5</ele>
        <time>2012-03-11T12:08:32Z</time>
      </trkpt>
      <trkpt lat="45.96934" lon="6.56284">
        <ele>2268.6</ele>
        <time>2012-03-11T12:08:41Z</time>
      </trkpt>
      <trkpt lat="45.96929" lon="6.56279">
        <ele>2267</ele>
        <time>2012-03-11T12:08:43Z</time>
      </trkpt>
      <trkpt lat="45.96926" lon="6.56267">
        <ele>2263.1</ele>
        <time>2012-03-11T12:08:47Z</time>
      </trkpt>
      <trkpt lat="45.96923" lon="6.56256">
        <ele>2260.5</ele>
        <time>2012-03-11T12:08:51Z</time>
      </trkpt>
      <trkpt lat="45.96923" lon="6.56243">
        <ele>2258.5</ele>
        <time>2012-03-11T12:08:55Z</time>
      </trkpt>
      <trkpt lat="45.96927" lon="6.56232">
        <ele>2253</ele>
        <time>2012-03-11T12:09:12Z</time>
      </trkpt>
      <trkpt lat="45.96924" lon="6.56222">
        <ele>2252.1</ele>
        <time>2012-03-11T12:09:22Z</time>
      </trkpt>
      <trkpt lat="45.96924" lon="6.56209">
        <ele>2248.8</ele>
        <time>2012-03-11T12:09:26Z</time>
      </trkpt>
      <trkpt lat="45.96922" lon="6.56197">
        <ele>2245.1</ele>
        <time>2012-03-11T12:09:29Z</time>
      </trkpt>
      <trkpt lat="45.96922" lon="6.56187">
        <ele>2242</ele>
        <time>2012-03-11T12:09:31Z</time>
      </trkpt>
      <trkpt lat="45.96917" lon="6.56177">
        <ele>2240.3</ele>
        <time>2012-03-11T12:09:33Z</time>
      </trkpt>
      <trkpt lat="45.96914" lon="6.56173">
        <ele>2239.8</ele>
        <time>2012-03-11T12:09:34Z</time>
      </trkpt>
      <trkpt lat="45.96914" lon="6.56156">
        <ele>2234.5</ele>
        <time>2012-03-11T12:09:37Z</time>
      </trkpt>
      <trkpt lat="45.96916" lon="6.56149">
        <ele>2232</ele>
        <time>2012-03-11T12:09:38Z</time>
      </trkpt>
      <trkpt lat="45.96916" lon="6.56141">
        <ele>2229.6</ele>
        <time>2012-03-11T12:09:39Z</time>
      </trkpt>
      <trkpt lat="45.96913" lon="6.56133">
        <ele>2228.1</ele>
        <time>2012-03-11T12:09:40Z</time>
      </trkpt>
      <trkpt lat="45.96909" lon="6.56126">
        <ele>2226.8</ele>
        <time>2012-03-11T12:09:41Z</time>
      </trkpt>
      <trkpt lat="45.96905" lon="6.5612">
        <ele>2225.8</ele>
        <time>2012-03-11T12:09:42Z</time>
      </trkpt>
      <trkpt lat="45.96902" lon="6.56114">
        <ele>2225.1</ele>
        <time>2012-03-11T12:09:43Z</time>
      </trkpt>
      <trkpt lat="45.96899" lon="6.56108">
        <ele>2224.3</ele>
        <time>2012-03-11T12:09:44Z</time>
      </trkpt>
      <trkpt lat="45.96895" lon="6.56097">
        <ele>2222.6</ele>
        <time>2012-03-11T12:09:46Z</time>
      </trkpt>
      <trkpt lat="45.96897" lon="6.56085">
        <ele>2219.6</ele>
        <time>2012-03-11T12:09:48Z</time>
      </trkpt>
      <trkpt lat="45.96895" lon="6.56079">
        <ele>2218.1</ele>
        <time>2012-03-11T12:09:49Z</time>
      </trkpt>
      <trkpt lat="45.96894" lon="6.56072">
        <ele>2216.3</ele>
        <time>2012-03-11T12:09:50Z</time>
      </trkpt>
      <trkpt lat="45.96893" lon="6.56066">
        <ele>2214.8</ele>
        <time>2012-03-11T12:09:51Z</time>
      </trkpt>
      <trkpt lat="45.9689" lon="6.5606">
        <ele>2213.8</ele>
        <time>2012-03-11T12:09:52Z</time>
      </trkpt>
      <trkpt lat="45.96885" lon="6.56049">
        <ele>2212.1</ele>
        <time>2012-03-11T12:09:54Z</time>
      </trkpt>
      <trkpt lat="45.96881" lon="6.56039">
        <ele>2210.1</ele>
        <time>2012-03-11T12:09:56Z</time>
      </trkpt>
      <trkpt lat="45.96878" lon="6.56033">
        <ele>2208.8</ele>
        <time>2012-03-11T12:09:57Z</time>
      </trkpt>
      <trkpt lat="45.96876" lon="6.56026">
        <ele>2207.8</ele>
        <time>2012-03-11T12:09:58Z</time>
      </trkpt>
      <trkpt lat="45.96873" lon="6.56021">
        <ele>2206.8</ele>
        <time>2012-03-11T12:09:59Z</time>
      </trkpt>
      <trkpt lat="45.9687" lon="6.56016">
        <ele>2205.8</ele>
        <time>2012-03-11T12:10:00Z</time>
      </trkpt>
      <trkpt lat="45.96866" lon="6.56006">
        <ele>2203.8</ele>
        <time>2012-03-11T12:10:02Z</time>
      </trkpt>
      <trkpt lat="45.96872" lon="6.55998">
        <ele>2200.5</ele>
        <time>2012-03-11T12:10:05Z</time>
      </trkpt>
      <trkpt lat="45.96877" lon="6.55989">
        <ele>2197.6</ele>
        <time>2012-03-11T12:10:07Z</time>
      </trkpt>
      <trkpt lat="45.96875" lon="6.55977">
        <ele>2192</ele>
        <time>2012-03-11T12:10:15Z</time>
      </trkpt>
      <trkpt lat="45.9687" lon="6.55965">
        <ele>2184.6</ele>
        <time>2012-03-11T12:10:42Z</time>
      </trkpt>
      <trkpt lat="45.96869" lon="6.55962">
        <ele>2184.8</ele>
        <time>2012-03-11T12:10:43Z</time>
      </trkpt>
      <trkpt lat="45.96863" lon="6.5595">
        <ele>2185.1</ele>
        <time>2012-03-11T12:10:45Z</time>
      </trkpt>
      <trkpt lat="45.96859" lon="6.55945">
        <ele>2185.3</ele>
        <time>2012-03-11T12:10:46Z</time>
      </trkpt>
      <trkpt lat="45.96853" lon="6.55938">
        <ele>2185.8</ele>
        <time>2012-03-11T12:10:48Z</time>
      </trkpt>
      <trkpt lat="45.9685" lon="6.55927">
        <ele>2187.1</ele>
        <time>2012-03-11T12:11:01Z</time>
      </trkpt>
      <trkpt lat="45.96845" lon="6.55917">
        <ele>2187.5</ele>
        <time>2012-03-11T12:11:08Z</time>
      </trkpt>
      <trkpt lat="45.96854" lon="6.55914">
        <ele>2180.1</ele>
        <time>2012-03-11T12:11:14Z</time>
      </trkpt>
      <trkpt lat="45.96857" lon="6.55904">
        <ele>2174.6</ele>
        <time>2012-03-11T12:11:22Z</time>
      </trkpt>
      <trkpt lat="45.9686" lon="6.55892">
        <ele>2166.3</ele>
        <time>2012-03-11T12:11:31Z</time>
      </trkpt>
      <trkpt lat="45.96854" lon="6.55883">
        <ele>2167.8</ele>
        <time>2012-03-11T12:11:39Z</time>
      </trkpt>
      <trkpt lat="45.96849" lon="6.55876">
        <ele>2170</ele>
        <time>2012-03-11T12:11:44Z</time>
      </trkpt>
      <trkpt lat="45.96848" lon="6.55874">
        <ele>2170.5</ele>
        <time>2012-03-11T12:11:45Z</time>
      </trkpt>
      <trkpt lat="45.96838" lon="6.55857">
        <ele>2178.1</ele>
        <time>2012-03-11T12:11:56Z</time>
      </trkpt>
      <trkpt lat="45.96835" lon="6.55847">
        <ele>2184.3</ele>
        <time>2012-03-11T12:12:02Z</time>
      </trkpt>
      <trkpt lat="45.96839" lon="6.55837">
        <ele>2185.3</ele>
        <time>2012-03-11T12:12:07Z</time>
      </trkpt>
      <trkpt lat="45.96845" lon="6.55827">
        <ele>2180.1</ele>
        <time>2012-03-11T12:12:14Z</time>
      </trkpt>
      <trkpt lat="45.96851" lon="6.55824">
        <ele>2176.1</ele>
        <time>2012-03-11T12:12:17Z</time>
      </trkpt>
      <trkpt lat="45.96854" lon="6.55812">
        <ele>2175.8</ele>
        <time>2012-03-11T12:12:43Z</time>
      </trkpt>
      <trkpt lat="45.9686" lon="6.55803">
        <ele>2163.3</ele>
        <time>2012-03-11T12:12:54Z</time>
      </trkpt>
      <trkpt lat="45.96861" lon="6.55802">
        <ele>2162</ele>
        <time>2012-03-11T12:12:55Z</time>
      </trkpt>
      <trkpt lat="45.96869" lon="6.55783">
        <ele>2148.3</ele>
        <time>2012-03-11T12:13:36Z</time>
      </trkpt>
      <trkpt lat="45.96875" lon="6.55779">
        <ele>2144.3</ele>
        <time>2012-03-11T12:13:40Z</time>
      </trkpt>
      <trkpt lat="45.96872" lon="6.55767">
        <ele>2135.6</ele>
        <time>2012-03-11T12:13:49Z</time>
      </trkpt>
      <trkpt lat="45.96868" lon="6.55756">
        <ele>2129.5</ele>
        <time>2012-03-11T12:14:10Z</time>
      </trkpt>
      <trkpt lat="45.96868" lon="6.55755">
        <ele>2129.3</ele>
        <time>2012-03-11T12:14:11Z</time>
      </trkpt>
      <trkpt lat="45.96882" lon="6.55753">
        <ele>2123.6</ele>
        <time>2012-03-11T12:14:17Z</time>
      </trkpt>
      <trkpt lat="45.96883" lon="6.5574">
        <ele>2115</ele>
        <time>2012-03-11T12:14:32Z</time>
      </trkpt>
      <trkpt lat="45.9689" lon="6.55734">
        <ele>2109.8</ele>
        <time>2012-03-11T12:14:39Z</time>
      </trkpt>
      <trkpt lat="45.96895" lon="6.55724">
        <ele>2102.1</ele>
        <time>2012-03-11T12:14:52Z</time>
      </trkpt>
      <trkpt lat="45.96898" lon="6.55714">
        <ele>2108.3</ele>
        <time>2012-03-11T12:15:01Z</time>
      </trkpt>
      <trkpt lat="45.96905" lon="6.55712">
        <ele>2107.3</ele>
        <time>2012-03-11T12:15:04Z</time>
      </trkpt>
      <trkpt lat="45.96912" lon="6.55713">
        <ele>2105.6</ele>
        <time>2012-03-11T12:15:06Z</time>
      </trkpt>
      <trkpt lat="45.96919" lon="6.55708">
        <ele>2088.1</ele>
        <time>2012-03-11T12:15:29Z</time>
      </trkpt>
      <trkpt lat="45.96921" lon="6.55706">
        <ele>2087.6</ele>
        <time>2012-03-11T12:15:30Z</time>
      </trkpt>
      <trkpt lat="45.96934" lon="6.55705">
        <ele>2081.3</ele>
        <time>2012-03-11T12:15:36Z</time>
      </trkpt>
      <trkpt lat="45.9693" lon="6.55694">
        <ele>2072.1</ele>
        <time>2012-03-11T12:15:51Z</time>
      </trkpt>
      <trkpt lat="45.96932" lon="6.55682">
        <ele>2068.1</ele>
        <time>2012-03-11T12:16:00Z</time>
      </trkpt>
      <trkpt lat="45.96941" lon="6.55684">
        <ele>2079</ele>
        <time>2012-03-11T12:16:42Z</time>
      </trkpt>
      <trkpt lat="45.96942" lon="6.55684">
        <ele>2079</ele>
        <time>2012-03-11T12:16:43Z</time>
      </trkpt>
      <trkpt lat="45.96932" lon="6.55698">
        <ele>2050.1</ele>
        <time>2012-03-11T12:17:38Z</time>
      </trkpt>
      <trkpt lat="45.96923" lon="6.55699">
        <ele>2039.3</ele>
        <time>2012-03-11T12:17:55Z</time>
      </trkpt>
      <trkpt lat="45.96922" lon="6.55699">
        <ele>2038.6</ele>
        <time>2012-03-11T12:17:56Z</time>
      </trkpt>
      <trkpt lat="45.96938" lon="6.55704">
        <ele>2035.6</ele>
        <time>2012-03-11T12:18:29Z</time>
      </trkpt>
      <trkpt lat="45.96946" lon="6.55705">
        <ele>2035.4</ele>
        <time>2012-03-11T12:18:32Z</time>
      </trkpt>
      <trkpt lat="45.96955" lon="6.55705">
        <ele>2037.5</ele>
        <time>2012-03-11T12:18:43Z</time>
      </trkpt>
      <trkpt lat="45.96963" lon="6.55703">
        <ele>2040.3</ele>
        <time>2012-03-11T12:18:56Z</time>
      </trkpt>
      <trkpt lat="45.96965" lon="6.55703">
        <ele>2040.3</ele>
        <time>2012-03-11T12:18:57Z</time>
      </trkpt>
      <trkpt lat="45.96977" lon="6.55703">
        <ele>2040</ele>
        <time>2012-03-11T12:19:01Z</time>
      </trkpt>
      <trkpt lat="45.96985" lon="6.55702">
        <ele>2040.3</ele>
        <time>2012-03-11T12:19:06Z</time>
      </trkpt>
      <trkpt lat="45.96988" lon="6.55691">
        <ele>2040</ele>
        <time>2012-03-11T12:19:13Z</time>
      </trkpt>
      <trkpt lat="45.96988" lon="6.55679">
        <ele>2047.1</ele>
        <time>2012-03-11T12:19:35Z</time>
      </trkpt>
      <trkpt lat="45.96985" lon="6.55668">
        <ele>2046.5</ele>
        <time>2012-03-11T12:19:41Z</time>
      </trkpt>
      <trkpt lat="45.96979" lon="6.55659">
        <ele>2046.5</ele>
        <time>2012-03-11T12:19:44Z</time>
      </trkpt>
      <trkpt lat="45.96974" lon="6.55652">
        <ele>2047</ele>
        <time>2012-03-11T12:19:46Z</time>
      </trkpt>
      <trkpt lat="45.96968" lon="6.55643">
        <ele>2047</ele>
        <time>2012-03-11T12:19:49Z</time>
      </trkpt>
      <trkpt lat="45.96963" lon="6.55637">
        <ele>2047.5</ele>
        <time>2012-03-11T12:19:51Z</time>
      </trkpt>
      <trkpt lat="45.96961" lon="6.55632">
        <ele>2048.3</ele>
        <time>2012-03-11T12:19:52Z</time>
      </trkpt>
      <trkpt lat="45.96956" lon="6.55622">
        <ele>2049.1</ele>
        <time>2012-03-11T12:19:54Z</time>
      </trkpt>
      <trkpt lat="45.96964" lon="6.55619">
        <ele>2047.8</ele>
        <time>2012-03-11T12:19:58Z</time>
      </trkpt>
      <trkpt lat="45.96966" lon="6.55619">
        <ele>2047.3</ele>
        <time>2012-03-11T12:19:59Z</time>
      </trkpt>
      <trkpt lat="45.96973" lon="6.5563">
        <ele>2013.4</ele>
        <time>2012-03-11T12:20:30Z</time>
      </trkpt>
      <trkpt lat="45.96979" lon="6.55622">
        <ele>2006.6</ele>
        <time>2012-03-11T12:20:36Z</time>
      </trkpt>
      <trkpt lat="45.96985" lon="6.55613">
        <ele>2003.3</ele>
        <time>2012-03-11T12:20:39Z</time>
      </trkpt>
      <trkpt lat="45.96992" lon="6.55606">
        <ele>1999.4</ele>
        <time>2012-03-11T12:20:42Z</time>
      </trkpt>
      <trkpt lat="45.96995" lon="6.55595">
        <ele>1995.1</ele>
        <time>2012-03-11T12:20:46Z</time>
      </trkpt>
      <trkpt lat="45.96999" lon="6.55586">
        <ele>1993.1</ele>
        <time>2012-03-11T12:20:49Z</time>
      </trkpt>
      <trkpt lat="45.97006" lon="6.55584">
        <ele>1991.5</ele>
        <time>2012-03-11T12:20:51Z</time>
      </trkpt>
      <trkpt lat="45.97004" lon="6.55574">
        <ele>1988.5</ele>
        <time>2012-03-11T12:20:53Z</time>
      </trkpt>
      <trkpt lat="45.96999" lon="6.55565">
        <ele>1988.3</ele>
        <time>2012-03-11T12:20:55Z</time>
      </trkpt>
      <trkpt lat="45.97" lon="6.55554">
        <ele>1987.3</ele>
        <time>2012-03-11T12:20:58Z</time>
      </trkpt>
      <trkpt lat="45.97003" lon="6.55552">
        <ele>1986.1</ele>
        <time>2012-03-11T12:20:59Z</time>
      </trkpt>
      <trkpt lat="45.97009" lon="6.55551">
        <ele>1984.9</ele>
        <time>2012-03-11T12:21:00Z</time>
      </trkpt>
      <trkpt lat="45.97015" lon="6.5555">
        <ele>1984</ele>
        <time>2012-03-11T12:21:01Z</time>
      </trkpt>
      <trkpt lat="45.9702" lon="6.55549">
        <ele>1983.1</ele>
        <time>2012-03-11T12:21:02Z</time>
      </trkpt>
      <trkpt lat="45.97026" lon="6.55547">
        <ele>1982.5</ele>
        <time>2012-03-11T12:21:03Z</time>
      </trkpt>
      <trkpt lat="45.97031" lon="6.55545">
        <ele>1982</ele>
        <time>2012-03-11T12:21:04Z</time>
      </trkpt>
      <trkpt lat="45.97037" lon="6.55542">
        <ele>1981.1</ele>
        <time>2012-03-11T12:21:05Z</time>
      </trkpt>
      <trkpt lat="45.97043" lon="6.55538">
        <ele>1979.9</ele>
        <time>2012-03-11T12:21:06Z</time>
      </trkpt>
      <trkpt lat="45.97049" lon="6.55534">
        <ele>1978.8</ele>
        <time>2012-03-11T12:21:07Z</time>
      </trkpt>
      <trkpt lat="45.97054" lon="6.55531">
        <ele>1978</ele>
        <time>2012-03-11T12:21:08Z</time>
      </trkpt>
      <trkpt lat="45.97061" lon="6.55526">
        <ele>1977</ele>
        <time>2012-03-11T12:21:10Z</time>
      </trkpt>
      <trkpt lat="45.97068" lon="6.5552">
        <ele>1977.8</ele>
        <time>2012-03-11T12:21:30Z</time>
      </trkpt>
      <trkpt lat="45.97076" lon="6.55514">
        <ele>1981</ele>
        <time>2012-03-11T12:21:42Z</time>
      </trkpt>
      <trkpt lat="45.9708" lon="6.55503">
        <ele>1979</ele>
        <time>2012-03-11T12:21:46Z</time>
      </trkpt>
      <trkpt lat="45.97083" lon="6.55493">
        <ele>1977.3</ele>
        <time>2012-03-11T12:21:48Z</time>
      </trkpt>
      <trkpt lat="45.97087" lon="6.55488">
        <ele>1975.4</ele>
        <time>2012-03-11T12:21:49Z</time>
      </trkpt>
      <trkpt lat="45.97087" lon="6.5548">
        <ele>1972.6</ele>
        <time>2012-03-11T12:21:50Z</time>
      </trkpt>
      <trkpt lat="45.97084" lon="6.55472">
        <ele>1970.5</ele>
        <time>2012-03-11T12:21:51Z</time>
      </trkpt>
      <trkpt lat="45.97081" lon="6.55462">
        <ele>1968.8</ele>
        <time>2012-03-11T12:21:52Z</time>
      </trkpt>
      <trkpt lat="45.97076" lon="6.55453">
        <ele>1967</ele>
        <time>2012-03-11T12:21:53Z</time>
      </trkpt>
      <trkpt lat="45.97071" lon="6.55444">
        <ele>1965.3</ele>
        <time>2012-03-11T12:21:54Z</time>
      </trkpt>
      <trkpt lat="45.97065" lon="6.55436">
        <ele>1963.6</ele>
        <time>2012-03-11T12:21:55Z</time>
      </trkpt>
      <trkpt lat="45.97061" lon="6.55427">
        <ele>1962.3</ele>
        <time>2012-03-11T12:21:56Z</time>
      </trkpt>
      <trkpt lat="45.97064" lon="6.55416">
        <ele>1958.5</ele>
        <time>2012-03-11T12:21:58Z</time>
      </trkpt>
      <trkpt lat="45.97067" lon="6.55409">
        <ele>1956.5</ele>
        <time>2012-03-11T12:21:59Z</time>
      </trkpt>
      <trkpt lat="45.97072" lon="6.55403">
        <ele>1954.4</ele>
        <time>2012-03-11T12:22:00Z</time>
      </trkpt>
      <trkpt lat="45.97076" lon="6.55396">
        <ele>1952.1</ele>
        <time>2012-03-11T12:22:01Z</time>
      </trkpt>
      <trkpt lat="45.9708" lon="6.55388">
        <ele>1949.9</ele>
        <time>2012-03-11T12:22:02Z</time>
      </trkpt>
      <trkpt lat="45.97083" lon="6.55378">
        <ele>1947.5</ele>
        <time>2012-03-11T12:22:03Z</time>
      </trkpt>
      <trkpt lat="45.97085" lon="6.55368">
        <ele>1945.3</ele>
        <time>2012-03-11T12:22:04Z</time>
      </trkpt>
      <trkpt lat="45.97087" lon="6.55359">
        <ele>1943.1</ele>
        <time>2012-03-11T12:22:05Z</time>
      </trkpt>
      <trkpt lat="45.97089" lon="6.55351">
        <ele>1941.4</ele>
        <time>2012-03-11T12:22:06Z</time>
      </trkpt>
      <trkpt lat="45.97091" lon="6.55343">
        <ele>1939.8</ele>
        <time>2012-03-11T12:22:07Z</time>
      </trkpt>
      <trkpt lat="45.97093" lon="6.55334">
        <ele>1938.4</ele>
        <time>2012-03-11T12:22:08Z</time>
      </trkpt>
      <trkpt lat="45.97094" lon="6.55327">
        <ele>1937.6</ele>
        <time>2012-03-11T12:22:09Z</time>
      </trkpt>
      <trkpt lat="45.97097" lon="6.55315">
        <ele>1936.6</ele>
        <time>2012-03-11T12:22:14Z</time>
      </trkpt>
      <trkpt lat="45.97102" lon="6.55306">
        <ele>1939</ele>
        <time>2012-03-11T12:22:45Z</time>
      </trkpt>
      <trkpt lat="45.97108" lon="6.55303">
        <ele>1937.3</ele>
        <time>2012-03-11T12:22:47Z</time>
      </trkpt>
      <trkpt lat="45.97113" lon="6.55302">
        <ele>1936</ele>
        <time>2012-03-11T12:22:48Z</time>
      </trkpt>
      <trkpt lat="45.97117" lon="6.55299">
        <ele>1934.6</ele>
        <time>2012-03-11T12:22:49Z</time>
      </trkpt>
      <trkpt lat="45.97122" lon="6.55296">
        <ele>1933.4</ele>
        <time>2012-03-11T12:22:50Z</time>
      </trkpt>
      <trkpt lat="45.97128" lon="6.55294">
        <ele>1932.3</ele>
        <time>2012-03-11T12:22:51Z</time>
      </trkpt>
      <trkpt lat="45.97135" lon="6.55291">
        <ele>1930.8</ele>
        <time>2012-03-11T12:22:53Z</time>
      </trkpt>
      <trkpt lat="45.97142" lon="6.55283">
        <ele>1909.4</ele>
        <time>2012-03-11T12:23:50Z</time>
      </trkpt>
      <trkpt lat="45.97142" lon="6.55284">
        <ele>1909.1</ele>
        <time>2012-03-11T12:23:51Z</time>
      </trkpt>
      <trkpt lat="45.97148" lon="6.55304">
        <ele>1907.4</ele>
        <time>2012-03-11T12:23:56Z</time>
      </trkpt>
      <trkpt lat="45.97156" lon="6.55308">
        <ele>1908.6</ele>
        <time>2012-03-11T12:24:07Z</time>
      </trkpt>
      <trkpt lat="45.97165" lon="6.55309">
        <ele>1935.4</ele>
        <time>2012-03-11T12:31:41Z</time>
      </trkpt>
      <trkpt lat="45.97165" lon="6.55309">
        <ele>1935</ele>
        <time>2012-03-11T12:31:42Z</time>
      </trkpt>
      <trkpt lat="45.97163" lon="6.55321">
        <ele>1899.1</ele>
        <time>2012-03-11T12:36:00Z</time>
      </trkpt>
      <trkpt lat="45.97157" lon="6.55311">
        <ele>1933</ele>
        <time>2012-03-11T12:43:25Z</time>
      </trkpt>
      <trkpt lat="45.97149" lon="6.55289">
        <ele>1946.8</ele>
        <time>2012-03-11T12:44:20Z</time>
      </trkpt>
      <trkpt lat="45.97157" lon="6.55296">
        <ele>1944</ele>
        <time>2012-03-11T12:47:56Z</time>
      </trkpt>
      <trkpt lat="45.97157" lon="6.55296">
        <ele>1944</ele>
        <time>2012-03-11T12:47:57Z</time>
      </trkpt>
      <trkpt lat="45.97152" lon="6.55307">
        <ele>1932.9</ele>
        <time>2012-03-11T12:51:21Z</time>
      </trkpt>
      <trkpt lat="45.97155" lon="6.55295">
        <ele>1946</ele>
        <time>2012-03-11T12:56:15Z</time>
      </trkpt>
      <trkpt lat="45.97162" lon="6.55302">
        <ele>1935.5</ele>
        <time>2012-03-11T13:00:45Z</time>
      </trkpt>
      <trkpt lat="45.97155" lon="6.55295">
        <ele>1944.6</ele>
        <time>2012-03-11T13:07:53Z</time>
      </trkpt>
      <trkpt lat="45.97161" lon="6.55306">
        <ele>1912.9</ele>
        <time>2012-03-11T13:10:42Z</time>
      </trkpt>
      <trkpt lat="45.97152" lon="6.55309">
        <ele>1907.9</ele>
        <time>2012-03-11T13:14:13Z</time>
      </trkpt>
      <trkpt lat="45.97162" lon="6.55303">
        <ele>1907.5</ele>
        <time>2012-03-11T13:16:11Z</time>
      </trkpt>
      <trkpt lat="45.97165" lon="6.55296">
        <ele>1907.5</ele>
        <time>2012-03-11T13:16:12Z</time>
      </trkpt>
      <trkpt lat="45.97169" lon="6.55288">
        <ele>1907.4</ele>
        <time>2012-03-11T13:16:13Z</time>
      </trkpt>
      <trkpt lat="45.97172" lon="6.55281">
        <ele>1907.4</ele>
        <time>2012-03-11T13:16:14Z</time>
      </trkpt>
      <trkpt lat="45.97178" lon="6.55274">
        <ele>1907.9</ele>
        <time>2012-03-11T13:16:16Z</time>
      </trkpt>
      <trkpt lat="45.97184" lon="6.55272">
        <ele>1907.8</ele>
        <time>2012-03-11T13:16:18Z</time>
      </trkpt>
      <trkpt lat="45.97191" lon="6.55269">
        <ele>1908.3</ele>
        <time>2012-03-11T13:16:20Z</time>
      </trkpt>
      <trkpt lat="45.97198" lon="6.55262">
        <ele>1908.6</ele>
        <time>2012-03-11T13:16:22Z</time>
      </trkpt>
      <trkpt lat="45.97205" lon="6.55258">
        <ele>1908.8</ele>
        <time>2012-03-11T13:16:24Z</time>
      </trkpt>
      <trkpt lat="45.97212" lon="6.55256">
        <ele>1907.8</ele>
        <time>2012-03-11T13:16:26Z</time>
      </trkpt>
      <trkpt lat="45.9722" lon="6.55258">
        <ele>1904</ele>
        <time>2012-03-11T13:16:36Z</time>
      </trkpt>
      <trkpt lat="45.97222" lon="6.5527">
        <ele>1874</ele>
        <time>2012-03-11T13:17:04Z</time>
      </trkpt>
      <trkpt lat="45.97225" lon="6.55279">
        <ele>1873</ele>
        <time>2012-03-11T13:17:10Z</time>
      </trkpt>
      <trkpt lat="45.97233" lon="6.55281">
        <ele>1883.8</ele>
        <time>2012-03-11T13:17:28Z</time>
      </trkpt>
      <trkpt lat="45.97234" lon="6.55279">
        <ele>1884.4</ele>
        <time>2012-03-11T13:17:29Z</time>
      </trkpt>
      <trkpt lat="45.9725" lon="6.55283">
        <ele>1889.6</ele>
        <time>2012-03-11T13:17:37Z</time>
      </trkpt>
      <trkpt lat="45.97256" lon="6.55287">
        <ele>1890.5</ele>
        <time>2012-03-11T13:17:39Z</time>
      </trkpt>
      <trkpt lat="45.97262" lon="6.55292">
        <ele>1890.4</ele>
        <time>2012-03-11T13:17:41Z</time>
      </trkpt>
      <trkpt lat="45.97268" lon="6.55284">
        <ele>1884.5</ele>
        <time>2012-03-11T13:17:57Z</time>
      </trkpt>
      <trkpt lat="45.97275" lon="6.55277">
        <ele>1884.3</ele>
        <time>2012-03-11T13:18:01Z</time>
      </trkpt>
      <trkpt lat="45.97277" lon="6.55267">
        <ele>1880.9</ele>
        <time>2012-03-11T13:18:06Z</time>
      </trkpt>
      <trkpt lat="45.97285" lon="6.55264">
        <ele>1874.9</ele>
        <time>2012-03-11T13:18:12Z</time>
      </trkpt>
      <trkpt lat="45.97287" lon="6.55252">
        <ele>1871</ele>
        <time>2012-03-11T13:18:20Z</time>
      </trkpt>
      <trkpt lat="45.97284" lon="6.55245">
        <ele>1871.3</ele>
        <time>2012-03-11T13:18:23Z</time>
      </trkpt>
      <trkpt lat="45.97282" lon="6.55234">
        <ele>1870</ele>
        <time>2012-03-11T13:18:25Z</time>
      </trkpt>
      <trkpt lat="45.97281" lon="6.55223">
        <ele>1868.5</ele>
        <time>2012-03-11T13:18:27Z</time>
      </trkpt>
      <trkpt lat="45.9728" lon="6.55211">
        <ele>1868</ele>
        <time>2012-03-11T13:18:53Z</time>
      </trkpt>
      <trkpt lat="45.97279" lon="6.55209">
        <ele>1868</ele>
        <time>2012-03-11T13:18:54Z</time>
      </trkpt>
      <trkpt lat="45.97274" lon="6.55191">
        <ele>1866.5</ele>
        <time>2012-03-11T13:18:59Z</time>
      </trkpt>
      <trkpt lat="45.97272" lon="6.55184">
        <ele>1865.9</ele>
        <time>2012-03-11T13:19:00Z</time>
      </trkpt>
      <trkpt lat="45.97271" lon="6.55178">
        <ele>1865</ele>
        <time>2012-03-11T13:19:01Z</time>
      </trkpt>
      <trkpt lat="45.97269" lon="6.55171">
        <ele>1864.4</ele>
        <time>2012-03-11T13:19:02Z</time>
      </trkpt>
      <trkpt lat="45.97268" lon="6.55165">
        <ele>1863.5</ele>
        <time>2012-03-11T13:19:03Z</time>
      </trkpt>
      <trkpt lat="45.97265" lon="6.55153">
        <ele>1862</ele>
        <time>2012-03-11T13:19:05Z</time>
      </trkpt>
      <trkpt lat="45.97263" lon="6.55141">
        <ele>1859.8</ele>
        <time>2012-03-11T13:19:07Z</time>
      </trkpt>
      <trkpt lat="45.97261" lon="6.55134">
        <ele>1858.5</ele>
        <time>2012-03-11T13:19:08Z</time>
      </trkpt>
      <trkpt lat="45.9726" lon="6.55126">
        <ele>1857.5</ele>
        <time>2012-03-11T13:19:09Z</time>
      </trkpt>
      <trkpt lat="45.97259" lon="6.5512">
        <ele>1856.6</ele>
        <time>2012-03-11T13:19:10Z</time>
      </trkpt>
      <trkpt lat="45.97258" lon="6.55108">
        <ele>1855.3</ele>
        <time>2012-03-11T13:19:12Z</time>
      </trkpt>
      <trkpt lat="45.97256" lon="6.55095">
        <ele>1855</ele>
        <time>2012-03-11T13:19:18Z</time>
      </trkpt>
      <trkpt lat="45.97252" lon="6.55086">
        <ele>1861.9</ele>
        <time>2012-03-11T13:19:35Z</time>
      </trkpt>
      <trkpt lat="45.97249" lon="6.55079">
        <ele>1861</ele>
        <time>2012-03-11T13:19:36Z</time>
      </trkpt>
      <trkpt lat="45.97246" lon="6.55073">
        <ele>1860.4</ele>
        <time>2012-03-11T13:19:37Z</time>
      </trkpt>
      <trkpt lat="45.97245" lon="6.55066">
        <ele>1859.5</ele>
        <time>2012-03-11T13:19:38Z</time>
      </trkpt>
      <trkpt lat="45.97242" lon="6.55058">
        <ele>1858.6</ele>
        <time>2012-03-11T13:19:39Z</time>
      </trkpt>
      <trkpt lat="45.97241" lon="6.5505">
        <ele>1857.5</ele>
        <time>2012-03-11T13:19:40Z</time>
      </trkpt>
      <trkpt lat="45.9724" lon="6.55041">
        <ele>1856.4</ele>
        <time>2012-03-11T13:19:41Z</time>
      </trkpt>
      <trkpt lat="45.97239" lon="6.55032">
        <ele>1855.3</ele>
        <time>2012-03-11T13:19:42Z</time>
      </trkpt>
      <trkpt lat="45.97239" lon="6.55023">
        <ele>1854.1</ele>
        <time>2012-03-11T13:19:43Z</time>
      </trkpt>
      <trkpt lat="45.9724" lon="6.55015">
        <ele>1853.1</ele>
        <time>2012-03-11T13:19:44Z</time>
      </trkpt>
      <trkpt lat="45.9724" lon="6.55003">
        <ele>1851.8</ele>
        <time>2012-03-11T13:19:46Z</time>
      </trkpt>
      <trkpt lat="45.9724" lon="6.54994">
        <ele>1850.5</ele>
        <time>2012-03-11T13:19:48Z</time>
      </trkpt>
      <trkpt lat="45.97239" lon="6.54981">
        <ele>1848.9</ele>
        <time>2012-03-11T13:19:50Z</time>
      </trkpt>
      <trkpt lat="45.97237" lon="6.54971">
        <ele>1847.3</ele>
        <time>2012-03-11T13:19:52Z</time>
      </trkpt>
      <trkpt lat="45.97236" lon="6.54958">
        <ele>1838</ele>
        <time>2012-03-11T13:20:19Z</time>
      </trkpt>
      <trkpt lat="45.97236" lon="6.54958">
        <ele>1837.9</ele>
        <time>2012-03-11T13:20:20Z</time>
      </trkpt>
      <trkpt lat="45.97245" lon="6.54948">
        <ele>1835</ele>
        <time>2012-03-11T13:20:33Z</time>
      </trkpt>
      <trkpt lat="45.9725" lon="6.54944">
        <ele>1833</ele>
        <time>2012-03-11T13:20:35Z</time>
      </trkpt>
      <trkpt lat="45.97253" lon="6.54934">
        <ele>1829.3</ele>
        <time>2012-03-11T13:20:37Z</time>
      </trkpt>
      <trkpt lat="45.9725" lon="6.54924">
        <ele>1826.3</ele>
        <time>2012-03-11T13:20:40Z</time>
      </trkpt>
      <trkpt lat="45.97256" lon="6.54916">
        <ele>1822.5</ele>
        <time>2012-03-11T13:20:43Z</time>
      </trkpt>
      <trkpt lat="45.97256" lon="6.54906">
        <ele>1819.4</ele>
        <time>2012-03-11T13:20:45Z</time>
      </trkpt>
      <trkpt lat="45.97263" lon="6.54899">
        <ele>1815.4</ele>
        <time>2012-03-11T13:20:49Z</time>
      </trkpt>
      <trkpt lat="45.97271" lon="6.54895">
        <ele>1808.3</ele>
        <time>2012-03-11T13:20:53Z</time>
      </trkpt>
      <trkpt lat="45.97269" lon="6.54883">
        <ele>1806.3</ele>
        <time>2012-03-11T13:20:56Z</time>
      </trkpt>
      <trkpt lat="45.97271" lon="6.5487">
        <ele>1811.5</ele>
        <time>2012-03-11T13:21:51Z</time>
      </trkpt>
      <trkpt lat="45.97271" lon="6.54869">
        <ele>1811</ele>
        <time>2012-03-11T13:21:52Z</time>
      </trkpt>
      <trkpt lat="45.9728" lon="6.54857">
        <ele>1805.3</ele>
        <time>2012-03-11T13:21:58Z</time>
      </trkpt>
      <trkpt lat="45.97284" lon="6.54847">
        <ele>1800.6</ele>
        <time>2012-03-11T13:22:02Z</time>
      </trkpt>
      <trkpt lat="45.97287" lon="6.54836">
        <ele>1795.5</ele>
        <time>2012-03-11T13:22:05Z</time>
      </trkpt>
      <trkpt lat="45.97292" lon="6.5483">
        <ele>1790.4</ele>
        <time>2012-03-11T13:22:07Z</time>
      </trkpt>
      <trkpt lat="45.97298" lon="6.54826">
        <ele>1781.1</ele>
        <time>2012-03-11T13:22:10Z</time>
      </trkpt>
      <trkpt lat="45.97305" lon="6.54819">
        <ele>1774.4</ele>
        <time>2012-03-11T13:22:13Z</time>
      </trkpt>
      <trkpt lat="45.9731" lon="6.54809">
        <ele>1770.3</ele>
        <time>2012-03-11T13:22:40Z</time>
      </trkpt>
      <trkpt lat="45.97308" lon="6.548">
        <ele>1769</ele>
        <time>2012-03-11T13:22:43Z</time>
      </trkpt>
      <trkpt lat="45.9731" lon="6.54788">
        <ele>1766.8</ele>
        <time>2012-03-11T13:22:47Z</time>
      </trkpt>
      <trkpt lat="45.97315" lon="6.54778">
        <ele>1764</ele>
        <time>2012-03-11T13:22:50Z</time>
      </trkpt>
      <trkpt lat="45.97319" lon="6.54769">
        <ele>1759.6</ele>
        <time>2012-03-11T13:22:53Z</time>
      </trkpt>
      <trkpt lat="45.97318" lon="6.54764">
        <ele>1758.3</ele>
        <time>2012-03-11T13:22:54Z</time>
      </trkpt>
      <trkpt lat="45.97324" lon="6.54751">
        <ele>1753.3</ele>
        <time>2012-03-11T13:23:00Z</time>
      </trkpt>
      <trkpt lat="45.97331" lon="6.54747">
        <ele>1747.9</ele>
        <time>2012-03-11T13:23:05Z</time>
      </trkpt>
      <trkpt lat="45.9733" lon="6.54735">
        <ele>1745.6</ele>
        <time>2012-03-11T13:23:07Z</time>
      </trkpt>
      <trkpt lat="45.9733" lon="6.54722">
        <ele>1741.3</ele>
        <time>2012-03-11T13:23:23Z</time>
      </trkpt>
      <trkpt lat="45.97336" lon="6.54712">
        <ele>1731.8</ele>
        <time>2012-03-11T13:24:20Z</time>
      </trkpt>
      <trkpt lat="45.97337" lon="6.54714">
        <ele>1731.5</ele>
        <time>2012-03-11T13:24:21Z</time>
      </trkpt>
      <trkpt lat="45.97343" lon="6.5471">
        <ele>1727.4</ele>
        <time>2012-03-11T13:24:27Z</time>
      </trkpt>
      <trkpt lat="45.9735" lon="6.54703">
        <ele>1723.5</ele>
        <time>2012-03-11T13:24:32Z</time>
      </trkpt>
      <trkpt lat="45.97356" lon="6.54695">
        <ele>1717</ele>
        <time>2012-03-11T13:24:35Z</time>
      </trkpt>
      <trkpt lat="45.97356" lon="6.54684">
        <ele>1712.5</ele>
        <time>2012-03-11T13:24:38Z</time>
      </trkpt>
      <trkpt lat="45.97361" lon="6.54679">
        <ele>1710.1</ele>
        <time>2012-03-11T13:24:40Z</time>
      </trkpt>
      <trkpt lat="45.97368" lon="6.54673">
        <ele>1707.5</ele>
        <time>2012-03-11T13:24:42Z</time>
      </trkpt>
      <trkpt lat="45.97368" lon="6.54667">
        <ele>1705.9</ele>
        <time>2012-03-11T13:24:43Z</time>
      </trkpt>
      <trkpt lat="45.97369" lon="6.5466">
        <ele>1704.1</ele>
        <time>2012-03-11T13:24:44Z</time>
      </trkpt>
      <trkpt lat="45.97372" lon="6.54655">
        <ele>1703</ele>
        <time>2012-03-11T13:24:45Z</time>
      </trkpt>
      <trkpt lat="45.97375" lon="6.5465">
        <ele>1701.3</ele>
        <time>2012-03-11T13:24:46Z</time>
      </trkpt>
      <trkpt lat="45.97381" lon="6.54642">
        <ele>1698.5</ele>
        <time>2012-03-11T13:24:48Z</time>
      </trkpt>
      <trkpt lat="45.97387" lon="6.54635">
        <ele>1695.6</ele>
        <time>2012-03-11T13:24:50Z</time>
      </trkpt>
      <trkpt lat="45.97388" lon="6.54626">
        <ele>1693</ele>
        <time>2012-03-11T13:24:52Z</time>
      </trkpt>
      <trkpt lat="45.97392" lon="6.54615">
        <ele>1686.8</ele>
        <time>2012-03-11T13:25:02Z</time>
      </trkpt>
      <trkpt lat="45.9739" lon="6.54603">
        <ele>1689.6</ele>
        <time>2012-03-11T13:25:24Z</time>
      </trkpt>
      <trkpt lat="45.97389" lon="6.54601">
        <ele>1689.5</ele>
        <time>2012-03-11T13:25:25Z</time>
      </trkpt>
      <trkpt lat="45.97384" lon="6.54588">
        <ele>1687.5</ele>
        <time>2012-03-11T13:25:28Z</time>
      </trkpt>
      <trkpt lat="45.97381" lon="6.54581">
        <ele>1686.5</ele>
        <time>2012-03-11T13:25:29Z</time>
      </trkpt>
      <trkpt lat="45.97378" lon="6.54574">
        <ele>1685.6</ele>
        <time>2012-03-11T13:25:30Z</time>
      </trkpt>
      <trkpt lat="45.97375" lon="6.54568">
        <ele>1684.9</ele>
        <time>2012-03-11T13:25:31Z</time>
      </trkpt>
      <trkpt lat="45.97372" lon="6.54563">
        <ele>1684.1</ele>
        <time>2012-03-11T13:25:32Z</time>
      </trkpt>
      <trkpt lat="45.9737" lon="6.54557">
        <ele>1683.5</ele>
        <time>2012-03-11T13:25:33Z</time>
      </trkpt>
      <trkpt lat="45.97369" lon="6.54551">
        <ele>1682.5</ele>
        <time>2012-03-11T13:25:34Z</time>
      </trkpt>
      <trkpt lat="45.9737" lon="6.54538">
        <ele>1680.3</ele>
        <time>2012-03-11T13:25:37Z</time>
      </trkpt>
      <trkpt lat="45.97376" lon="6.54533">
        <ele>1679</ele>
        <time>2012-03-11T13:25:39Z</time>
      </trkpt>
      <trkpt lat="45.97375" lon="6.54525">
        <ele>1677.5</ele>
        <time>2012-03-11T13:25:40Z</time>
      </trkpt>
      <trkpt lat="45.97374" lon="6.54517">
        <ele>1676.1</ele>
        <time>2012-03-11T13:25:41Z</time>
      </trkpt>
      <trkpt lat="45.97374" lon="6.54508">
        <ele>1674</ele>
        <time>2012-03-11T13:25:42Z</time>
      </trkpt>
      <trkpt lat="45.97375" lon="6.54497">
        <ele>1670.6</ele>
        <time>2012-03-11T13:25:43Z</time>
      </trkpt>
      <trkpt lat="45.97374" lon="6.54487">
        <ele>1668.3</ele>
        <time>2012-03-11T13:25:44Z</time>
      </trkpt>
      <trkpt lat="45.97372" lon="6.54479">
        <ele>1666.6</ele>
        <time>2012-03-11T13:25:45Z</time>
      </trkpt>
      <trkpt lat="45.97369" lon="6.54472">
        <ele>1665.5</ele>
        <time>2012-03-11T13:25:46Z</time>
      </trkpt>
      <trkpt lat="45.97365" lon="6.54466">
        <ele>1664.4</ele>
        <time>2012-03-11T13:25:47Z</time>
      </trkpt>
      <trkpt lat="45.97362" lon="6.5446">
        <ele>1663</ele>
        <time>2012-03-11T13:25:48Z</time>
      </trkpt>
      <trkpt lat="45.97363" lon="6.54453">
        <ele>1661.9</ele>
        <time>2012-03-11T13:25:49Z</time>
      </trkpt>
      <trkpt lat="45.97364" lon="6.5444">
        <ele>1660.5</ele>
        <time>2012-03-11T13:25:51Z</time>
      </trkpt>
      <trkpt lat="45.97369" lon="6.54431">
        <ele>1658.3</ele>
        <time>2012-03-11T13:25:53Z</time>
      </trkpt>
      <trkpt lat="45.97374" lon="6.54428">
        <ele>1655</ele>
        <time>2012-03-11T13:25:55Z</time>
      </trkpt>
      <trkpt lat="45.97383" lon="6.54428">
        <ele>1652.5</ele>
        <time>2012-03-11T13:25:57Z</time>
      </trkpt>
      <trkpt lat="45.97391" lon="6.54421">
        <ele>1650.1</ele>
        <time>2012-03-11T13:25:59Z</time>
      </trkpt>
      <trkpt lat="45.9739" lon="6.54411">
        <ele>1647.6</ele>
        <time>2012-03-11T13:26:01Z</time>
      </trkpt>
      <trkpt lat="45.97384" lon="6.54402">
        <ele>1631</ele>
        <time>2012-03-11T13:28:02Z</time>
      </trkpt>
      <trkpt lat="45.97384" lon="6.54401">
        <ele>1631.5</ele>
        <time>2012-03-11T13:28:03Z</time>
      </trkpt>
      <trkpt lat="45.97386" lon="6.54382">
        <ele>1630.4</ele>
        <time>2012-03-11T13:28:11Z</time>
      </trkpt>
      <trkpt lat="45.9739" lon="6.54371">
        <ele>1628.5</ele>
        <time>2012-03-11T13:28:14Z</time>
      </trkpt>
      <trkpt lat="45.97384" lon="6.54369">
        <ele>1626.8</ele>
        <time>2012-03-11T13:28:16Z</time>
      </trkpt>
      <trkpt lat="45.97386" lon="6.54357">
        <ele>1620.5</ele>
        <time>2012-03-11T13:28:21Z</time>
      </trkpt>
      <trkpt lat="45.97384" lon="6.54347">
        <ele>1616</ele>
        <time>2012-03-11T13:28:25Z</time>
      </trkpt>
      <trkpt lat="45.97383" lon="6.54336">
        <ele>1611.1</ele>
        <time>2012-03-11T13:28:29Z</time>
      </trkpt>
      <trkpt lat="45.97378" lon="6.54325">
        <ele>1607.8</ele>
        <time>2012-03-11T13:28:32Z</time>
      </trkpt>
      <trkpt lat="45.97382" lon="6.54316">
        <ele>1605.5</ele>
        <time>2012-03-11T13:28:34Z</time>
      </trkpt>
      <trkpt lat="45.97377" lon="6.54305">
        <ele>1603.4</ele>
        <time>2012-03-11T13:28:36Z</time>
      </trkpt>
      <trkpt lat="45.97375" lon="6.54295">
        <ele>1601.3</ele>
        <time>2012-03-11T13:28:38Z</time>
      </trkpt>
      <trkpt lat="45.9738" lon="6.54285">
        <ele>1597.9</ele>
        <time>2012-03-11T13:28:40Z</time>
      </trkpt>
      <trkpt lat="45.97381" lon="6.54275">
        <ele>1595.5</ele>
        <time>2012-03-11T13:28:42Z</time>
      </trkpt>
      <trkpt lat="45.9738" lon="6.54265">
        <ele>1593.3</ele>
        <time>2012-03-11T13:28:44Z</time>
      </trkpt>
      <trkpt lat="45.97382" lon="6.54257">
        <ele>1592</ele>
        <time>2012-03-11T13:28:46Z</time>
      </trkpt>
      <trkpt lat="45.97383" lon="6.54244">
        <ele>1589.6</ele>
        <time>2012-03-11T13:28:49Z</time>
      </trkpt>
      <trkpt lat="45.97388" lon="6.54239">
        <ele>1591.3</ele>
        <time>2012-03-11T13:28:58Z</time>
      </trkpt>
      <trkpt lat="45.97392" lon="6.54227">
        <ele>1589.4</ele>
        <time>2012-03-11T13:29:01Z</time>
      </trkpt>
      <trkpt lat="45.97388" lon="6.5422">
        <ele>1587.5</ele>
        <time>2012-03-11T13:29:04Z</time>
      </trkpt>
      <trkpt lat="45.97387" lon="6.54215">
        <ele>1586.9</ele>
        <time>2012-03-11T13:29:05Z</time>
      </trkpt>
      <trkpt lat="45.97401" lon="6.54207">
        <ele>1584.1</ele>
        <time>2012-03-11T13:29:10Z</time>
      </trkpt>
      <trkpt lat="45.97405" lon="6.54196">
        <ele>1582</ele>
        <time>2012-03-11T13:29:12Z</time>
      </trkpt>
      <trkpt lat="45.97399" lon="6.54187">
        <ele>1580.1</ele>
        <time>2012-03-11T13:29:14Z</time>
      </trkpt>
      <trkpt lat="45.97397" lon="6.54179">
        <ele>1578.4</ele>
        <time>2012-03-11T13:29:16Z</time>
      </trkpt>
      <trkpt lat="45.9739" lon="6.5417">
        <ele>1575.6</ele>
        <time>2012-03-11T13:29:19Z</time>
      </trkpt>
      <trkpt lat="45.97382" lon="6.5417">
        <ele>1566.6</ele>
        <time>2012-03-11T13:29:49Z</time>
      </trkpt>
      <trkpt lat="45.97373" lon="6.54167">
        <ele>1558.5</ele>
        <time>2012-03-11T13:30:16Z</time>
      </trkpt>
      <trkpt lat="45.9737" lon="6.54165">
        <ele>1557.9</ele>
        <time>2012-03-11T13:30:17Z</time>
      </trkpt>
      <trkpt lat="45.97362" lon="6.54163">
        <ele>1554.9</ele>
        <time>2012-03-11T13:30:19Z</time>
      </trkpt>
      <trkpt lat="45.97357" lon="6.54159">
        <ele>1553.5</ele>
        <time>2012-03-11T13:30:20Z</time>
      </trkpt>
      <trkpt lat="45.97351" lon="6.54154">
        <ele>1552.5</ele>
        <time>2012-03-11T13:30:21Z</time>
      </trkpt>
      <trkpt lat="45.97346" lon="6.54149">
        <ele>1552</ele>
        <time>2012-03-11T13:30:22Z</time>
      </trkpt>
      <trkpt lat="45.97341" lon="6.54144">
        <ele>1551.5</ele>
        <time>2012-03-11T13:30:23Z</time>
      </trkpt>
      <trkpt lat="45.97337" lon="6.54138">
        <ele>1550.9</ele>
        <time>2012-03-11T13:30:24Z</time>
      </trkpt>
      <trkpt lat="45.97333" lon="6.54132">
        <ele>1550.4</ele>
        <time>2012-03-11T13:30:25Z</time>
      </trkpt>
      <trkpt lat="45.97329" lon="6.54126">
        <ele>1549.5</ele>
        <time>2012-03-11T13:30:26Z</time>
      </trkpt>
      <trkpt lat="45.97325" lon="6.5412">
        <ele>1549</ele>
        <time>2012-03-11T13:30:27Z</time>
      </trkpt>
      <trkpt lat="45.9732" lon="6.54113">
        <ele>1548.5</ele>
        <time>2012-03-11T13:30:28Z</time>
      </trkpt>
      <trkpt lat="45.97316" lon="6.54107">
        <ele>1548.3</ele>
        <time>2012-03-11T13:30:29Z</time>
      </trkpt>
      <trkpt lat="45.97312" lon="6.54101">
        <ele>1548.1</ele>
        <time>2012-03-11T13:30:30Z</time>
      </trkpt>
      <trkpt lat="45.97308" lon="6.54095">
        <ele>1548</ele>
        <time>2012-03-11T13:30:31Z</time>
      </trkpt>
      <trkpt lat="45.97304" lon="6.5409">
        <ele>1548</ele>
        <time>2012-03-11T13:30:32Z</time>
      </trkpt>
      <trkpt lat="45.97298" lon="6.54082">
        <ele>1548.3</ele>
        <time>2012-03-11T13:30:34Z</time>
      </trkpt>
      <trkpt lat="45.97293" lon="6.54076">
        <ele>1548</ele>
        <time>2012-03-11T13:30:36Z</time>
      </trkpt>
      <trkpt lat="45.97287" lon="6.54068">
        <ele>1547.6</ele>
        <time>2012-03-11T13:30:39Z</time>
      </trkpt>
      <trkpt lat="45.97283" lon="6.54063">
        <ele>1547.1</ele>
        <time>2012-03-11T13:30:41Z</time>
      </trkpt>
      <trkpt lat="45.97279" lon="6.54055">
        <ele>1546.8</ele>
        <time>2012-03-11T13:30:43Z</time>
      </trkpt>
      <trkpt lat="45.97275" lon="6.54047">
        <ele>1546</ele>
        <time>2012-03-11T13:30:45Z</time>
      </trkpt>
      <trkpt lat="45.9727" lon="6.5404">
        <ele>1544.6</ele>
        <time>2012-03-11T13:30:47Z</time>
      </trkpt>
      <trkpt lat="45.97263" lon="6.54034">
        <ele>1544.9</ele>
        <time>2012-03-11T13:30:50Z</time>
      </trkpt>
      <trkpt lat="45.97256" lon="6.54025">
        <ele>1542</ele>
        <time>2012-03-11T13:30:54Z</time>
      </trkpt>
      <trkpt lat="45.97253" lon="6.54016">
        <ele>1537</ele>
        <time>2012-03-11T13:30:57Z</time>
      </trkpt>
      <trkpt lat="45.97249" lon="6.54008">
        <ele>1532.8</ele>
        <time>2012-03-11T13:30:59Z</time>
      </trkpt>
      <trkpt lat="45.97248" lon="6.53998">
        <ele>1529.9</ele>
        <time>2012-03-11T13:31:01Z</time>
      </trkpt>
      <trkpt lat="45.97243" lon="6.5399">
        <ele>1527.3</ele>
        <time>2012-03-11T13:31:03Z</time>
      </trkpt>
      <trkpt lat="45.97239" lon="6.5398">
        <ele>1525.9</ele>
        <time>2012-03-11T13:31:05Z</time>
      </trkpt>
      <trkpt lat="45.97235" lon="6.53972">
        <ele>1526</ele>
        <time>2012-03-11T13:31:07Z</time>
      </trkpt>
      <trkpt lat="45.9723" lon="6.53966">
        <ele>1524.6</ele>
        <time>2012-03-11T13:31:09Z</time>
      </trkpt>
      <trkpt lat="45.97226" lon="6.53956">
        <ele>1523.3</ele>
        <time>2012-03-11T13:31:11Z</time>
      </trkpt>
      <trkpt lat="45.97225" lon="6.53949">
        <ele>1523</ele>
        <time>2012-03-11T13:31:12Z</time>
      </trkpt>
      <trkpt lat="45.97224" lon="6.53941">
        <ele>1523.1</ele>
        <time>2012-03-11T13:31:13Z</time>
      </trkpt>
      <trkpt lat="45.97221" lon="6.53934">
        <ele>1523.5</ele>
        <time>2012-03-11T13:31:14Z</time>
      </trkpt>
      <trkpt lat="45.97218" lon="6.53927">
        <ele>1523.8</ele>
        <time>2012-03-11T13:31:15Z</time>
      </trkpt>
      <trkpt lat="45.97214" lon="6.53922">
        <ele>1523.6</ele>
        <time>2012-03-11T13:31:16Z</time>
      </trkpt>
      <trkpt lat="45.97209" lon="6.53911">
        <ele>1522.9</ele>
        <time>2012-03-11T13:31:18Z</time>
      </trkpt>
      <trkpt lat="45.97209" lon="6.53904">
        <ele>1522.5</ele>
        <time>2012-03-11T13:31:19Z</time>
      </trkpt>
      <trkpt lat="45.97216" lon="6.53889">
        <ele>1522.6</ele>
        <time>2012-03-11T13:31:22Z</time>
      </trkpt>
      <trkpt lat="45.97214" lon="6.53878">
        <ele>1523</ele>
        <time>2012-03-11T13:31:24Z</time>
      </trkpt>
      <trkpt lat="45.97213" lon="6.53868">
        <ele>1523.3</ele>
        <time>2012-03-11T13:31:26Z</time>
      </trkpt>
      <trkpt lat="45.97216" lon="6.5386">
        <ele>1525.1</ele>
        <time>2012-03-11T13:31:28Z</time>
      </trkpt>
      <trkpt lat="45.97218" lon="6.5385">
        <ele>1526</ele>
        <time>2012-03-11T13:31:30Z</time>
      </trkpt>
      <trkpt lat="45.97216" lon="6.5384">
        <ele>1525.9</ele>
        <time>2012-03-11T13:31:32Z</time>
      </trkpt>
      <trkpt lat="45.97209" lon="6.53832">
        <ele>1524.1</ele>
        <time>2012-03-11T13:31:37Z</time>
      </trkpt>
      <trkpt lat="45.97202" lon="6.53828">
        <ele>1521.5</ele>
        <time>2012-03-11T13:31:40Z</time>
      </trkpt>
      <trkpt lat="45.972" lon="6.53818">
        <ele>1518</ele>
        <time>2012-03-11T13:31:43Z</time>
      </trkpt>
      <trkpt lat="45.97197" lon="6.53806">
        <ele>1514.5</ele>
        <time>2012-03-11T13:31:50Z</time>
      </trkpt>
      <trkpt lat="45.9719" lon="6.53799">
        <ele>1520.5</ele>
        <time>2012-03-11T13:32:02Z</time>
      </trkpt>
      <trkpt lat="45.97191" lon="6.53786">
        <ele>1521.3</ele>
        <time>2012-03-11T13:32:06Z</time>
      </trkpt>
      <trkpt lat="45.97191" lon="6.53774">
        <ele>1520.3</ele>
        <time>2012-03-11T13:32:09Z</time>
      </trkpt>
      <trkpt lat="45.97188" lon="6.53766">
        <ele>1517.1</ele>
        <time>2012-03-11T13:32:14Z</time>
      </trkpt>
      <trkpt lat="45.97187" lon="6.53756">
        <ele>1515.6</ele>
        <time>2012-03-11T13:32:16Z</time>
      </trkpt>
      <trkpt lat="45.97191" lon="6.53749">
        <ele>1512.9</ele>
        <time>2012-03-11T13:32:20Z</time>
      </trkpt>
      <trkpt lat="45.97194" lon="6.53746">
        <ele>1512.8</ele>
        <time>2012-03-11T13:32:21Z</time>
      </trkpt>
      <trkpt lat="45.97204" lon="6.53738">
        <ele>1509.4</ele>
        <time>2012-03-11T13:32:25Z</time>
      </trkpt>
      <trkpt lat="45.97211" lon="6.53734">
        <ele>1507.8</ele>
        <time>2012-03-11T13:32:27Z</time>
      </trkpt>
      <trkpt lat="45.97216" lon="6.53725">
        <ele>1505.9</ele>
        <time>2012-03-11T13:32:30Z</time>
      </trkpt>
      <trkpt lat="45.97223" lon="6.5372">
        <ele>1502.5</ele>
        <time>2012-03-11T13:32:33Z</time>
      </trkpt>
      <trkpt lat="45.97229" lon="6.53721">
        <ele>1499.4</ele>
        <time>2012-03-11T13:32:35Z</time>
      </trkpt>
      <trkpt lat="45.97233" lon="6.5372">
        <ele>1498</ele>
        <time>2012-03-11T13:32:36Z</time>
      </trkpt>
      <trkpt lat="45.97237" lon="6.53715">
        <ele>1496.5</ele>
        <time>2012-03-11T13:32:37Z</time>
      </trkpt>
      <trkpt lat="45.97244" lon="6.5371">
        <ele>1494.3</ele>
        <time>2012-03-11T13:32:39Z</time>
      </trkpt>
      <trkpt lat="45.97248" lon="6.53711">
        <ele>1492.6</ele>
        <time>2012-03-11T13:32:40Z</time>
      </trkpt>
      <trkpt lat="45.97254" lon="6.5371">
        <ele>1491.1</ele>
        <time>2012-03-11T13:32:41Z</time>
      </trkpt>
      <trkpt lat="45.97262" lon="6.5371">
        <ele>1485.6</ele>
        <time>2012-03-11T13:32:44Z</time>
      </trkpt>
      <trkpt lat="45.97268" lon="6.5371">
        <ele>1482.4</ele>
        <time>2012-03-11T13:32:46Z</time>
      </trkpt>
      <trkpt lat="45.97275" lon="6.53711">
        <ele>1478.6</ele>
        <time>2012-03-11T13:32:48Z</time>
      </trkpt>
      <trkpt lat="45.9728" lon="6.53711">
        <ele>1474.4</ele>
        <time>2012-03-11T13:32:50Z</time>
      </trkpt>
      <trkpt lat="45.97287" lon="6.53716">
        <ele>1471.3</ele>
        <time>2012-03-11T13:32:52Z</time>
      </trkpt>
      <trkpt lat="45.9729" lon="6.53713">
        <ele>1470.1</ele>
        <time>2012-03-11T13:32:53Z</time>
      </trkpt>
      <trkpt lat="45.97298" lon="6.53711">
        <ele>1468</ele>
        <time>2012-03-11T13:32:55Z</time>
      </trkpt>
      <trkpt lat="45.97306" lon="6.5371">
        <ele>1465</ele>
        <time>2012-03-11T13:32:57Z</time>
      </trkpt>
      <trkpt lat="45.9731" lon="6.53709">
        <ele>1463</ele>
        <time>2012-03-11T13:32:58Z</time>
      </trkpt>
      <trkpt lat="45.97315" lon="6.5371">
        <ele>1461.5</ele>
        <time>2012-03-11T13:32:59Z</time>
      </trkpt>
      <trkpt lat="45.97321" lon="6.53709">
        <ele>1460.3</ele>
        <time>2012-03-11T13:33:00Z</time>
      </trkpt>
      <trkpt lat="45.97329" lon="6.53708">
        <ele>1457.8</ele>
        <time>2012-03-11T13:33:02Z</time>
      </trkpt>
      <trkpt lat="45.97337" lon="6.53704">
        <ele>1455.1</ele>
        <time>2012-03-11T13:33:04Z</time>
      </trkpt>
      <trkpt lat="45.97345" lon="6.537">
        <ele>1452.4</ele>
        <time>2012-03-11T13:33:06Z</time>
      </trkpt>
      <trkpt lat="45.97353" lon="6.53696">
        <ele>1448.5</ele>
        <time>2012-03-11T13:33:08Z</time>
      </trkpt>
      <trkpt lat="45.97361" lon="6.53692">
        <ele>1443.3</ele>
        <time>2012-03-11T13:33:10Z</time>
      </trkpt>
      <trkpt lat="45.97366" lon="6.53687">
        <ele>1441.1</ele>
        <time>2012-03-11T13:33:11Z</time>
      </trkpt>
      <trkpt lat="45.97371" lon="6.53683">
        <ele>1438.5</ele>
        <time>2012-03-11T13:33:12Z</time>
      </trkpt>
      <trkpt lat="45.97377" lon="6.53681">
        <ele>1437</ele>
        <time>2012-03-11T13:33:13Z</time>
      </trkpt>
      <trkpt lat="45.97384" lon="6.53677">
        <ele>1436</ele>
        <time>2012-03-11T13:33:14Z</time>
      </trkpt>
      <trkpt lat="45.97391" lon="6.53672">
        <ele>1435.5</ele>
        <time>2012-03-11T13:33:15Z</time>
      </trkpt>
      <trkpt lat="45.97398" lon="6.53668">
        <ele>1434.8</ele>
        <time>2012-03-11T13:33:16Z</time>
      </trkpt>
      <trkpt lat="45.97403" lon="6.53665">
        <ele>1434.1</ele>
        <time>2012-03-11T13:33:17Z</time>
      </trkpt>
      <trkpt lat="45.97411" lon="6.53662">
        <ele>1434.1</ele>
        <time>2012-03-11T13:33:19Z</time>
      </trkpt>
      <trkpt lat="45.97419" lon="6.53662">
        <ele>1434.6</ele>
        <time>2012-03-11T13:33:24Z</time>
      </trkpt>
      <trkpt lat="45.9742" lon="6.53663">
        <ele>1435</ele>
        <time>2012-03-11T13:33:25Z</time>
      </trkpt>
      <trkpt lat="45.97436" lon="6.53661">
        <ele>1439</ele>
        <time>2012-03-11T13:33:35Z</time>
      </trkpt>
      <trkpt lat="45.97444" lon="6.53661">
        <ele>1440.6</ele>
        <time>2012-03-11T13:33:42Z</time>
      </trkpt>
      <trkpt lat="45.97453" lon="6.53659">
        <ele>1442.9</ele>
        <time>2012-03-11T13:33:51Z</time>
      </trkpt>
      <trkpt lat="45.97462" lon="6.53658">
        <ele>1442.9</ele>
        <time>2012-03-11T13:34:13Z</time>
      </trkpt>
      <trkpt lat="45.9747" lon="6.53655">
        <ele>1449.1</ele>
        <time>2012-03-11T13:35:17Z</time>
      </trkpt>
      <trkpt lat="45.97471" lon="6.53655">
        <ele>1449.6</ele>
        <time>2012-03-11T13:35:18Z</time>
      </trkpt>
      <trkpt lat="45.97472" lon="6.53632">
        <ele>1451.4</ele>
        <time>2012-03-11T13:36:14Z</time>
      </trkpt>
      <trkpt lat="45.97478" lon="6.53639">
        <ele>1449.1</ele>
        <time>2012-03-11T13:36:34Z</time>
      </trkpt>
      <trkpt lat="45.97479" lon="6.53643">
        <ele>1448.8</ele>
        <time>2012-03-11T13:36:35Z</time>
      </trkpt>
      <trkpt lat="45.97485" lon="6.53659">
        <ele>1439.6</ele>
        <time>2012-03-11T13:36:48Z</time>
      </trkpt>
      <trkpt lat="45.9749" lon="6.53668">
        <ele>1429.8</ele>
        <time>2012-03-11T13:36:59Z</time>
      </trkpt>
      <trkpt lat="45.97495" lon="6.53677">
        <ele>1427.3</ele>
        <time>2012-03-11T13:37:04Z</time>
      </trkpt>
      <trkpt lat="45.97499" lon="6.53687">
        <ele>1425.4</ele>
        <time>2012-03-11T13:37:07Z</time>
      </trkpt>
      <trkpt lat="45.97504" lon="6.53695">
        <ele>1423.8</ele>
        <time>2012-03-11T13:37:10Z</time>
      </trkpt>
      <trkpt lat="45.97507" lon="6.53703">
        <ele>1420.1</ele>
        <time>2012-03-11T13:37:14Z</time>
      </trkpt>
      <trkpt lat="45.97514" lon="6.5371">
        <ele>1418.5</ele>
        <time>2012-03-11T13:37:19Z</time>
      </trkpt>
      <trkpt lat="45.97521" lon="6.53716">
        <ele>1422.8</ele>
        <time>2012-03-11T13:37:27Z</time>
      </trkpt>
      <trkpt lat="45.97529" lon="6.53722">
        <ele>1427.9</ele>
        <time>2012-03-11T13:37:34Z</time>
      </trkpt>
      <trkpt lat="45.97537" lon="6.53726">
        <ele>1429.1</ele>
        <time>2012-03-11T13:37:37Z</time>
      </trkpt>
      <trkpt lat="45.97539" lon="6.53728">
        <ele>1429.5</ele>
        <time>2012-03-11T13:37:38Z</time>
      </trkpt>
      <trkpt lat="45.97553" lon="6.53735">
        <ele>1430.5</ele>
        <time>2012-03-11T13:37:44Z</time>
      </trkpt>
      <trkpt lat="45.9756" lon="6.53739">
        <ele>1429.3</ele>
        <time>2012-03-11T13:37:48Z</time>
      </trkpt>
      <trkpt lat="45.97566" lon="6.53743">
        <ele>1428.5</ele>
        <time>2012-03-11T13:37:50Z</time>
      </trkpt>
      <trkpt lat="45.97571" lon="6.53746">
        <ele>1427.8</ele>
        <time>2012-03-11T13:37:51Z</time>
      </trkpt>
      <trkpt lat="45.97576" lon="6.53748">
        <ele>1426.8</ele>
        <time>2012-03-11T13:37:52Z</time>
      </trkpt>
      <trkpt lat="45.97581" lon="6.53753">
        <ele>1426</ele>
        <time>2012-03-11T13:37:53Z</time>
      </trkpt>
      <trkpt lat="45.97586" lon="6.53756">
        <ele>1425</ele>
        <time>2012-03-11T13:37:54Z</time>
      </trkpt>
      <trkpt lat="45.97591" lon="6.5376">
        <ele>1424.3</ele>
        <time>2012-03-11T13:37:55Z</time>
      </trkpt>
      <trkpt lat="45.97596" lon="6.53763">
        <ele>1423.5</ele>
        <time>2012-03-11T13:37:56Z</time>
      </trkpt>
      <trkpt lat="45.97603" lon="6.53767">
        <ele>1422.4</ele>
        <time>2012-03-11T13:37:57Z</time>
      </trkpt>
      <trkpt lat="45.97609" lon="6.53772">
        <ele>1421.4</ele>
        <time>2012-03-11T13:37:58Z</time>
      </trkpt>
      <trkpt lat="45.97616" lon="6.53777">
        <ele>1420</ele>
        <time>2012-03-11T13:37:59Z</time>
      </trkpt>
      <trkpt lat="45.97624" lon="6.53781">
        <ele>1418.8</ele>
        <time>2012-03-11T13:38:00Z</time>
      </trkpt>
      <trkpt lat="45.97632" lon="6.53787">
        <ele>1417.5</ele>
        <time>2012-03-11T13:38:01Z</time>
      </trkpt>
      <trkpt lat="45.97639" lon="6.53793">
        <ele>1416.1</ele>
        <time>2012-03-11T13:38:02Z</time>
      </trkpt>
      <trkpt lat="45.97646" lon="6.53798">
        <ele>1414.6</ele>
        <time>2012-03-11T13:38:03Z</time>
      </trkpt>
      <trkpt lat="45.97653" lon="6.53806">
        <ele>1413.3</ele>
        <time>2012-03-11T13:38:04Z</time>
      </trkpt>
      <trkpt lat="45.9766" lon="6.53811">
        <ele>1412.3</ele>
        <time>2012-03-11T13:38:05Z</time>
      </trkpt>
      <trkpt lat="45.97666" lon="6.53815">
        <ele>1411.3</ele>
        <time>2012-03-11T13:38:06Z</time>
      </trkpt>
      <trkpt lat="45.97673" lon="6.53818">
        <ele>1410.3</ele>
        <time>2012-03-11T13:38:07Z</time>
      </trkpt>
      <trkpt lat="45.97678" lon="6.53821">
        <ele>1409.3</ele>
        <time>2012-03-11T13:38:08Z</time>
      </trkpt>
      <trkpt lat="45.97684" lon="6.53823">
        <ele>1408.4</ele>
        <time>2012-03-11T13:38:09Z</time>
      </trkpt>
      <trkpt lat="45.97689" lon="6.53826">
        <ele>1407.6</ele>
        <time>2012-03-11T13:38:10Z</time>
      </trkpt>
      <trkpt lat="45.97693" lon="6.53829">
        <ele>1407</ele>
        <time>2012-03-11T13:38:11Z</time>
      </trkpt>
      <trkpt lat="45.97697" lon="6.53833">
        <ele>1406.4</ele>
        <time>2012-03-11T13:38:12Z</time>
      </trkpt>
      <trkpt lat="45.97704" lon="6.53839">
        <ele>1404.4</ele>
        <time>2012-03-11T13:38:14Z</time>
      </trkpt>
      <trkpt lat="45.9771" lon="6.53846">
        <ele>1402.8</ele>
        <time>2012-03-11T13:38:16Z</time>
      </trkpt>
      <trkpt lat="45.97716" lon="6.53851">
        <ele>1401.5</ele>
        <time>2012-03-11T13:38:18Z</time>
      </trkpt>
      <trkpt lat="45.97722" lon="6.53857">
        <ele>1400</ele>
        <time>2012-03-11T13:38:21Z</time>
      </trkpt>
      <trkpt lat="45.97729" lon="6.53866">
        <ele>1398</ele>
        <time>2012-03-11T13:38:25Z</time>
      </trkpt>
      <trkpt lat="45.97735" lon="6.53872">
        <ele>1396.8</ele>
        <time>2012-03-11T13:38:28Z</time>
      </trkpt>
      <trkpt lat="45.9774" lon="6.53879">
        <ele>1395.8</ele>
        <time>2012-03-11T13:38:31Z</time>
      </trkpt>
      <trkpt lat="45.97747" lon="6.53888">
        <ele>1393.4</ele>
        <time>2012-03-11T13:38:35Z</time>
      </trkpt>
      <trkpt lat="45.97752" lon="6.53895">
        <ele>1391.3</ele>
        <time>2012-03-11T13:38:38Z</time>
      </trkpt>
      <trkpt lat="45.97754" lon="6.53898">
        <ele>1390.5</ele>
        <time>2012-03-11T13:38:39Z</time>
      </trkpt>
      <trkpt lat="45.97762" lon="6.53909">
        <ele>1387.5</ele>
        <time>2012-03-11T13:38:42Z</time>
      </trkpt>
      <trkpt lat="45.97767" lon="6.53916">
        <ele>1385.6</ele>
        <time>2012-03-11T13:38:44Z</time>
      </trkpt>
      <trkpt lat="45.97774" lon="6.53924">
        <ele>1383.5</ele>
        <time>2012-03-11T13:38:46Z</time>
      </trkpt>
      <trkpt lat="45.97781" lon="6.53932">
        <ele>1381.5</ele>
        <time>2012-03-11T13:38:48Z</time>
      </trkpt>
      <trkpt lat="45.97785" lon="6.53936">
        <ele>1380.8</ele>
        <time>2012-03-11T13:38:49Z</time>
      </trkpt>
      <trkpt lat="45.97789" lon="6.53941">
        <ele>1380.3</ele>
        <time>2012-03-11T13:38:50Z</time>
      </trkpt>
      <trkpt lat="45.97793" lon="6.53945">
        <ele>1379.6</ele>
        <time>2012-03-11T13:38:51Z</time>
      </trkpt>
      <trkpt lat="45.97797" lon="6.53948">
        <ele>1379</ele>
        <time>2012-03-11T13:38:52Z</time>
      </trkpt>
      <trkpt lat="45.97801" lon="6.53952">
        <ele>1378.4</ele>
        <time>2012-03-11T13:38:53Z</time>
      </trkpt>
      <trkpt lat="45.97805" lon="6.53955">
        <ele>1377.8</ele>
        <time>2012-03-11T13:38:54Z</time>
      </trkpt>
      <trkpt lat="45.9781" lon="6.53959">
        <ele>1377</ele>
        <time>2012-03-11T13:38:55Z</time>
      </trkpt>
      <trkpt lat="45.97814" lon="6.53963">
        <ele>1376</ele>
        <time>2012-03-11T13:38:56Z</time>
      </trkpt>
      <trkpt lat="45.97819" lon="6.53966">
        <ele>1375.4</ele>
        <time>2012-03-11T13:38:57Z</time>
      </trkpt>
      <trkpt lat="45.97823" lon="6.5397">
        <ele>1375</ele>
        <time>2012-03-11T13:38:58Z</time>
      </trkpt>
      <trkpt lat="45.9783" lon="6.53976">
        <ele>1374.5</ele>
        <time>2012-03-11T13:39:00Z</time>
      </trkpt>
      <trkpt lat="45.97833" lon="6.53979">
        <ele>1374.5</ele>
        <time>2012-03-11T13:39:01Z</time>
      </trkpt>
      <trkpt lat="45.97838" lon="6.53983">
        <ele>1374.5</ele>
        <time>2012-03-11T13:39:02Z</time>
      </trkpt>
      <trkpt lat="45.97842" lon="6.53986">
        <ele>1374.5</ele>
        <time>2012-03-11T13:39:03Z</time>
      </trkpt>
      <trkpt lat="45.97847" lon="6.5399">
        <ele>1374.3</ele>
        <time>2012-03-11T13:39:04Z</time>
      </trkpt>
      <trkpt lat="45.97853" lon="6.53994">
        <ele>1374</ele>
        <time>2012-03-11T13:39:05Z</time>
      </trkpt>
      <trkpt lat="45.97858" lon="6.53998">
        <ele>1373.6</ele>
        <time>2012-03-11T13:39:06Z</time>
      </trkpt>
      <trkpt lat="45.97862" lon="6.54002">
        <ele>1373.3</ele>
        <time>2012-03-11T13:39:07Z</time>
      </trkpt>
      <trkpt lat="45.97867" lon="6.54004">
        <ele>1373</ele>
        <time>2012-03-11T13:39:08Z</time>
      </trkpt>
      <trkpt lat="45.97872" lon="6.54008">
        <ele>1372.5</ele>
        <time>2012-03-11T13:39:09Z</time>
      </trkpt>
      <trkpt lat="45.97875" lon="6.54014">
        <ele>1371.8</ele>
        <time>2012-03-11T13:39:10Z</time>
      </trkpt>
      <trkpt lat="45.97879" lon="6.54018">
        <ele>1370.9</ele>
        <time>2012-03-11T13:39:11Z</time>
      </trkpt>
      <trkpt lat="45.97887" lon="6.54025">
        <ele>1368.6</ele>
        <time>2012-03-11T13:39:13Z</time>
      </trkpt>
      <trkpt lat="45.97893" lon="6.54028">
        <ele>1366.6</ele>
        <time>2012-03-11T13:39:15Z</time>
      </trkpt>
      <trkpt lat="45.97899" lon="6.5403">
        <ele>1365.4</ele>
        <time>2012-03-11T13:39:17Z</time>
      </trkpt>
      <trkpt lat="45.97902" lon="6.54039">
        <ele>1363.8</ele>
        <time>2012-03-11T13:39:19Z</time>
      </trkpt>
      <trkpt lat="45.97908" lon="6.54048">
        <ele>1361.8</ele>
        <time>2012-03-11T13:39:22Z</time>
      </trkpt>
      <trkpt lat="45.97917" lon="6.54046">
        <ele>1360.3</ele>
        <time>2012-03-11T13:39:31Z</time>
      </trkpt>
      <trkpt lat="45.97925" lon="6.54041">
        <ele>1363.4</ele>
        <time>2012-03-11T13:39:40Z</time>
      </trkpt>
      <trkpt lat="45.97926" lon="6.54039">
        <ele>1364</ele>
        <time>2012-03-11T13:39:41Z</time>
      </trkpt>
      <trkpt lat="45.97939" lon="6.54034">
        <ele>1368</ele>
        <time>2012-03-11T13:39:47Z</time>
      </trkpt>
      <trkpt lat="45.97948" lon="6.54035">
        <ele>1371.5</ele>
        <time>2012-03-11T13:39:53Z</time>
      </trkpt>
      <trkpt lat="45.97955" lon="6.5404">
        <ele>1362.8</ele>
        <time>2012-03-11T13:40:03Z</time>
      </trkpt>
      <trkpt lat="45.97963" lon="6.54047">
        <ele>1356.6</ele>
        <time>2012-03-11T13:40:10Z</time>
      </trkpt>
      <trkpt lat="45.97971" lon="6.54047">
        <ele>1353</ele>
        <time>2012-03-11T13:40:20Z</time>
      </trkpt>
      <trkpt lat="45.9798" lon="6.54049">
        <ele>1355</ele>
        <time>2012-03-11T13:40:32Z</time>
      </trkpt>
      <trkpt lat="45.97989" lon="6.54049">
        <ele>1360.1</ele>
        <time>2012-03-11T13:40:42Z</time>
      </trkpt>
      <trkpt lat="45.97989" lon="6.5405">
        <ele>1361.4</ele>
        <time>2012-03-11T13:40:43Z</time>
      </trkpt>
      <trkpt lat="45.97999" lon="6.54062">
        <ele>1374.9</ele>
        <time>2012-03-11T13:40:55Z</time>
      </trkpt>
      <trkpt lat="45.97999" lon="6.54074">
        <ele>1373.5</ele>
        <time>2012-03-11T13:40:59Z</time>
      </trkpt>
      <trkpt lat="45.98004" lon="6.54084">
        <ele>1367</ele>
        <time>2012-03-11T13:41:04Z</time>
      </trkpt>
      <trkpt lat="45.98009" lon="6.54091">
        <ele>1362</ele>
        <time>2012-03-11T13:41:08Z</time>
      </trkpt>
      <trkpt lat="45.98016" lon="6.54096">
        <ele>1356.3</ele>
        <time>2012-03-11T13:41:13Z</time>
      </trkpt>
      <trkpt lat="45.98019" lon="6.54105">
        <ele>1351.5</ele>
        <time>2012-03-11T13:41:17Z</time>
      </trkpt>
      <trkpt lat="45.98023" lon="6.54106">
        <ele>1349.8</ele>
        <time>2012-03-11T13:41:18Z</time>
      </trkpt>
      <trkpt lat="45.9803" lon="6.54107">
        <ele>1347.3</ele>
        <time>2012-03-11T13:41:19Z</time>
      </trkpt>
      <trkpt lat="45.98038" lon="6.54109">
        <ele>1344</ele>
        <time>2012-03-11T13:41:20Z</time>
      </trkpt>
      <trkpt lat="45.98045" lon="6.54113">
        <ele>1340.6</ele>
        <time>2012-03-11T13:41:21Z</time>
      </trkpt>
      <trkpt lat="45.98054" lon="6.54116">
        <ele>1337.5</ele>
        <time>2012-03-11T13:41:22Z</time>
      </trkpt>
      <trkpt lat="45.98063" lon="6.5412">
        <ele>1335.1</ele>
        <time>2012-03-11T13:41:23Z</time>
      </trkpt>
      <trkpt lat="45.9807" lon="6.54127">
        <ele>1334</ele>
        <time>2012-03-11T13:41:24Z</time>
      </trkpt>
      <trkpt lat="45.98076" lon="6.54132">
        <ele>1333</ele>
        <time>2012-03-11T13:41:25Z</time>
      </trkpt>
      <trkpt lat="45.98081" lon="6.54136">
        <ele>1332</ele>
        <time>2012-03-11T13:41:26Z</time>
      </trkpt>
      <trkpt lat="45.98086" lon="6.54141">
        <ele>1331.5</ele>
        <time>2012-03-11T13:41:27Z</time>
      </trkpt>
      <trkpt lat="45.98092" lon="6.54149">
        <ele>1330</ele>
        <time>2012-03-11T13:41:29Z</time>
      </trkpt>
      <trkpt lat="45.98095" lon="6.54152">
        <ele>1328.9</ele>
        <time>2012-03-11T13:41:30Z</time>
      </trkpt>
      <trkpt lat="45.98099" lon="6.54157">
        <ele>1328</ele>
        <time>2012-03-11T13:41:31Z</time>
      </trkpt>
      <trkpt lat="45.98104" lon="6.54161">
        <ele>1327.4</ele>
        <time>2012-03-11T13:41:32Z</time>
      </trkpt>
      <trkpt lat="45.98108" lon="6.54166">
        <ele>1326.8</ele>
        <time>2012-03-11T13:41:33Z</time>
      </trkpt>
      <trkpt lat="45.98111" lon="6.54171">
        <ele>1326.1</ele>
        <time>2012-03-11T13:41:34Z</time>
      </trkpt>
      <trkpt lat="45.98115" lon="6.54177">
        <ele>1325.9</ele>
        <time>2012-03-11T13:41:35Z</time>
      </trkpt>
      <trkpt lat="45.98118" lon="6.54183">
        <ele>1325.9</ele>
        <time>2012-03-11T13:41:36Z</time>
      </trkpt>
      <trkpt lat="45.98123" lon="6.54191">
        <ele>1325.1</ele>
        <time>2012-03-11T13:41:38Z</time>
      </trkpt>
      <trkpt lat="45.9813" lon="6.54195">
        <ele>1324</ele>
        <time>2012-03-11T13:41:40Z</time>
      </trkpt>
      <trkpt lat="45.98137" lon="6.54199">
        <ele>1323.3</ele>
        <time>2012-03-11T13:41:42Z</time>
      </trkpt>
      <trkpt lat="45.98143" lon="6.54203">
        <ele>1323.4</ele>
        <time>2012-03-11T13:41:44Z</time>
      </trkpt>
      <trkpt lat="45.98146" lon="6.54205">
        <ele>1323.5</ele>
        <time>2012-03-11T13:41:45Z</time>
      </trkpt>
      <trkpt lat="45.98156" lon="6.54211">
        <ele>1324.8</ele>
        <time>2012-03-11T13:41:48Z</time>
      </trkpt>
      <trkpt lat="45.98164" lon="6.54216">
        <ele>1326.5</ele>
        <time>2012-03-11T13:41:51Z</time>
      </trkpt>
      <trkpt lat="45.98172" lon="6.54221">
        <ele>1329</ele>
        <time>2012-03-11T13:41:55Z</time>
      </trkpt>
      <trkpt lat="45.9818" lon="6.54225">
        <ele>1330.6</ele>
        <time>2012-03-11T13:41:59Z</time>
      </trkpt>
      <trkpt lat="45.98189" lon="6.54228">
        <ele>1330.3</ele>
        <time>2012-03-11T13:42:04Z</time>
      </trkpt>
      <trkpt lat="45.98196" lon="6.54231">
        <ele>1329.4</ele>
        <time>2012-03-11T13:42:08Z</time>
      </trkpt>
      <trkpt lat="45.98202" lon="6.54234">
        <ele>1328.5</ele>
        <time>2012-03-11T13:42:11Z</time>
      </trkpt>
      <trkpt lat="45.98209" lon="6.54238">
        <ele>1327.6</ele>
        <time>2012-03-11T13:42:14Z</time>
      </trkpt>
      <trkpt lat="45.98215" lon="6.54242">
        <ele>1326.3</ele>
        <time>2012-03-11T13:42:17Z</time>
      </trkpt>
      <trkpt lat="45.98223" lon="6.54245">
        <ele>1325.6</ele>
        <time>2012-03-11T13:42:20Z</time>
      </trkpt>
      <trkpt lat="45.98229" lon="6.54249">
        <ele>1325</ele>
        <time>2012-03-11T13:42:22Z</time>
      </trkpt>
      <trkpt lat="45.98234" lon="6.54251">
        <ele>1324.4</ele>
        <time>2012-03-11T13:42:24Z</time>
      </trkpt>
      <trkpt lat="45.9824" lon="6.54254">
        <ele>1324</ele>
        <time>2012-03-11T13:42:26Z</time>
      </trkpt>
      <trkpt lat="45.98246" lon="6.54256">
        <ele>1324</ele>
        <time>2012-03-11T13:42:28Z</time>
      </trkpt>
      <trkpt lat="45.98253" lon="6.54259">
        <ele>1323.5</ele>
        <time>2012-03-11T13:42:30Z</time>
      </trkpt>
      <trkpt lat="45.98259" lon="6.54263">
        <ele>1322.9</ele>
        <time>2012-03-11T13:42:32Z</time>
      </trkpt>
      <trkpt lat="45.98267" lon="6.54266">
        <ele>1320.9</ele>
        <time>2012-03-11T13:42:35Z</time>
      </trkpt>
      <trkpt lat="45.98276" lon="6.5427">
        <ele>1319.6</ele>
        <time>2012-03-11T13:42:38Z</time>
      </trkpt>
      <trkpt lat="45.98284" lon="6.54273">
        <ele>1320</ele>
        <time>2012-03-11T13:42:41Z</time>
      </trkpt>
      <trkpt lat="45.98292" lon="6.54275">
        <ele>1319.1</ele>
        <time>2012-03-11T13:42:44Z</time>
      </trkpt>
      <trkpt lat="45.98301" lon="6.54276">
        <ele>1317</ele>
        <time>2012-03-11T13:42:47Z</time>
      </trkpt>
      <trkpt lat="45.98304" lon="6.54277">
        <ele>1316.4</ele>
        <time>2012-03-11T13:42:48Z</time>
      </trkpt>
      <trkpt lat="45.98316" lon="6.5428">
        <ele>1314.5</ele>
        <time>2012-03-11T13:42:53Z</time>
      </trkpt>
      <trkpt lat="45.98323" lon="6.54281">
        <ele>1313.9</ele>
        <time>2012-03-11T13:42:55Z</time>
      </trkpt>
      <trkpt lat="45.98329" lon="6.54282">
        <ele>1312.8</ele>
        <time>2012-03-11T13:42:57Z</time>
      </trkpt>
      <trkpt lat="45.98337" lon="6.54283">
        <ele>1310.4</ele>
        <time>2012-03-11T13:43:00Z</time>
      </trkpt>
      <trkpt lat="45.98346" lon="6.54284">
        <ele>1306.9</ele>
        <time>2012-03-11T13:43:03Z</time>
      </trkpt>
      <trkpt lat="45.98353" lon="6.54286">
        <ele>1304.5</ele>
        <time>2012-03-11T13:43:05Z</time>
      </trkpt>
      <trkpt lat="45.9836" lon="6.54287">
        <ele>1301.9</ele>
        <time>2012-03-11T13:43:07Z</time>
      </trkpt>
      <trkpt lat="45.98367" lon="6.54287">
        <ele>1299.4</ele>
        <time>2012-03-11T13:43:09Z</time>
      </trkpt>
      <trkpt lat="45.98374" lon="6.54287">
        <ele>1296.3</ele>
        <time>2012-03-11T13:43:11Z</time>
      </trkpt>
      <trkpt lat="45.98383" lon="6.54288">
        <ele>1293.1</ele>
        <time>2012-03-11T13:43:13Z</time>
      </trkpt>
      <trkpt lat="45.9839" lon="6.54288">
        <ele>1290.4</ele>
        <time>2012-03-11T13:43:15Z</time>
      </trkpt>
      <trkpt lat="45.98397" lon="6.54288">
        <ele>1287.5</ele>
        <time>2012-03-11T13:43:17Z</time>
      </trkpt>
      <trkpt lat="45.98403" lon="6.54289">
        <ele>1284.8</ele>
        <time>2012-03-11T13:43:19Z</time>
      </trkpt>
      <trkpt lat="45.9841" lon="6.5429">
        <ele>1283.3</ele>
        <time>2012-03-11T13:43:21Z</time>
      </trkpt>
      <trkpt lat="45.98418" lon="6.5429">
        <ele>1282.9</ele>
        <time>2012-03-11T13:43:23Z</time>
      </trkpt>
      <trkpt lat="45.98426" lon="6.54289">
        <ele>1283.4</ele>
        <time>2012-03-11T13:43:25Z</time>
      </trkpt>
      <trkpt lat="45.98434" lon="6.5429">
        <ele>1284.1</ele>
        <time>2012-03-11T13:43:27Z</time>
      </trkpt>
      <trkpt lat="45.98438" lon="6.54293">
        <ele>1284.1</ele>
        <time>2012-03-11T13:43:28Z</time>
      </trkpt>
      <trkpt lat="45.98442" lon="6.54297">
        <ele>1284.3</ele>
        <time>2012-03-11T13:43:29Z</time>
      </trkpt>
      <trkpt lat="45.98446" lon="6.54302">
        <ele>1284.8</ele>
        <time>2012-03-11T13:43:30Z</time>
      </trkpt>
      <trkpt lat="45.9845" lon="6.54308">
        <ele>1285</ele>
        <time>2012-03-11T13:43:31Z</time>
      </trkpt>
      <trkpt lat="45.98453" lon="6.54313">
        <ele>1285.4</ele>
        <time>2012-03-11T13:43:32Z</time>
      </trkpt>
      <trkpt lat="45.98458" lon="6.54322">
        <ele>1285.3</ele>
        <time>2012-03-11T13:43:34Z</time>
      </trkpt>
      <trkpt lat="45.98465" lon="6.54328">
        <ele>1286.5</ele>
        <time>2012-03-11T13:43:40Z</time>
      </trkpt>
      <trkpt lat="45.98472" lon="6.54334">
        <ele>1287.9</ele>
        <time>2012-03-11T13:43:49Z</time>
      </trkpt>
      <trkpt lat="45.98473" lon="6.54335">
        <ele>1288</ele>
        <time>2012-03-11T13:43:50Z</time>
      </trkpt>
      <trkpt lat="45.98486" lon="6.54346">
        <ele>1290.1</ele>
        <time>2012-03-11T13:44:08Z</time>
      </trkpt>
      <trkpt lat="45.98495" lon="6.5435">
        <ele>1291.5</ele>
        <time>2012-03-11T13:44:19Z</time>
      </trkpt>
      <trkpt lat="45.98503" lon="6.54351">
        <ele>1294.3</ele>
        <time>2012-03-11T13:44:29Z</time>
      </trkpt>
      <trkpt lat="45.98511" lon="6.54354">
        <ele>1294.3</ele>
        <time>2012-03-11T13:44:39Z</time>
      </trkpt>
      <trkpt lat="45.98519" lon="6.54357">
        <ele>1293.6</ele>
        <time>2012-03-11T13:44:47Z</time>
      </trkpt>
      <trkpt lat="45.98527" lon="6.54359">
        <ele>1292.4</ele>
        <time>2012-03-11T13:44:53Z</time>
      </trkpt>
      <trkpt lat="45.98528" lon="6.5436">
        <ele>1292.1</ele>
        <time>2012-03-11T13:44:54Z</time>
      </trkpt>
      <trkpt lat="45.9854" lon="6.54372">
        <ele>1295.4</ele>
        <time>2012-03-11T13:45:09Z</time>
      </trkpt>
      <trkpt lat="45.98548" lon="6.54377">
        <ele>1292.8</ele>
        <time>2012-03-11T13:45:13Z</time>
      </trkpt>
      <trkpt lat="45.98554" lon="6.54378">
        <ele>1291.8</ele>
        <time>2012-03-11T13:45:15Z</time>
      </trkpt>
      <trkpt lat="45.9856" lon="6.54381">
        <ele>1290.6</ele>
        <time>2012-03-11T13:45:17Z</time>
      </trkpt>
      <trkpt lat="45.98567" lon="6.54383">
        <ele>1289</ele>
        <time>2012-03-11T13:45:20Z</time>
      </trkpt>
      <trkpt lat="45.98575" lon="6.54383">
        <ele>1285</ele>
        <time>2012-03-11T13:45:23Z</time>
      </trkpt>
      <trkpt lat="45.98584" lon="6.54382">
        <ele>1280.8</ele>
        <time>2012-03-11T13:45:25Z</time>
      </trkpt>
      <trkpt lat="45.98591" lon="6.5438">
        <ele>1277.5</ele>
        <time>2012-03-11T13:45:27Z</time>
      </trkpt>
      <trkpt lat="45.986" lon="6.5438">
        <ele>1274.8</ele>
        <time>2012-03-11T13:45:30Z</time>
      </trkpt>
      <trkpt lat="45.98607" lon="6.5438">
        <ele>1273.5</ele>
        <time>2012-03-11T13:45:32Z</time>
      </trkpt>
      <trkpt lat="45.98615" lon="6.54381">
        <ele>1273.1</ele>
        <time>2012-03-11T13:45:34Z</time>
      </trkpt>
      <trkpt lat="45.98621" lon="6.54383">
        <ele>1272.5</ele>
        <time>2012-03-11T13:45:36Z</time>
      </trkpt>
      <trkpt lat="45.9863" lon="6.54385">
        <ele>1272.3</ele>
        <time>2012-03-11T13:45:39Z</time>
      </trkpt>
      <trkpt lat="45.98637" lon="6.54387">
        <ele>1273.1</ele>
        <time>2012-03-11T13:45:42Z</time>
      </trkpt>
      <trkpt lat="45.98645" lon="6.54389">
        <ele>1273.9</ele>
        <time>2012-03-11T13:45:45Z</time>
      </trkpt>
      <trkpt lat="45.98653" lon="6.54391">
        <ele>1273.6</ele>
        <time>2012-03-11T13:45:48Z</time>
      </trkpt>
      <trkpt lat="45.9866" lon="6.54391">
        <ele>1273.4</ele>
        <time>2012-03-11T13:45:50Z</time>
      </trkpt>
      <trkpt lat="45.98666" lon="6.54392">
        <ele>1273.5</ele>
        <time>2012-03-11T13:45:52Z</time>
      </trkpt>
      <trkpt lat="45.98673" lon="6.54393">
        <ele>1273.1</ele>
        <time>2012-03-11T13:45:54Z</time>
      </trkpt>
      <trkpt lat="45.98676" lon="6.54395">
        <ele>1272.9</ele>
        <time>2012-03-11T13:45:55Z</time>
      </trkpt>
      <trkpt lat="45.98685" lon="6.54401">
        <ele>1271.9</ele>
        <time>2012-03-11T13:45:58Z</time>
      </trkpt>
      <trkpt lat="45.98693" lon="6.54406">
        <ele>1270.8</ele>
        <time>2012-03-11T13:46:01Z</time>
      </trkpt>
      <trkpt lat="45.98701" lon="6.54409">
        <ele>1269.4</ele>
        <time>2012-03-11T13:46:04Z</time>
      </trkpt>
      <trkpt lat="45.9871" lon="6.54412">
        <ele>1268.1</ele>
        <time>2012-03-11T13:46:07Z</time>
      </trkpt>
      <trkpt lat="45.98717" lon="6.54413">
        <ele>1267.1</ele>
        <time>2012-03-11T13:46:09Z</time>
      </trkpt>
      <trkpt lat="45.98723" lon="6.54413">
        <ele>1266.1</ele>
        <time>2012-03-11T13:46:11Z</time>
      </trkpt>
      <trkpt lat="45.9873" lon="6.54415">
        <ele>1266</ele>
        <time>2012-03-11T13:46:13Z</time>
      </trkpt>
      <trkpt lat="45.98736" lon="6.54417">
        <ele>1266.6</ele>
        <time>2012-03-11T13:46:15Z</time>
      </trkpt>
      <trkpt lat="45.98743" lon="6.54419">
        <ele>1267</ele>
        <time>2012-03-11T13:46:17Z</time>
      </trkpt>
      <trkpt lat="45.9875" lon="6.54419">
        <ele>1267</ele>
        <time>2012-03-11T13:46:19Z</time>
      </trkpt>
      <trkpt lat="45.98757" lon="6.54422">
        <ele>1266.8</ele>
        <time>2012-03-11T13:46:21Z</time>
      </trkpt>
      <trkpt lat="45.98764" lon="6.54422">
        <ele>1266.3</ele>
        <time>2012-03-11T13:46:23Z</time>
      </trkpt>
      <trkpt lat="45.98771" lon="6.54423">
        <ele>1265</ele>
        <time>2012-03-11T13:46:25Z</time>
      </trkpt>
      <trkpt lat="45.98778" lon="6.54426">
        <ele>1263.8</ele>
        <time>2012-03-11T13:46:27Z</time>
      </trkpt>
      <trkpt lat="45.98786" lon="6.54428">
        <ele>1261.8</ele>
        <time>2012-03-11T13:46:30Z</time>
      </trkpt>
      <trkpt lat="45.98793" lon="6.54427">
        <ele>1260.1</ele>
        <time>2012-03-11T13:46:32Z</time>
      </trkpt>
      <trkpt lat="45.98801" lon="6.5443">
        <ele>1258.8</ele>
        <time>2012-03-11T13:46:35Z</time>
      </trkpt>
      <trkpt lat="45.98809" lon="6.54431">
        <ele>1258.4</ele>
        <time>2012-03-11T13:46:38Z</time>
      </trkpt>
      <trkpt lat="45.98815" lon="6.54432">
        <ele>1258.6</ele>
        <time>2012-03-11T13:46:40Z</time>
      </trkpt>
      <trkpt lat="45.98823" lon="6.54433">
        <ele>1259.1</ele>
        <time>2012-03-11T13:46:42Z</time>
      </trkpt>
      <trkpt lat="45.98831" lon="6.54433">
        <ele>1259.6</ele>
        <time>2012-03-11T13:46:44Z</time>
      </trkpt>
      <trkpt lat="45.98837" lon="6.54433">
        <ele>1258.9</ele>
        <time>2012-03-11T13:46:46Z</time>
      </trkpt>
      <trkpt lat="45.98845" lon="6.54435">
        <ele>1257</ele>
        <time>2012-03-11T13:46:48Z</time>
      </trkpt>
      <trkpt lat="45.98853" lon="6.54435">
        <ele>1254.5</ele>
        <time>2012-03-11T13:46:50Z</time>
      </trkpt>
      <trkpt lat="45.9886" lon="6.54436">
        <ele>1251.9</ele>
        <time>2012-03-11T13:46:52Z</time>
      </trkpt>
      <trkpt lat="45.98868" lon="6.54437">
        <ele>1249.3</ele>
        <time>2012-03-11T13:46:54Z</time>
      </trkpt>
      <trkpt lat="45.98874" lon="6.54437">
        <ele>1247</ele>
        <time>2012-03-11T13:46:56Z</time>
      </trkpt>
      <trkpt lat="45.98878" lon="6.54436">
        <ele>1245.9</ele>
        <time>2012-03-11T13:46:57Z</time>
      </trkpt>
      <trkpt lat="45.9889" lon="6.54435">
        <ele>1240</ele>
        <time>2012-03-11T13:47:01Z</time>
      </trkpt>
      <trkpt lat="45.98896" lon="6.54434">
        <ele>1237.6</ele>
        <time>2012-03-11T13:47:03Z</time>
      </trkpt>
      <trkpt lat="45.98905" lon="6.54433">
        <ele>1235.5</ele>
        <time>2012-03-11T13:47:05Z</time>
      </trkpt>
      <trkpt lat="45.98912" lon="6.54432">
        <ele>1234.8</ele>
        <time>2012-03-11T13:47:07Z</time>
      </trkpt>
      <trkpt lat="45.9892" lon="6.5443">
        <ele>1236.3</ele>
        <time>2012-03-11T13:47:11Z</time>
      </trkpt>
      <trkpt lat="45.98928" lon="6.54429">
        <ele>1237.5</ele>
        <time>2012-03-11T13:47:15Z</time>
      </trkpt>
      <trkpt lat="45.98936" lon="6.54427">
        <ele>1238.5</ele>
        <time>2012-03-11T13:47:18Z</time>
      </trkpt>
      <trkpt lat="45.98945" lon="6.54423">
        <ele>1239.6</ele>
        <time>2012-03-11T13:47:23Z</time>
      </trkpt>
      <trkpt lat="45.98951" lon="6.5442">
        <ele>1238.4</ele>
        <time>2012-03-11T13:47:25Z</time>
      </trkpt>
      <trkpt lat="45.98957" lon="6.54418">
        <ele>1237.5</ele>
        <time>2012-03-11T13:47:27Z</time>
      </trkpt>
      <trkpt lat="45.98965" lon="6.54414">
        <ele>1237.5</ele>
        <time>2012-03-11T13:47:29Z</time>
      </trkpt>
      <trkpt lat="45.98974" lon="6.54415">
        <ele>1237.3</ele>
        <time>2012-03-11T13:47:31Z</time>
      </trkpt>
      <trkpt lat="45.98979" lon="6.54413">
        <ele>1237.4</ele>
        <time>2012-03-11T13:47:32Z</time>
      </trkpt>
      <trkpt lat="45.98986" lon="6.54412">
        <ele>1238</ele>
        <time>2012-03-11T13:47:34Z</time>
      </trkpt>
      <trkpt lat="45.98993" lon="6.54409">
        <ele>1240.8</ele>
        <time>2012-03-11T13:47:38Z</time>
      </trkpt>
      <trkpt lat="45.99001" lon="6.54407">
        <ele>1241.4</ele>
        <time>2012-03-11T13:47:42Z</time>
      </trkpt>
      <trkpt lat="45.99009" lon="6.54406">
        <ele>1242.1</ele>
        <time>2012-03-11T13:47:45Z</time>
      </trkpt>
      <trkpt lat="45.99016" lon="6.54403">
        <ele>1241.1</ele>
        <time>2012-03-11T13:47:48Z</time>
      </trkpt>
      <trkpt lat="45.99022" lon="6.54401">
        <ele>1240.5</ele>
        <time>2012-03-11T13:47:50Z</time>
      </trkpt>
      <trkpt lat="45.99029" lon="6.544">
        <ele>1240.3</ele>
        <time>2012-03-11T13:47:52Z</time>
      </trkpt>
      <trkpt lat="45.99037" lon="6.54399">
        <ele>1238.3</ele>
        <time>2012-03-11T13:47:54Z</time>
      </trkpt>
      <trkpt lat="45.99044" lon="6.54395">
        <ele>1232.5</ele>
        <time>2012-03-11T13:47:59Z</time>
      </trkpt>
      <trkpt lat="45.99046" lon="6.54394">
        <ele>1231.4</ele>
        <time>2012-03-11T13:48:00Z</time>
      </trkpt>
      <trkpt lat="45.99059" lon="6.54388">
        <ele>1236.5</ele>
        <time>2012-03-11T13:48:11Z</time>
      </trkpt>
      <trkpt lat="45.99066" lon="6.54383">
        <ele>1251.5</ele>
        <time>2012-03-11T13:48:18Z</time>
      </trkpt>
      <trkpt lat="45.99067" lon="6.54379">
        <ele>1258.4</ele>
        <time>2012-03-11T13:48:21Z</time>
      </trkpt>
      <trkpt lat="45.99074" lon="6.5434">
        <ele>1218.4</ele>
        <time>2012-03-11T13:48:45Z</time>
      </trkpt>
      <trkpt lat="45.99081" lon="6.54333">
        <ele>1212.1</ele>
        <time>2012-03-11T13:48:53Z</time>
      </trkpt>
      <trkpt lat="45.99089" lon="6.54329">
        <ele>1211.3</ele>
        <time>2012-03-11T13:48:59Z</time>
      </trkpt>
      <trkpt lat="45.99285" lon="6.54033">
        <ele>1166</ele>
        <time>2012-03-11T13:52:19Z</time>
      </trkpt>
      <trkpt lat="45.99306" lon="6.5401">
        <ele>1140.9</ele>
        <time>2012-03-11T13:53:10Z</time>
      </trkpt>
      <trkpt lat="45.99312" lon="6.54002">
        <ele>1128</ele>
        <time>2012-03-11T13:53:28Z</time>
      </trkpt>
      <trkpt lat="45.99321" lon="6.54012">
        <ele>1127</ele>
        <time>2012-03-11T13:54:01Z</time>
      </trkpt>
      <trkpt lat="45.99344" lon="6.54001">
        <ele>1135</ele>
        <time>2012-03-11T13:55:58Z</time>
      </trkpt>
      <trkpt lat="45.99346" lon="6.53998">
        <ele>1135.8</ele>
        <time>2012-03-11T13:56:13Z</time>
      </trkpt>
      <trkpt lat="45.99361" lon="6.53998">
        <ele>1192.9</ele>
        <time>2012-03-11T13:56:41Z</time>
      </trkpt>
      <trkpt lat="45.9936" lon="6.53998">
        <ele>1187.6</ele>
        <time>2012-03-11T13:56:46Z</time>
      </trkpt>
      <trkpt lat="45.99365" lon="6.53987">
        <ele>1183.8</ele>
        <time>2012-03-11T13:57:11Z</time>
      </trkpt>
      <trkpt lat="45.99373" lon="6.53984">
        <ele>1179</ele>
        <time>2012-03-11T13:57:13Z</time>
      </trkpt>
      <trkpt lat="45.99376" lon="6.53983">
        <ele>1175.9</ele>
        <time>2012-03-11T13:57:14Z</time>
      </trkpt>
      <trkpt lat="45.99385" lon="6.53973">
        <ele>1159.3</ele>
        <time>2012-03-11T13:57:18Z</time>
      </trkpt>
      <trkpt lat="45.99391" lon="6.53967">
        <ele>1146</ele>
        <time>2012-03-11T13:57:21Z</time>
      </trkpt>
      <trkpt lat="45.99398" lon="6.53964">
        <ele>1137.9</ele>
        <time>2012-03-11T13:57:23Z</time>
      </trkpt>
      <trkpt lat="45.99406" lon="6.53967">
        <ele>1127.1</ele>
        <time>2012-03-11T13:57:26Z</time>
      </trkpt>
      <trkpt lat="45.99414" lon="6.53964">
        <ele>1123.3</ele>
        <time>2012-03-11T13:57:28Z</time>
      </trkpt>
      <trkpt lat="45.99422" lon="6.53962">
        <ele>1122.4</ele>
        <time>2012-03-11T13:57:33Z</time>
      </trkpt>
      <trkpt lat="45.99431" lon="6.5396">
        <ele>1123.1</ele>
        <time>2012-03-11T13:57:38Z</time>
      </trkpt>
      <trkpt lat="45.99439" lon="6.53961">
        <ele>1121</ele>
        <time>2012-03-11T13:57:51Z</time>
      </trkpt>
      <trkpt lat="45.99448" lon="6.53964">
        <ele>1140.1</ele>
        <time>2012-03-11T13:58:05Z</time>
      </trkpt>
      <trkpt lat="45.99457" lon="6.53966">
        <ele>1142.4</ele>
        <time>2012-03-11T13:58:24Z</time>
      </trkpt>
      <trkpt lat="45.99457" lon="6.53966">
        <ele>1142.5</ele>
        <time>2012-03-11T13:58:25Z</time>
      </trkpt>
      <trkpt lat="45.99468" lon="6.53953">
        <ele>1157.5</ele>
        <time>2012-03-11T13:59:03Z</time>
      </trkpt>
      <trkpt lat="45.99476" lon="6.53951">
        <ele>1164.6</ele>
        <time>2012-03-11T13:59:26Z</time>
      </trkpt>
      <trkpt lat="45.99477" lon="6.53951">
        <ele>1164.4</ele>
        <time>2012-03-11T13:59:27Z</time>
      </trkpt>
      <trkpt lat="45.99489" lon="6.53963">
        <ele>1140.9</ele>
        <time>2012-03-11T13:59:42Z</time>
      </trkpt>
      <trkpt lat="45.99495" lon="6.53967">
        <ele>1133.3</ele>
        <time>2012-03-11T13:59:45Z</time>
      </trkpt>
      <trkpt lat="45.99502" lon="6.53967">
        <ele>1128</ele>
        <time>2012-03-11T13:59:47Z</time>
      </trkpt>
      <trkpt lat="45.99509" lon="6.53967">
        <ele>1124</ele>
        <time>2012-03-11T13:59:49Z</time>
      </trkpt>
      <trkpt lat="45.99518" lon="6.53969">
        <ele>1121</ele>
        <time>2012-03-11T13:59:51Z</time>
      </trkpt>
      <trkpt lat="45.99527" lon="6.53971">
        <ele>1118.6</ele>
        <time>2012-03-11T13:59:53Z</time>
      </trkpt>
      <trkpt lat="45.99534" lon="6.53969">
        <ele>1115.3</ele>
        <time>2012-03-11T13:59:55Z</time>
      </trkpt>
      <trkpt lat="45.99539" lon="6.53968">
        <ele>1113</ele>
        <time>2012-03-11T13:59:56Z</time>
      </trkpt>
      <trkpt lat="45.99552" lon="6.53967">
        <ele>1108.9</ele>
        <time>2012-03-11T13:59:58Z</time>
      </trkpt>
      <trkpt lat="45.99559" lon="6.53966">
        <ele>1106.5</ele>
        <time>2012-03-11T13:59:59Z</time>
      </trkpt>
      <trkpt lat="45.99567" lon="6.53967">
        <ele>1104</ele>
        <time>2012-03-11T14:00:00Z</time>
      </trkpt>
      <trkpt lat="45.99575" lon="6.53967">
        <ele>1101.6</ele>
        <time>2012-03-11T14:00:01Z</time>
      </trkpt>
      <trkpt lat="45.99582" lon="6.53968">
        <ele>1099</ele>
        <time>2012-03-11T14:00:02Z</time>
      </trkpt>
      <trkpt lat="45.9959" lon="6.53969">
        <ele>1096.1</ele>
        <time>2012-03-11T14:00:03Z</time>
      </trkpt>
      <trkpt lat="45.99598" lon="6.53968">
        <ele>1093.1</ele>
        <time>2012-03-11T14:00:04Z</time>
      </trkpt>
      <trkpt lat="45.99607" lon="6.53966">
        <ele>1090</ele>
        <time>2012-03-11T14:00:05Z</time>
      </trkpt>
      <trkpt lat="45.99615" lon="6.53963">
        <ele>1087.5</ele>
        <time>2012-03-11T14:00:06Z</time>
      </trkpt>
      <trkpt lat="45.99623" lon="6.53965">
        <ele>1084.6</ele>
        <time>2012-03-11T14:00:07Z</time>
      </trkpt>
      <trkpt lat="45.9963" lon="6.53972">
        <ele>1082.1</ele>
        <time>2012-03-11T14:00:08Z</time>
      </trkpt>
      <trkpt lat="45.99637" lon="6.53977">
        <ele>1080.1</ele>
        <time>2012-03-11T14:00:09Z</time>
      </trkpt>
      <trkpt lat="45.99644" lon="6.53978">
        <ele>1078.5</ele>
        <time>2012-03-11T14:00:10Z</time>
      </trkpt>
      <trkpt lat="45.99652" lon="6.53977">
        <ele>1077</ele>
        <time>2012-03-11T14:00:11Z</time>
      </trkpt>
      <trkpt lat="45.9966" lon="6.53976">
        <ele>1075.5</ele>
        <time>2012-03-11T14:00:12Z</time>
      </trkpt>
      <trkpt lat="45.99667" lon="6.53978">
        <ele>1074.3</ele>
        <time>2012-03-11T14:00:13Z</time>
      </trkpt>
      <trkpt lat="45.99674" lon="6.5398">
        <ele>1072.5</ele>
        <time>2012-03-11T14:00:14Z</time>
      </trkpt>
      <trkpt lat="45.99682" lon="6.53982">
        <ele>1070.5</ele>
        <time>2012-03-11T14:00:15Z</time>
      </trkpt>
      <trkpt lat="45.99689" lon="6.53987">
        <ele>1068.5</ele>
        <time>2012-03-11T14:00:16Z</time>
      </trkpt>
      <trkpt lat="45.99695" lon="6.53994">
        <ele>1066.6</ele>
        <time>2012-03-11T14:00:17Z</time>
      </trkpt>
      <trkpt lat="45.99701" lon="6.53996">
        <ele>1064.4</ele>
        <time>2012-03-11T14:00:18Z</time>
      </trkpt>
      <trkpt lat="45.9971" lon="6.53995">
        <ele>1061</ele>
        <time>2012-03-11T14:00:20Z</time>
      </trkpt>
      <trkpt lat="45.99716" lon="6.53997">
        <ele>1057.9</ele>
        <time>2012-03-11T14:00:22Z</time>
      </trkpt>
      <trkpt lat="45.99718" lon="6.54001">
        <ele>1056</ele>
        <time>2012-03-11T14:00:23Z</time>
      </trkpt>
      <trkpt lat="45.99722" lon="6.54007">
        <ele>1054.6</ele>
        <time>2012-03-11T14:00:24Z</time>
      </trkpt>
      <trkpt lat="45.99728" lon="6.5401">
        <ele>1054</ele>
        <time>2012-03-11T14:00:25Z</time>
      </trkpt>
      <trkpt lat="45.99733" lon="6.54012">
        <ele>1052.9</ele>
        <time>2012-03-11T14:00:26Z</time>
      </trkpt>
      <trkpt lat="45.99737" lon="6.54018">
        <ele>1051</ele>
        <time>2012-03-11T14:00:27Z</time>
      </trkpt>
      <trkpt lat="45.99741" lon="6.54025">
        <ele>1049.5</ele>
        <time>2012-03-11T14:00:28Z</time>
      </trkpt>
      <trkpt lat="45.99746" lon="6.5403">
        <ele>1048.3</ele>
        <time>2012-03-11T14:00:29Z</time>
      </trkpt>
      <trkpt lat="45.99752" lon="6.54032">
        <ele>1047.8</ele>
        <time>2012-03-11T14:00:30Z</time>
      </trkpt>
      <trkpt lat="45.99755" lon="6.54035">
        <ele>1047.6</ele>
        <time>2012-03-11T14:00:31Z</time>
      </trkpt>
      <trkpt lat="45.99759" lon="6.54041">
        <ele>1047</ele>
        <time>2012-03-11T14:00:32Z</time>
      </trkpt>
      <trkpt lat="45.99764" lon="6.5405">
        <ele>1046.8</ele>
        <time>2012-03-11T14:00:33Z</time>
      </trkpt>
      <trkpt lat="45.99769" lon="6.54058">
        <ele>1046.8</ele>
        <time>2012-03-11T14:00:34Z</time>
      </trkpt>
      <trkpt lat="45.99775" lon="6.54062">
        <ele>1047.5</ele>
        <time>2012-03-11T14:00:35Z</time>
      </trkpt>
      <trkpt lat="45.99781" lon="6.54064">
        <ele>1047.4</ele>
        <time>2012-03-11T14:00:36Z</time>
      </trkpt>
      <trkpt lat="45.99789" lon="6.54069">
        <ele>1046.4</ele>
        <time>2012-03-11T14:00:38Z</time>
      </trkpt>
      <trkpt lat="45.99797" lon="6.54074">
        <ele>1053</ele>
        <time>2012-03-11T14:00:59Z</time>
      </trkpt>
      <trkpt lat="45.99805" lon="6.54077">
        <ele>1051.1</ele>
        <time>2012-03-11T14:01:08Z</time>
      </trkpt>
      <trkpt lat="45.99804" lon="6.54088">
        <ele>1051</ele>
        <time>2012-03-11T14:01:11Z</time>
      </trkpt>
      <trkpt lat="45.99809" lon="6.54098">
        <ele>1055.1</ele>
        <time>2012-03-11T14:01:17Z</time>
      </trkpt>
      <trkpt lat="45.99816" lon="6.54104">
        <ele>1068.4</ele>
        <time>2012-03-11T14:01:27Z</time>
      </trkpt>
      <trkpt lat="45.99823" lon="6.54111">
        <ele>1074.5</ele>
        <time>2012-03-11T14:01:36Z</time>
      </trkpt>
      <trkpt lat="45.99825" lon="6.54112">
        <ele>1073.5</ele>
        <time>2012-03-11T14:01:37Z</time>
      </trkpt>
      <trkpt lat="45.99834" lon="6.54124">
        <ele>1060.4</ele>
        <time>2012-03-11T14:01:43Z</time>
      </trkpt>
      <trkpt lat="45.99841" lon="6.5413">
        <ele>1050.4</ele>
        <time>2012-03-11T14:01:46Z</time>
      </trkpt>
      <trkpt lat="45.99848" lon="6.54134">
        <ele>1042.9</ele>
        <time>2012-03-11T14:01:48Z</time>
      </trkpt>
      <trkpt lat="45.99854" lon="6.54139">
        <ele>1033</ele>
        <time>2012-03-11T14:01:51Z</time>
      </trkpt>
      <trkpt lat="45.99861" lon="6.54141">
        <ele>1027.8</ele>
        <time>2012-03-11T14:01:53Z</time>
      </trkpt>
      <trkpt lat="45.99867" lon="6.54143">
        <ele>1024</ele>
        <time>2012-03-11T14:01:55Z</time>
      </trkpt>
      <trkpt lat="45.99874" lon="6.54143">
        <ele>1022.2</ele>
        <time>2012-03-11T14:01:57Z</time>
      </trkpt>
      <trkpt lat="45.99879" lon="6.54143">
        <ele>1021.2</ele>
        <time>2012-03-11T14:01:58Z</time>
      </trkpt>
      <trkpt lat="45.99888" lon="6.54143">
        <ele>1018.5</ele>
        <time>2012-03-11T14:02:00Z</time>
      </trkpt>
      <trkpt lat="45.99897" lon="6.54144">
        <ele>1016.4</ele>
        <time>2012-03-11T14:02:02Z</time>
      </trkpt>
      <trkpt lat="45.99905" lon="6.54145">
        <ele>1014.2</ele>
        <time>2012-03-11T14:02:04Z</time>
      </trkpt>
      <trkpt lat="45.99913" lon="6.54145">
        <ele>1014</ele>
        <time>2012-03-11T14:02:06Z</time>
      </trkpt>
      <trkpt lat="45.99922" lon="6.54145">
        <ele>1014.2</ele>
        <time>2012-03-11T14:02:08Z</time>
      </trkpt>
      <trkpt lat="45.99929" lon="6.54146">
        <ele>1014</ele>
        <time>2012-03-11T14:02:10Z</time>
      </trkpt>
      <trkpt lat="45.99937" lon="6.54146">
        <ele>1013.7</ele>
        <time>2012-03-11T14:02:12Z</time>
      </trkpt>
      <trkpt lat="45.99943" lon="6.54145">
        <ele>1012.7</ele>
        <time>2012-03-11T14:02:14Z</time>
      </trkpt>
      <trkpt lat="45.99949" lon="6.54144">
        <ele>1012.2</ele>
        <time>2012-03-11T14:02:16Z</time>
      </trkpt>
      <trkpt lat="45.99956" lon="6.54145">
        <ele>1011.4</ele>
        <time>2012-03-11T14:02:18Z</time>
      </trkpt>
      <trkpt lat="45.99963" lon="6.54145">
        <ele>1011.7</ele>
        <time>2012-03-11T14:02:20Z</time>
      </trkpt>
      <trkpt lat="45.99969" lon="6.54145">
        <ele>1012.2</ele>
        <time>2012-03-11T14:02:22Z</time>
      </trkpt>
      <trkpt lat="45.99976" lon="6.54143">
        <ele>1013</ele>
        <time>2012-03-11T14:02:24Z</time>
      </trkpt>
      <trkpt lat="45.99982" lon="6.54141">
        <ele>1013.4</ele>
        <time>2012-03-11T14:02:26Z</time>
      </trkpt>
      <trkpt lat="45.99989" lon="6.54138">
        <ele>1014.2</ele>
        <time>2012-03-11T14:02:28Z</time>
      </trkpt>
      <trkpt lat="45.99996" lon="6.5413">
        <ele>1017.2</ele>
        <time>2012-03-11T14:02:31Z</time>
      </trkpt>
      <trkpt lat="46.00001" lon="6.54124">
        <ele>1020</ele>
        <time>2012-03-11T14:02:33Z</time>
      </trkpt>
      <trkpt lat="46.00007" lon="6.54119">
        <ele>1023</ele>
        <time>2012-03-11T14:02:35Z</time>
      </trkpt>
      <trkpt lat="46.00013" lon="6.54115">
        <ele>1024.5</ele>
        <time>2012-03-11T14:02:37Z</time>
      </trkpt>
      <trkpt lat="46.00015" lon="6.54113">
        <ele>1024.5</ele>
        <time>2012-03-11T14:02:38Z</time>
      </trkpt>
      <trkpt lat="46.00027" lon="6.54109">
        <ele>1022.2</ele>
        <time>2012-03-11T14:02:42Z</time>
      </trkpt>
      <trkpt lat="46.00035" lon="6.54109">
        <ele>1020.2</ele>
        <time>2012-03-11T14:02:44Z</time>
      </trkpt>
      <trkpt lat="46.00043" lon="6.54111">
        <ele>1018.7</ele>
        <time>2012-03-11T14:02:46Z</time>
      </trkpt>
      <trkpt lat="46.0005" lon="6.54113">
        <ele>1017.9</ele>
        <time>2012-03-11T14:02:48Z</time>
      </trkpt>
      <trkpt lat="46.00055" lon="6.54114">
        <ele>1016.9</ele>
        <time>2012-03-11T14:02:49Z</time>
      </trkpt>
      <trkpt lat="46.0006" lon="6.54115">
        <ele>1015.9</ele>
        <time>2012-03-11T14:02:50Z</time>
      </trkpt>
      <trkpt lat="46.00068" lon="6.54114">
        <ele>1013.4</ele>
        <time>2012-03-11T14:02:52Z</time>
      </trkpt>
      <trkpt lat="46.00073" lon="6.54114">
        <ele>1011.9</ele>
        <time>2012-03-11T14:02:53Z</time>
      </trkpt>
      <trkpt lat="46.00078" lon="6.54113">
        <ele>1010.5</ele>
        <time>2012-03-11T14:02:54Z</time>
      </trkpt>
      <trkpt lat="46.00086" lon="6.54113">
        <ele>1007.7</ele>
        <time>2012-03-11T14:02:56Z</time>
      </trkpt>
      <trkpt lat="46.00091" lon="6.54112">
        <ele>1006</ele>
        <time>2012-03-11T14:02:57Z</time>
      </trkpt>
      <trkpt lat="46.00096" lon="6.54112">
        <ele>1004.5</ele>
        <time>2012-03-11T14:02:58Z</time>
      </trkpt>
      <trkpt lat="46.00102" lon="6.54112">
        <ele>1002.9</ele>
        <time>2012-03-11T14:02:59Z</time>
      </trkpt>
      <trkpt lat="46.00107" lon="6.54112">
        <ele>1001</ele>
        <time>2012-03-11T14:03:00Z</time>
      </trkpt>
      <trkpt lat="46.00115" lon="6.54113">
        <ele>998.5</ele>
        <time>2012-03-11T14:03:02Z</time>
      </trkpt>
      <trkpt lat="46.00122" lon="6.54113">
        <ele>999</ele>
        <time>2012-03-11T14:03:05Z</time>
      </trkpt>
      <trkpt lat="46.00131" lon="6.54113">
        <ele>1001.5</ele>
        <time>2012-03-11T14:03:08Z</time>
      </trkpt>
      <trkpt lat="46.00139" lon="6.54112">
        <ele>1006.7</ele>
        <time>2012-03-11T14:03:12Z</time>
      </trkpt>
      <trkpt lat="46.00147" lon="6.5411">
        <ele>1014.4</ele>
        <time>2012-03-11T14:03:17Z</time>
      </trkpt>
      <trkpt lat="46.00154" lon="6.54104">
        <ele>1030</ele>
        <time>2012-03-11T14:03:31Z</time>
      </trkpt>
      <trkpt lat="46.00159" lon="6.54095">
        <ele>1045.8</ele>
        <time>2012-03-11T14:03:45Z</time>
      </trkpt>
      <trkpt lat="46.00159" lon="6.54093">
        <ele>1046.5</ele>
        <time>2012-03-11T14:03:46Z</time>
      </trkpt>
      <trkpt lat="46.00165" lon="6.54071">
        <ele>1042.5</ele>
        <time>2012-03-11T14:04:01Z</time>
      </trkpt>
      <trkpt lat="46.00168" lon="6.54059">
        <ele>1037.8</ele>
        <time>2012-03-11T14:04:11Z</time>
      </trkpt>
      <trkpt lat="46.00171" lon="6.54056">
        <ele>1031.5</ele>
        <time>2012-03-11T14:05:27Z</time>
      </trkpt>
      <trkpt lat="46.00171" lon="6.54056">
        <ele>1031.5</ele>
        <time>2012-03-11T14:05:27Z</time>
      </trkpt>
    </trkseg>
  </trk>
</gpx>